Wetterdaten: aktuell Dienstag, 09.08.2022 22:06
Datum Zeit Temp. A. Feuchte A. Luftdruck Regen Wind Richtung Richtung ET Taupunkt Windchill Windben Empfang
09.08.2022 22:06 12,2 C 85 % 1027,6 hPa 0,0 l/m 3,2 km/h (1 Bft) NO 45 0,000 mm 9,8 C 12,2 C 4,8 km/h (1 Bft) 100,00 %
09.08.2022 22:05 12,1 C 85 % 1027,6 hPa 0,0 l/m 3,2 km/h (1 Bft) NO 45 0,000 mm 9,7 C 12,1 C 4,8 km/h (1 Bft) 95,65 %
09.08.2022 22:04 12,1 C 85 % 1027,5 hPa 0,0 l/m 3,2 km/h (1 Bft) NO 45 0,000 mm 9,7 C 12,1 C 4,8 km/h (1 Bft) 95,65 %
09.08.2022 22:03 12,1 C 85 % 1027,6 hPa 0,0 l/m 3,2 km/h (1 Bft) NO 45 0,000 mm 9,7 C 12,1 C 4,8 km/h (1 Bft) 100,00 %
09.08.2022 22:02 12,1 C 85 % 1027,6 hPa 0,0 l/m 3,2 km/h (1 Bft) NO 45 0,000 mm 9,7 C 12,1 C 4,8 km/h (1 Bft) 100,00 %
09.08.2022 22:01 12,1 C 85 % 1027,6 hPa 0,0 l/m 3,2 km/h (1 Bft) NO 45 0,000 mm 9,7 C 12,1 C 3,2 km/h (1 Bft) 100,00 %
09.08.2022 22:00 12,1 C 85 % 1027,6 hPa 0,0 l/m 3,2 km/h (1 Bft) NO 45 0,000 mm 9,7 C 12,1 C 4,8 km/h (1 Bft) 95,65 %
09.08.2022 21:59 12,1 C 85 % 1027,6 hPa 0,0 l/m 3,2 km/h (1 Bft) NO 45 0,000 mm 9,7 C 12,1 C 4,8 km/h (1 Bft) 100,00 %
09.08.2022 21:58 12,1 C 85 % 1027,5 hPa 0,0 l/m 3,2 km/h (1 Bft) NO 45 0,000 mm 9,7 C 12,1 C 4,8 km/h (1 Bft) 91,30 %
09.08.2022 21:57 12,1 C 84 % 1027,5 hPa 0,0 l/m 3,2 km/h (1 Bft) NO 45 0,000 mm 9,5 C 12,1 C 4,8 km/h (1 Bft) 95,65 %
09.08.2022 21:56 12,1 C 84 % 1027,4 hPa 0,0 l/m 3,2 km/h (1 Bft) NO 45 0,000 mm 9,5 C 12,1 C 4,8 km/h (1 Bft) 100,00 %
09.08.2022 21:55 12,2 C 84 % 1027,6 hPa 0,0 l/m 3,2 km/h (1 Bft) NO 45 0,000 mm 9,6 C 12,2 C 4,8 km/h (1 Bft) 95,65 %
09.08.2022 21:54 12,2 C 84 % 1027,4 hPa 0,0 l/m 3,2 km/h (1 Bft) NO 45 0,000 mm 9,6 C 12,2 C 4,8 km/h (1 Bft) 100,00 %
09.08.2022 21:53 12,3 C 84 % 1027,5 hPa 0,0 l/m 3,2 km/h (1 Bft) NO 45 0,000 mm 9,7 C 12,3 C 4,8 km/h (1 Bft) 100,00 %
09.08.2022 21:52 12,4 C 83 % 1027,4 hPa 0,0 l/m 3,2 km/h (1 Bft) NO 45 0,000 mm 9,6 C 12,4 C 4,8 km/h (1 Bft) 100,00 %
09.08.2022 21:51 12,4 C 83 % 1027,4 hPa 0,0 l/m 3,2 km/h (1 Bft) NO 45 0,000 mm 9,6 C 12,4 C 4,8 km/h (1 Bft) 95,65 %
09.08.2022 21:50 12,5 C 83 % 1027,4 hPa 0,0 l/m 3,2 km/h (1 Bft) NO 45 0,000 mm 9,7 C 12,5 C 4,8 km/h (1 Bft) 100,00 %
09.08.2022 21:49 12,5 C 83 % 1027,4 hPa 0,0 l/m 1,6 km/h (1 Bft) NO 45 0,000 mm 9,7 C 12,5 C 3,2 km/h (1 Bft) 100,00 %
09.08.2022 21:48 12,5 C 84 % 1027,4 hPa 0,0 l/m 3,2 km/h (1 Bft) NO 45 0,000 mm 9,9 C 12,5 C 4,8 km/h (1 Bft) 100,00 %
09.08.2022 21:47 12,5 C 84 % 1027,4 hPa 0,0 l/m 3,2 km/h (1 Bft) NO 45 0,000 mm 9,9 C 12,5 C 3,2 km/h (1 Bft) 95,65 %
09.08.2022 21:46 12,4 C 84 % 1027,3 hPa 0,0 l/m 3,2 km/h (1 Bft) NO 45 0,000 mm 9,8 C 12,4 C 4,8 km/h (1 Bft) 100,00 %
09.08.2022 21:45 12,5 C 84 % 1027,3 hPa 0,0 l/m 3,2 km/h (1 Bft) NO 45 0,000 mm 9,9 C 12,5 C 3,2 km/h (1 Bft) 95,65 %
09.08.2022 21:44 12,5 C 84 % 1027,4 hPa 0,0 l/m 3,2 km/h (1 Bft) NO 45 0,000 mm 9,9 C 12,5 C 3,2 km/h (1 Bft) 95,65 %
09.08.2022 21:43 12,5 C 83 % 1027,3 hPa 0,0 l/m 3,2 km/h (1 Bft) NO 45 0,000 mm 9,7 C 12,5 C 3,2 km/h (1 Bft) 100,00 %
09.08.2022 21:42 12,6 C 83 % 1027,3 hPa 0,0 l/m 3,2 km/h (1 Bft) NO 45 0,000 mm 9,8 C 12,6 C 4,8 km/h (1 Bft) 100,00 %
09.08.2022 21:41 12,7 C 83 % 1027,4 hPa 0,0 l/m 3,2 km/h (1 Bft) NO 45 0,000 mm 9,9 C 12,7 C 4,8 km/h (1 Bft) 100,00 %
09.08.2022 21:40 12,8 C 82 % 1027,3 hPa 0,0 l/m 3,2 km/h (1 Bft) O-NO 67 0,000 mm 9,8 C 12,8 C 4,8 km/h (1 Bft) 100,00 %
09.08.2022 21:39 12,8 C 82 % 1027,4 hPa 0,0 l/m 3,2 km/h (1 Bft) O-NO 67 0,000 mm 9,8 C 12,8 C 4,8 km/h (1 Bft) 100,00 %
09.08.2022 21:38 12,9 C 82 % 1027,4 hPa 0,0 l/m 3,2 km/h (1 Bft) NO 45 0,000 mm 9,9 C 12,9 C 4,8 km/h (1 Bft) 100,00 %
09.08.2022 21:37 12,9 C 82 % 1027,3 hPa 0,0 l/m 3,2 km/h (1 Bft) NO 45 0,000 mm 9,9 C 12,9 C 4,8 km/h (1 Bft) 95,65 %
09.08.2022 21:36 13,0 C 82 % 1027,3 hPa 0,0 l/m 3,2 km/h (1 Bft) NO 45 0,000 mm 10,0 C 13,0 C 4,8 km/h (1 Bft) 100,00 %
09.08.2022 21:35 13,1 C 82 % 1027,3 hPa 0,0 l/m 4,8 km/h (1 Bft) NO 45 0,000 mm 10,1 C 13,1 C 4,8 km/h (1 Bft) 100,00 %
09.08.2022 21:34 13,1 C 82 % 1027,3 hPa 0,0 l/m 3,2 km/h (1 Bft) NO 45 0,000 mm 10,1 C 13,1 C 4,8 km/h (1 Bft) 95,65 %
09.08.2022 21:33 13,1 C 82 % 1027,3 hPa 0,0 l/m 3,2 km/h (1 Bft) NO 45 0,000 mm 10,1 C 13,1 C 4,8 km/h (1 Bft) 100,00 %
09.08.2022 21:32 13,0 C 83 % 1027,3 hPa 0,0 l/m 3,2 km/h (1 Bft) NO 45 0,000 mm 10,2 C 13,0 C 4,8 km/h (1 Bft) 95,65 %
09.08.2022 21:31 12,9 C 83 % 1027,2 hPa 0,0 l/m 3,2 km/h (1 Bft) NO 45 0,000 mm 10,1 C 12,9 C 4,8 km/h (1 Bft) 100,00 %
09.08.2022 21:30 12,9 C 83 % 1027,3 hPa 0,0 l/m 3,2 km/h (1 Bft) NO 45 0,000 mm 10,1 C 12,9 C 4,8 km/h (1 Bft) 100,00 %
09.08.2022 21:29 12,9 C 83 % 1027,3 hPa 0,0 l/m 3,2 km/h (1 Bft) NO 45 0,000 mm 10,1 C 12,9 C 4,8 km/h (1 Bft) 91,30 %
09.08.2022 21:28 12,8 C 83 % 1027,3 hPa 0,0 l/m 3,2 km/h (1 Bft) NO 45 0,000 mm 10,0 C 12,8 C 4,8 km/h (1 Bft) 100,00 %
09.08.2022 21:27 12,8 C 83 % 1027,3 hPa 0,0 l/m 3,2 km/h (1 Bft) NO 45 0,000 mm 10,0 C 12,8 C 4,8 km/h (1 Bft) 100,00 %
09.08.2022 21:26 12,8 C 83 % 1027,3 hPa 0,0 l/m 3,2 km/h (1 Bft) O-NO 67 0,000 mm 10,0 C 12,8 C 4,8 km/h (1 Bft) 100,00 %
09.08.2022 21:25 12,8 C 83 % 1027,3 hPa 0,0 l/m 4,8 km/h (1 Bft) O-NO 67 0,000 mm 10,0 C 12,8 C 4,8 km/h (1 Bft) 100,00 %
09.08.2022 21:24 12,8 C 83 % 1027,3 hPa 0,0 l/m 3,2 km/h (1 Bft) O-NO 67 0,000 mm 10,0 C 12,8 C 4,8 km/h (1 Bft) 100,00 %
09.08.2022 21:23 12,9 C 83 % 1027,2 hPa 0,0 l/m 3,2 km/h (1 Bft) NO 45 0,000 mm 10,1 C 12,9 C 4,8 km/h (1 Bft) 95,65 %
09.08.2022 21:22 13,0 C 83 % 1027,3 hPa 0,0 l/m 4,8 km/h (1 Bft) NO 45 0,000 mm 10,2 C 13,0 C 4,8 km/h (1 Bft) 100,00 %
09.08.2022 21:21 12,9 C 83 % 1027,2 hPa 0,0 l/m 3,2 km/h (1 Bft) NO 45 0,000 mm 10,1 C 12,9 C 4,8 km/h (1 Bft) 95,65 %
09.08.2022 21:20 13,0 C 83 % 1027,3 hPa 0,0 l/m 3,2 km/h (1 Bft) NO 45 0,000 mm 10,2 C 13,0 C 4,8 km/h (1 Bft) 100,00 %
09.08.2022 21:19 13,0 C 83 % 1027,3 hPa 0,0 l/m 3,2 km/h (1 Bft) NO 45 0,000 mm 10,2 C 13,0 C 4,8 km/h (1 Bft) 100,00 %
09.08.2022 21:18 12,9 C 83 % 1027,3 hPa 0,0 l/m 3,2 km/h (1 Bft) NO 45 0,000 mm 10,1 C 12,9 C 4,8 km/h (1 Bft) 100,00 %
09.08.2022 21:17 13,0 C 83 % 1027,3 hPa 0,0 l/m 3,2 km/h (1 Bft) NO 45 0,000 mm 10,2 C 13,0 C 3,2 km/h (1 Bft) 100,00 %
09.08.2022 21:16 13,0 C 83 % 1027,2 hPa 0,0 l/m 3,2 km/h (1 Bft) NO 45 0,000 mm 10,2 C 13,0 C 4,8 km/h (1 Bft) 100,00 %
09.08.2022 21:15 13,0 C 84 % 1027,2 hPa 0,0 l/m 3,2 km/h (1 Bft) NO 45 0,000 mm 10,4 C 13,0 C 4,8 km/h (1 Bft) 95,65 %
09.08.2022 21:14 13,0 C 84 % 1027,3 hPa 0,0 l/m 3,2 km/h (1 Bft) NO 45 0,000 mm 10,4 C 13,0 C 3,2 km/h (1 Bft) 100,00 %
09.08.2022 21:13 13,1 C 84 % 1027,2 hPa 0,0 l/m 3,2 km/h (1 Bft) NO 45 0,000 mm 10,5 C 13,1 C 4,8 km/h (1 Bft) 100,00 %
09.08.2022 21:12 13,1 C 84 % 1027,2 hPa 0,0 l/m 3,2 km/h (1 Bft) NO 45 0,000 mm 10,5 C 13,1 C 4,8 km/h (1 Bft) 100,00 %
09.08.2022 21:11 12,9 C 83 % 1027,2 hPa 0,0 l/m 3,2 km/h (1 Bft) NO 45 0,000 mm 10,1 C 12,9 C 3,2 km/h (1 Bft) 100,00 %
09.08.2022 21:10 12,9 C 83 % 1027,1 hPa 0,0 l/m 3,2 km/h (1 Bft) NO 45 0,000 mm 10,1 C 12,9 C 3,2 km/h (1 Bft) 95,65 %
09.08.2022 21:09 12,9 C 83 % 1027,2 hPa 0,0 l/m 3,2 km/h (1 Bft) NO 45 0,000 mm 10,1 C 12,9 C 4,8 km/h (1 Bft) 100,00 %
09.08.2022 21:08 13,0 C 83 % 1027,2 hPa 0,0 l/m 3,2 km/h (1 Bft) NO 45 0,000 mm 10,2 C 13,0 C 4,8 km/h (1 Bft) 95,65 %
09.08.2022 21:07 13,0 C 83 % 1027,2 hPa 0,0 l/m 3,2 km/h (1 Bft) NO 45 0,000 mm 10,2 C 13,0 C 4,8 km/h (1 Bft) 100,00 %
09.08.2022 21:06 13,0 C 81 % 1027,1 hPa 0,0 l/m 3,2 km/h (1 Bft) O-NO 67 0,000 mm 9,8 C 13,0 C 4,8 km/h (1 Bft) 95,65 %
09.08.2022 21:05 13,1 C 81 % 1027,2 hPa 0,0 l/m 4,8 km/h (1 Bft) O-NO 67 0,000 mm 9,9 C 13,1 C 4,8 km/h (1 Bft) 100,00 %
09.08.2022 21:04 13,1 C 81 % 1027,1 hPa 0,0 l/m 3,2 km/h (1 Bft) O-NO 67 0,000 mm 9,9 C 13,1 C 3,2 km/h (1 Bft) 91,30 %
09.08.2022 21:03 13,3 C 81 % 1027,2 hPa 0,0 l/m 3,2 km/h (1 Bft) O-NO 67 0,000 mm 10,1 C 13,3 C 3,2 km/h (1 Bft) 100,00 %
09.08.2022 21:02 13,4 C 81 % 1027,1 hPa 0,0 l/m 1,6 km/h (1 Bft) NO 45 0,000 mm 10,2 C 13,4 C 3,2 km/h (1 Bft) 100,00 %
09.08.2022 21:01 13,8 C 79 % 1027,2 hPa 0,0 l/m 1,6 km/h (1 Bft) NO 45 0,000 mm 10,2 C 13,8 C 3,2 km/h (1 Bft) 95,65 %
09.08.2022 21:00 13,9 C 79 % 1027,1 hPa 0,0 l/m 3,2 km/h (1 Bft) O-NO 67 0,000 mm 10,3 C 13,9 C 3,2 km/h (1 Bft) 91,30 %
09.08.2022 20:59 14,1 C 78 % 1027,0 hPa 0,0 l/m 3,2 km/h (1 Bft) O-NO 67 0,000 mm 10,3 C 14,1 C 3,2 km/h (1 Bft) 100,00 %
09.08.2022 20:58 14,1 C 78 % 1027,0 hPa 0,0 l/m 3,2 km/h (1 Bft) O-NO 67 0,000 mm 10,3 C 14,1 C 3,2 km/h (1 Bft) 100,00 %
09.08.2022 20:57 14,1 C 78 % 1027,0 hPa 0,0 l/m 3,2 km/h (1 Bft) O-NO 67 0,000 mm 10,3 C 14,1 C 3,2 km/h (1 Bft) 100,00 %
09.08.2022 20:56 14,1 C 78 % 1026,9 hPa 0,0 l/m 3,2 km/h (1 Bft) O-NO 67 0,000 mm 10,3 C 14,1 C 3,2 km/h (1 Bft) 100,00 %
09.08.2022 20:55 14,1 C 78 % 1027,0 hPa 0,0 l/m 3,2 km/h (1 Bft) O-NO 67 0,000 mm 10,3 C 14,1 C 3,2 km/h (1 Bft) 91,30 %
09.08.2022 20:54 14,1 C 78 % 1026,9 hPa 0,0 l/m 3,2 km/h (1 Bft) O-NO 67 0,000 mm 10,3 C 14,1 C 3,2 km/h (1 Bft) 95,65 %
09.08.2022 20:53 14,1 C 79 % 1026,9 hPa 0,0 l/m 3,2 km/h (1 Bft) O-NO 67 0,000 mm 10,5 C 14,1 C 4,8 km/h (1 Bft) 95,65 %
09.08.2022 20:52 14,0 C 79 % 1026,7 hPa 0,0 l/m 3,2 km/h (1 Bft) O-NO 67 0,000 mm 10,4 C 14,0 C 3,2 km/h (1 Bft) 100,00 %
09.08.2022 20:51 14,0 C 79 % 1026,7 hPa 0,0 l/m 3,2 km/h (1 Bft) O-NO 67 0,000 mm 10,4 C 14,0 C 4,8 km/h (1 Bft) 91,30 %
09.08.2022 20:50 13,8 C 79 % 1026,7 hPa 0,0 l/m 3,2 km/h (1 Bft) O-NO 67 0,000 mm 10,2 C 13,8 C 3,2 km/h (1 Bft) 95,65 %
09.08.2022 20:49 13,8 C 79 % 1026,8 hPa 0,0 l/m 3,2 km/h (1 Bft) O-NO 67 0,000 mm 10,2 C 13,8 C 3,2 km/h (1 Bft) 100,00 %
09.08.2022 20:48 13,8 C 79 % 1026,7 hPa 0,0 l/m 3,2 km/h (1 Bft) O-NO 67 0,000 mm 10,2 C 13,8 C 4,8 km/h (1 Bft) 100,00 %
09.08.2022 20:47 13,7 C 79 % 1026,7 hPa 0,0 l/m 3,2 km/h (1 Bft) O-NO 67 0,000 mm 10,1 C 13,7 C 4,8 km/h (1 Bft) 95,65 %
09.08.2022 20:46 13,7 C 79 % 1026,7 hPa 0,0 l/m 3,2 km/h (1 Bft) O-NO 67 0,000 mm 10,1 C 13,7 C 4,8 km/h (1 Bft) 100,00 %
09.08.2022 20:45 13,8 C 79 % 1026,6 hPa 0,0 l/m 3,2 km/h (1 Bft) O-NO 67 0,000 mm 10,2 C 13,8 C 3,2 km/h (1 Bft) 100,00 %
09.08.2022 20:44 13,9 C 78 % 1026,7 hPa 0,0 l/m 3,2 km/h (1 Bft) O-NO 67 0,000 mm 10,1 C 13,9 C 4,8 km/h (1 Bft) 100,00 %
09.08.2022 20:43 14,2 C 78 % 1026,7 hPa 0,0 l/m 3,2 km/h (1 Bft) O-NO 67 0,000 mm 10,4 C 14,2 C 4,8 km/h (1 Bft) 100,00 %
09.08.2022 20:42 14,1 C 78 % 1026,7 hPa 0,0 l/m 3,2 km/h (1 Bft) O-NO 67 0,000 mm 10,3 C 14,1 C 4,8 km/h (1 Bft) 95,65 %
09.08.2022 20:41 14,1 C 78 % 1026,7 hPa 0,0 l/m 3,2 km/h (1 Bft) O-NO 67 0,000 mm 10,3 C 14,1 C 4,8 km/h (1 Bft) 100,00 %
09.08.2022 20:40 14,1 C 79 % 1026,7 hPa 0,0 l/m 3,2 km/h (1 Bft) O-NO 67 0,000 mm 10,5 C 14,1 C 3,2 km/h (1 Bft) 95,65 %
09.08.2022 20:39 14,1 C 79 % 1026,7 hPa 0,0 l/m 3,2 km/h (1 Bft) O-NO 67 0,000 mm 10,5 C 14,1 C 4,8 km/h (1 Bft) 100,00 %
09.08.2022 20:38 14,0 C 82 % 1026,7 hPa 0,0 l/m 3,2 km/h (1 Bft) NO 45 0,000 mm 11,0 C 14,0 C 3,2 km/h (1 Bft) 100,00 %
09.08.2022 20:37 13,9 C 82 % 1026,6 hPa 0,0 l/m 3,2 km/h (1 Bft) NO 45 0,000 mm 10,9 C 13,9 C 3,2 km/h (1 Bft) 100,00 %
09.08.2022 20:36 13,9 C 82 % 1026,7 hPa 0,0 l/m 3,2 km/h (1 Bft) NO 45 0,000 mm 10,9 C 13,9 C 3,2 km/h (1 Bft) 100,00 %
09.08.2022 20:35 13,8 C 82 % 1026,7 hPa 0,0 l/m 3,2 km/h (1 Bft) NO 45 0,000 mm 10,8 C 13,8 C 3,2 km/h (1 Bft) 100,00 %
09.08.2022 20:34 13,6 C 82 % 1026,7 hPa 0,0 l/m 3,2 km/h (1 Bft) NO 45 0,000 mm 10,6 C 13,6 C 4,8 km/h (1 Bft) 100,00 %
09.08.2022 20:33 13,6 C 82 % 1026,7 hPa 0,0 l/m 3,2 km/h (1 Bft) NO 45 0,000 mm 10,6 C 13,6 C 4,8 km/h (1 Bft) 95,65 %
09.08.2022 20:32 13,6 C 82 % 1026,8 hPa 0,0 l/m 3,2 km/h (1 Bft) O-NO 67 0,000 mm 10,6 C 13,6 C 4,8 km/h (1 Bft) 95,65 %
09.08.2022 20:31 13,4 C 82 % 1026,8 hPa 0,0 l/m 3,2 km/h (1 Bft) O-NO 67 0,000 mm 10,4 C 13,4 C 3,2 km/h (1 Bft) 100,00 %
09.08.2022 20:30 13,4 C 82 % 1026,7 hPa 0,0 l/m 3,2 km/h (1 Bft) O-NO 67 0,000 mm 10,4 C 13,4 C 3,2 km/h (1 Bft) 95,65 %
09.08.2022 20:29 13,4 C 81 % 1026,7 hPa 0,0 l/m 3,2 km/h (1 Bft) O-NO 67 0,000 mm 10,2 C 13,4 C 4,8 km/h (1 Bft) 95,65 %
09.08.2022 20:28 13,6 C 80 % 1026,9 hPa 0,0 l/m 3,2 km/h (1 Bft) O-NO 67 0,000 mm 10,2 C 13,6 C 4,8 km/h (1 Bft) 100,00 %
09.08.2022 20:27 13,7 C 80 % 1026,6 hPa 0,0 l/m 3,2 km/h (1 Bft) O-NO 67 0,000 mm 10,3 C 13,7 C 3,2 km/h (1 Bft) 100,00 %
09.08.2022 20:26 13,9 C 80 % 1026,6 hPa 0,0 l/m 1,6 km/h (1 Bft) O-NO 67 0,000 mm 10,5 C 13,9 C 3,2 km/h (1 Bft) 95,65 %
09.08.2022 20:25 14,0 C 78 % 1026,6 hPa 0,0 l/m 1,6 km/h (1 Bft) O-NO 67 0,000 mm 10,2 C 14,0 C 3,2 km/h (1 Bft) 100,00 %
09.08.2022 20:24 14,1 C 78 % 1026,6 hPa 0,0 l/m 3,2 km/h (1 Bft) O-NO 67 0,000 mm 10,3 C 14,1 C 3,2 km/h (1 Bft) 100,00 %
09.08.2022 20:23 14,3 C 78 % 1026,5 hPa 0,0 l/m 1,6 km/h (1 Bft) O-NO 67 0,000 mm 10,5 C 14,3 C 3,2 km/h (1 Bft) 100,00 %
09.08.2022 20:22 14,4 C 78 % 1026,5 hPa 0,0 l/m 3,2 km/h (1 Bft) O-NO 67 0,000 mm 10,6 C 14,4 C 4,8 km/h (1 Bft) 100,00 %
09.08.2022 20:21 14,4 C 77 % 1026,6 hPa 0,0 l/m 3,2 km/h (1 Bft) O-NO 67 0,000 mm 10,4 C 14,4 C 3,2 km/h (1 Bft) 100,00 %
09.08.2022 20:20 14,4 C 77 % 1026,6 hPa 0,0 l/m 3,2 km/h (1 Bft) O-NO 67 0,000 mm 10,4 C 14,4 C 3,2 km/h (1 Bft) 100,00 %
09.08.2022 20:19 14,4 C 77 % 1026,6 hPa 0,0 l/m 1,6 km/h (1 Bft) O-NO 67 0,000 mm 10,4 C 14,4 C 3,2 km/h (1 Bft) 91,30 %
09.08.2022 20:18 14,4 C 77 % 1026,6 hPa 0,0 l/m 1,6 km/h (1 Bft) O-NO 67 0,000 mm 10,4 C 14,4 C 3,2 km/h (1 Bft) 100,00 %
09.08.2022 20:17 14,4 C 77 % 1026,5 hPa 0,0 l/m 3,2 km/h (1 Bft) O-NO 67 0,000 mm 10,4 C 14,4 C 3,2 km/h (1 Bft) 100,00 %
09.08.2022 20:16 14,4 C 78 % 1026,5 hPa 0,0 l/m 1,6 km/h (1 Bft) NO 45 0,000 mm 10,6 C 14,4 C 3,2 km/h (1 Bft) 100,00 %
09.08.2022 20:15 14,5 C 78 % 1026,5 hPa 0,0 l/m 1,6 km/h (1 Bft) NO 45 0,000 mm 10,7 C 14,5 C 3,2 km/h (1 Bft) 100,00 %
09.08.2022 20:14 14,5 C 78 % 1026,5 hPa 0,0 l/m 1,6 km/h (1 Bft) NO 45 0,000 mm 10,7 C 14,5 C 3,2 km/h (1 Bft) 91,30 %
09.08.2022 20:13 14,6 C 78 % 1026,5 hPa 0,0 l/m 1,6 km/h (1 Bft) NO 45 0,000 mm 10,8 C 14,6 C 3,2 km/h (1 Bft) 100,00 %
09.08.2022 20:12 14,7 C 77 % 1026,5 hPa 0,0 l/m 1,6 km/h (1 Bft) O-NO 67 0,000 mm 10,7 C 14,7 C 4,8 km/h (1 Bft) 95,65 %
09.08.2022 20:11 14,8 C 77 % 1026,5 hPa 0,0 l/m 1,6 km/h (1 Bft) NO 45 0,000 mm 10,8 C 14,8 C 3,2 km/h (1 Bft) 100,00 %
09.08.2022 20:10 14,9 C 77 % 1026,5 hPa 0,0 l/m 3,2 km/h (1 Bft) NO 45 0,000 mm 10,9 C 14,9 C 3,2 km/h (1 Bft) 100,00 %
09.08.2022 20:09 15,0 C 77 % 1026,5 hPa 0,0 l/m 1,6 km/h (1 Bft) NO 45 0,000 mm 11,0 C 15,0 C 3,2 km/h (1 Bft) 95,65 %
09.08.2022 20:08 15,1 C 76 % 1026,5 hPa 0,0 l/m 3,2 km/h (1 Bft) NO 45 0,000 mm 10,9 C 15,1 C 3,2 km/h (1 Bft) 100,00 %
09.08.2022 20:07 15,3 C 75 % 1026,4 hPa 0,0 l/m 1,6 km/h (1 Bft) NO 45 0,000 mm 10,9 C 15,3 C 3,2 km/h (1 Bft) 100,00 %
09.08.2022 20:06 15,4 C 74 % 1026,5 hPa 0,0 l/m 3,2 km/h (1 Bft) O-NO 67 0,000 mm 10,8 C 15,4 C 3,2 km/h (1 Bft) 100,00 %
09.08.2022 20:05 15,5 C 74 % 1026,4 hPa 0,0 l/m 1,6 km/h (1 Bft) O-NO 67 0,000 mm 10,9 C 15,5 C 3,2 km/h (1 Bft) 95,65 %
09.08.2022 20:04 15,6 C 74 % 1026,4 hPa 0,0 l/m 1,6 km/h (1 Bft) O-NO 67 0,000 mm 11,0 C 15,6 C 3,2 km/h (1 Bft) 100,00 %
09.08.2022 20:03 15,6 C 73 % 1026,5 hPa 0,0 l/m 1,6 km/h (1 Bft) O-NO 67 0,000 mm 10,8 C 15,6 C 3,2 km/h (1 Bft) 100,00 %
09.08.2022 20:02 15,7 C 72 % 1026,5 hPa 0,0 l/m 1,6 km/h (1 Bft) O-NO 67 0,000 mm 10,7 C 15,7 C 3,2 km/h (1 Bft) 100,00 %
09.08.2022 20:01 15,8 C 71 % 1026,5 hPa 0,0 l/m 1,6 km/h (1 Bft) O-NO 67 0,000 mm 10,6 C 15,8 C 3,2 km/h (1 Bft) 100,00 %
09.08.2022 20:00 16,0 C 69 % 1026,4 hPa 0,0 l/m 1,6 km/h (1 Bft) O-NO 67 0,000 mm 10,3 C 16,0 C 3,2 km/h (1 Bft) 100,00 %
09.08.2022 19:59 16,1 C 69 % 1026,4 hPa 0,0 l/m 1,6 km/h (1 Bft) O-NO 67 0,000 mm 10,4 C 16,1 C 3,2 km/h (1 Bft) 95,65 %
09.08.2022 19:58 16,2 C 68 % 1026,5 hPa 0,0 l/m 1,6 km/h (1 Bft) O-NO 67 0,000 mm 10,3 C 16,2 C 3,2 km/h (1 Bft) 91,30 %
09.08.2022 19:57 16,2 C 68 % 1026,5 hPa 0,0 l/m 1,6 km/h (1 Bft) NO 45 0,000 mm 10,3 C 16,2 C 1,6 km/h (1 Bft) 100,00 %
09.08.2022 19:56 16,2 C 68 % 1026,4 hPa 0,0 l/m 1,6 km/h (1 Bft) NO 45 0,000 mm 10,3 C 16,2 C 3,2 km/h (1 Bft) 95,65 %
09.08.2022 19:55 16,3 C 69 % 1026,5 hPa 0,0 l/m 1,6 km/h (1 Bft) NO 45 0,000 mm 10,6 C 16,3 C 3,2 km/h (1 Bft) 100,00 %
09.08.2022 19:54 16,3 C 68 % 1026,5 hPa 0,0 l/m 1,6 km/h (1 Bft) NO 45 0,000 mm 10,4 C 16,3 C 3,2 km/h (1 Bft) 100,00 %
09.08.2022 19:53 16,4 C 67 % 1026,4 hPa 0,0 l/m 1,6 km/h (1 Bft) NO 45 0,000 mm 10,3 C 16,4 C 3,2 km/h (1 Bft) 100,00 %
09.08.2022 19:52 16,6 C 67 % 1026,4 hPa 0,0 l/m 1,6 km/h (1 Bft) NO 45 0,000 mm 10,4 C 16,6 C 3,2 km/h (1 Bft) 100,00 %
09.08.2022 19:51 16,7 C 67 % 1026,4 hPa 0,0 l/m 1,6 km/h (1 Bft) NO 45 0,000 mm 10,5 C 16,7 C 1,6 km/h (1 Bft) 95,65 %
09.08.2022 19:50 16,8 C 66 % 1026,3 hPa 0,0 l/m 1,6 km/h (1 Bft) NO 45 0,000 mm 10,4 C 16,8 C 1,6 km/h (1 Bft) 95,65 %
09.08.2022 19:49 16,8 C 65 % 1026,3 hPa 0,0 l/m 1,6 km/h (1 Bft) NO 45 0,000 mm 10,2 C 16,8 C 3,2 km/h (1 Bft) 100,00 %
09.08.2022 19:48 16,9 C 65 % 1026,3 hPa 0,0 l/m 1,6 km/h (1 Bft) N-NO 22 0,000 mm 10,3 C 16,9 C 3,2 km/h (1 Bft) 95,65 %
09.08.2022 19:47 16,9 C 64 % 1026,2 hPa 0,0 l/m 1,6 km/h (1 Bft) N-NO 22 0,000 mm 10,0 C 16,9 C 1,6 km/h (1 Bft) 100,00 %
09.08.2022 19:46 16,9 C 64 % 1026,2 hPa 0,0 l/m 0,0 km/h (0 Bft) N-NO 22 0,000 mm 10,0 C 16,9 C 1,6 km/h (1 Bft) 100,00 %
09.08.2022 19:45 16,9 C 65 % 1026,1 hPa 0,0 l/m 1,6 km/h (1 Bft) N-NO 22 0,000 mm 10,3 C 16,9 C 1,6 km/h (1 Bft) 95,65 %
09.08.2022 19:44 17,0 C 64 % 1026,2 hPa 0,0 l/m 1,6 km/h (1 Bft) N-NO 22 0,000 mm 10,1 C 17,0 C 1,6 km/h (1 Bft) 95,65 %
09.08.2022 19:43 17,1 C 64 % 1026,2 hPa 0,0 l/m 3,2 km/h (1 Bft) N 360 0,000 mm 10,2 C 17,1 C 4,8 km/h (1 Bft) 95,65 %
09.08.2022 19:42 17,1 C 65 % 1026,3 hPa 0,0 l/m 1,6 km/h (1 Bft) W-NW 292 0,000 mm 10,5 C 17,1 C 3,2 km/h (1 Bft) 100,00 %
09.08.2022 19:41 17,2 C 64 % 1026,2 hPa 0,0 l/m 3,2 km/h (1 Bft) W-NW 292 0,000 mm 10,3 C 17,2 C 6,4 km/h (2 Bft) 100,00 %
09.08.2022 19:40 17,2 C 63 % 1026,2 hPa 0,0 l/m 1,6 km/h (1 Bft) N-NW 337 0,000 mm 10,1 C 17,2 C 3,2 km/h (1 Bft) 100,00 %
09.08.2022 19:39 17,3 C 64 % 1026,3 hPa 0,0 l/m 0,0 km/h (0 Bft) N 360 0,000 mm 10,4 C 17,3 C 1,6 km/h (1 Bft) 100,00 %
09.08.2022 19:38 17,3 C 64 % 1026,2 hPa 0,0 l/m 1,6 km/h (1 Bft) NW 315 0,000 mm 10,4 C 17,3 C 4,8 km/h (1 Bft) 95,65 %
09.08.2022 19:37 17,3 C 64 % 1026,2 hPa 0,0 l/m 3,2 km/h (1 Bft) NW 315 0,000 mm 10,4 C 17,3 C 4,8 km/h (1 Bft) 91,30 %
09.08.2022 19:36 17,3 C 64 % 1026,2 hPa 0,0 l/m 4,8 km/h (1 Bft) N-NW 337 0,000 mm 10,4 C 17,3 C 6,4 km/h (2 Bft) 100,00 %
09.08.2022 19:35 17,4 C 64 % 1026,3 hPa 0,0 l/m 3,2 km/h (1 Bft) N-NW 337 0,000 mm 10,5 C 17,4 C 6,4 km/h (2 Bft) 100,00 %
09.08.2022 19:34 17,4 C 64 % 1026,3 hPa 0,0 l/m 1,6 km/h (1 Bft) N-NW 337 0,000 mm 10,5 C 17,4 C 3,2 km/h (1 Bft) 100,00 %
09.08.2022 19:33 17,5 C 63 % 1026,2 hPa 0,0 l/m 4,8 km/h (1 Bft) N-NW 337 0,000 mm 10,4 C 17,5 C 8,0 km/h (2 Bft) 100,00 %
09.08.2022 19:32 17,6 C 63 % 1026,2 hPa 0,0 l/m 6,4 km/h (2 Bft) N 360 0,000 mm 10,5 C 17,6 C 8,0 km/h (2 Bft) 100,00 %
09.08.2022 19:31 17,7 C 63 % 1026,1 hPa 0,0 l/m 4,8 km/h (1 Bft) N-NW 337 0,000 mm 10,6 C 17,7 C 6,4 km/h (2 Bft) 100,00 %
09.08.2022 19:30 17,7 C 62 % 1026,2 hPa 0,0 l/m 6,4 km/h (2 Bft) N-NW 337 0,000 mm 10,3 C 17,7 C 8,0 km/h (2 Bft) 95,65 %
09.08.2022 19:29 17,8 C 62 % 1026,1 hPa 0,0 l/m 4,8 km/h (1 Bft) N 360 0,000 mm 10,4 C 17,8 C 8,0 km/h (2 Bft) 95,65 %
09.08.2022 19:28 17,8 C 62 % 1026,1 hPa 0,0 l/m 6,4 km/h (2 Bft) N 360 0,000 mm 10,4 C 17,8 C 8,0 km/h (2 Bft) 100,00 %
09.08.2022 19:27 17,9 C 61 % 1026,1 hPa 0,0 l/m 4,8 km/h (1 Bft) NW 315 0,000 mm 10,3 C 17,9 C 6,4 km/h (2 Bft) 86,96 %
09.08.2022 19:26 17,9 C 62 % 1026,1 hPa 0,0 l/m 4,8 km/h (1 Bft) W-NW 292 0,000 mm 10,5 C 17,9 C 6,4 km/h (2 Bft) 100,00 %
09.08.2022 19:25 18,0 C 62 % 1026,1 hPa 0,0 l/m 4,8 km/h (1 Bft) NO 45 0,000 mm 10,6 C 18,0 C 6,4 km/h (2 Bft) 100,00 %
09.08.2022 19:24 18,1 C 60 % 1026,2 hPa 0,0 l/m 6,4 km/h (2 Bft) N-NO 22 0,000 mm 10,2 C 18,1 C 11,3 km/h (2 Bft) 100,00 %
09.08.2022 19:23 18,1 C 60 % 1026,1 hPa 0,0 l/m 4,8 km/h (1 Bft) N 360 0,000 mm 10,2 C 18,1 C 9,7 km/h (2 Bft) 95,65 %
09.08.2022 19:22 18,2 C 60 % 1026,0 hPa 0,0 l/m 4,8 km/h (1 Bft) N-NO 22 0,000 mm 10,3 C 18,2 C 8,0 km/h (2 Bft) 100,00 %
09.08.2022 19:21 18,2 C 60 % 1026,1 hPa 0,0 l/m 4,8 km/h (1 Bft) NW 315 0,000 mm 10,3 C 18,2 C 8,0 km/h (2 Bft) 100,00 %
09.08.2022 19:20 18,2 C 60 % 1026,1 hPa 0,0 l/m 3,2 km/h (1 Bft) N-NW 337 0,000 mm 10,3 C 18,2 C 3,2 km/h (1 Bft) 100,00 %
09.08.2022 19:19 18,3 C 59 % 1026,1 hPa 0,0 l/m 3,2 km/h (1 Bft) N-NW 337 0,000 mm 10,1 C 18,3 C 8,0 km/h (2 Bft) 100,00 %
09.08.2022 19:18 18,3 C 59 % 1026,1 hPa 0,0 l/m 4,8 km/h (1 Bft) N-NO 22 0,000 mm 10,1 C 18,3 C 6,4 km/h (2 Bft) 100,00 %
09.08.2022 19:17 18,3 C 59 % 1026,0 hPa 0,0 l/m 6,4 km/h (2 Bft) N-NO 22 0,000 mm 10,1 C 18,3 C 9,7 km/h (2 Bft) 100,00 %
09.08.2022 19:16 18,4 C 57 % 1026,0 hPa 0,0 l/m 6,4 km/h (2 Bft) NW 315 0,000 mm 9,7 C 18,4 C 11,3 km/h (2 Bft) 95,65 %
09.08.2022 19:15 18,4 C 57 % 1026,1 hPa 0,0 l/m 9,7 km/h (2 Bft) W-NW 292 0,000 mm 9,7 C 18,4 C 14,5 km/h (3 Bft) 100,00 %
09.08.2022 19:14 18,4 C 57 % 1026,0 hPa 0,0 l/m 6,4 km/h (2 Bft) N-NO 22 0,000 mm 9,7 C 18,4 C 14,5 km/h (3 Bft) 100,00 %
09.08.2022 19:13 18,5 C 57 % 1026,0 hPa 0,0 l/m 3,2 km/h (1 Bft) N-NO 22 0,000 mm 9,8 C 18,5 C 4,8 km/h (1 Bft) 100,00 %
09.08.2022 19:12 18,6 C 57 % 1026,0 hPa 0,0 l/m 8,0 km/h (2 Bft) N 360 0,000 mm 9,9 C 18,6 C 17,7 km/h (3 Bft) 100,00 %
09.08.2022 19:11 18,6 C 59 % 1026,0 hPa 0,0 l/m 8,0 km/h (2 Bft) N-NW 337 0,000 mm 10,4 C 18,6 C 11,3 km/h (2 Bft) 95,65 %
09.08.2022 19:10 18,6 C 59 % 1025,9 hPa 0,0 l/m 4,8 km/h (1 Bft) NW 315 0,000 mm 10,4 C 18,6 C 8,0 km/h (2 Bft) 100,00 %
09.08.2022 19:09 18,6 C 57 % 1025,9 hPa 0,0 l/m 4,8 km/h (1 Bft) W-NW 292 0,000 mm 9,9 C 18,6 C 9,7 km/h (2 Bft) 100,00 %
09.08.2022 19:08 18,6 C 58 % 1025,9 hPa 0,0 l/m 6,4 km/h (2 Bft) NO 45 0,000 mm 10,2 C 18,6 C 8,0 km/h (2 Bft) 95,65 %
09.08.2022 19:07 18,6 C 57 % 1026,0 hPa 0,0 l/m 8,0 km/h (2 Bft) N-NO 22 0,000 mm 9,9 C 18,6 C 12,9 km/h (3 Bft) 100,00 %
09.08.2022 19:06 18,5 C 57 % 1026,0 hPa 0,0 l/m 6,4 km/h (2 Bft) N-NW 337 0,000 mm 9,8 C 18,5 C 14,5 km/h (3 Bft) 100,00 %
09.08.2022 19:05 18,5 C 60 % 1026,0 hPa 0,0 l/m 9,7 km/h (2 Bft) N 360 0,000 mm 10,6 C 18,5 C 14,5 km/h (3 Bft) 100,00 %
09.08.2022 19:04 18,6 C 58 % 1026,0 hPa 0,0 l/m 3,2 km/h (1 Bft) NO 45 0,000 mm 10,2 C 18,6 C 4,8 km/h (1 Bft) 100,00 %
09.08.2022 19:03 18,6 C 58 % 1026,0 hPa 0,0 l/m 4,8 km/h (1 Bft) NO 45 0,000 mm 10,2 C 18,6 C 9,7 km/h (2 Bft) 100,00 %
09.08.2022 19:02 18,6 C 58 % 1025,9 hPa 0,0 l/m 8,0 km/h (2 Bft) NW 315 0,000 mm 10,2 C 18,6 C 12,9 km/h (3 Bft) 100,00 %
09.08.2022 19:01 18,6 C 58 % 1026,1 hPa 0,0 l/m 12,9 km/h (3 Bft) N 360 0,000 mm 10,2 C 18,6 C 20,9 km/h (4 Bft) 95,65 %
09.08.2022 19:00 18,6 C 59 % 1026,0 hPa 0,0 l/m 9,7 km/h (2 Bft) N 360 0,000 mm 10,4 C 18,6 C 17,7 km/h (3 Bft) 95,65 %
09.08.2022 18:59 18,5 C 60 % 1026,0 hPa 0,0 l/m 6,4 km/h (2 Bft) N-NW 337 0,000 mm 10,6 C 18,5 C 11,3 km/h (2 Bft) 100,00 %
09.08.2022 18:58 18,4 C 60 % 1026,0 hPa 0,0 l/m 8,0 km/h (2 Bft) N-NW 337 0,000 mm 10,5 C 18,4 C 12,9 km/h (3 Bft) 100,00 %
09.08.2022 18:57 18,6 C 60 % 1026,0 hPa 0,0 l/m 8,0 km/h (2 Bft) N 360 0,000 mm 10,7 C 18,6 C 14,5 km/h (3 Bft) 100,00 %
09.08.2022 18:56 18,6 C 59 % 1026,0 hPa 0,0 l/m 4,8 km/h (1 Bft) N-NW 337 0,000 mm 10,4 C 18,6 C 8,0 km/h (2 Bft) 100,00 %
09.08.2022 18:55 18,7 C 59 % 1026,0 hPa 0,0 l/m 3,2 km/h (1 Bft) N-NW 337 0,000 mm 10,5 C 18,7 C 4,8 km/h (1 Bft) 100,00 %
09.08.2022 18:54 18,7 C 59 % 1026,1 hPa 0,0 l/m 4,8 km/h (1 Bft) N 360 0,000 mm 10,5 C 18,7 C 6,4 km/h (2 Bft) 95,65 %
09.08.2022 18:53 18,8 C 57 % 1025,9 hPa 0,0 l/m 6,4 km/h (2 Bft) NO 45 0,000 mm 10,1 C 18,8 C 9,7 km/h (2 Bft) 100,00 %
09.08.2022 18:52 18,8 C 59 % 1026,0 hPa 0,0 l/m 9,7 km/h (2 Bft) O-NO 67 0,000 mm 10,6 C 18,8 C 16,1 km/h (3 Bft) 100,00 %
09.08.2022 18:51 18,9 C 58 % 1026,0 hPa 0,0 l/m 8,0 km/h (2 Bft) N-NO 22 0,000 mm 10,5 C 18,9 C 14,5 km/h (3 Bft) 100,00 %
09.08.2022 18:50 18,9 C 60 % 1025,8 hPa 0,0 l/m 4,8 km/h (1 Bft) NW 315 0,000 mm 11,0 C 18,9 C 6,4 km/h (2 Bft) 100,00 %
09.08.2022 18:49 18,9 C 60 % 1025,9 hPa 0,0 l/m 3,2 km/h (1 Bft) NW 315 0,000 mm 11,0 C 18,9 C 6,4 km/h (2 Bft) 100,00 %
09.08.2022 18:48 19,1 C 58 % 1025,9 hPa 0,0 l/m 8,0 km/h (2 Bft) NO 45 0,000 mm 10,6 C 19,1 C 16,1 km/h (3 Bft) 95,65 %
09.08.2022 18:47 19,1 C 58 % 1025,9 hPa 0,0 l/m 11,3 km/h (2 Bft) NO 45 0,000 mm 10,6 C 19,1 C 17,7 km/h (3 Bft) 95,65 %
09.08.2022 18:46 19,3 C 59 % 1025,9 hPa 0,0 l/m 8,0 km/h (2 Bft) N-NW 337 0,000 mm 11,1 C 19,3 C 12,9 km/h (3 Bft) 95,65 %
09.08.2022 18:45 19,3 C 56 % 1025,9 hPa 0,0 l/m 6,4 km/h (2 Bft) N 360 0,000 mm 10,3 C 19,3 C 9,7 km/h (2 Bft) 100,00 %
09.08.2022 18:44 19,3 C 58 % 1025,9 hPa 0,0 l/m 8,0 km/h (2 Bft) N-NO 22 0,000 mm 10,8 C 19,3 C 14,5 km/h (3 Bft) 100,00 %
09.08.2022 18:43 19,4 C 59 % 1025,9 hPa 0,0 l/m 4,8 km/h (1 Bft) N-NO 22 0,000 mm 11,2 C 19,4 C 12,9 km/h (3 Bft) 91,30 %
09.08.2022 18:42 19,4 C 57 % 1025,9 hPa 0,0 l/m 6,4 km/h (2 Bft) N 360 0,000 mm 10,7 C 19,4 C 11,3 km/h (2 Bft) 100,00 %
09.08.2022 18:41 19,4 C 57 % 1026,0 hPa 0,0 l/m 6,4 km/h (2 Bft) N-NO 22 0,000 mm 10,7 C 19,4 C 9,7 km/h (2 Bft) 100,00 %
09.08.2022 18:40 19,4 C 55 % 1025,9 hPa 0,0 l/m 6,4 km/h (2 Bft) NO 45 0,000 mm 10,1 C 19,4 C 9,7 km/h (2 Bft) 95,65 %
09.08.2022 18:39 19,5 C 56 % 1026,0 hPa 0,0 l/m 6,4 km/h (2 Bft) NO 45 0,000 mm 10,5 C 19,5 C 8,0 km/h (2 Bft) 100,00 %
09.08.2022 18:38 19,4 C 57 % 1025,9 hPa 0,0 l/m 8,0 km/h (2 Bft) NO 45 0,000 mm 10,7 C 19,4 C 12,9 km/h (3 Bft) 100,00 %
09.08.2022 18:37 19,4 C 59 % 1025,9 hPa 0,0 l/m 8,0 km/h (2 Bft) NW 315 0,000 mm 11,2 C 19,4 C 16,1 km/h (3 Bft) 100,00 %
09.08.2022 18:36 19,5 C 58 % 1026,0 hPa 0,0 l/m 8,0 km/h (2 Bft) N-NW 337 0,000 mm 11,0 C 19,5 C 14,5 km/h (3 Bft) 100,00 %
09.08.2022 18:35 19,6 C 56 % 1025,9 hPa 0,0 l/m 6,4 km/h (2 Bft) N-NW 337 0,000 mm 10,6 C 19,6 C 9,7 km/h (2 Bft) 100,00 %
09.08.2022 18:34 19,5 C 56 % 1025,9 hPa 0,0 l/m 4,8 km/h (1 Bft) N 360 0,000 mm 10,5 C 19,5 C 6,4 km/h (2 Bft) 100,00 %
09.08.2022 18:33 19,6 C 57 % 1026,0 hPa 0,0 l/m 4,8 km/h (1 Bft) NW 315 0,000 mm 10,8 C 19,6 C 6,4 km/h (2 Bft) 91,30 %
09.08.2022 18:32 19,6 C 56 % 1025,9 hPa 0,0 l/m 6,4 km/h (2 Bft) N 360 0,000 mm 10,6 C 19,6 C 8,0 km/h (2 Bft) 100,00 %
09.08.2022 18:31 19,5 C 56 % 1025,9 hPa 0,0 l/m 6,4 km/h (2 Bft) NO 45 0,000 mm 10,5 C 19,5 C 11,3 km/h (2 Bft) 95,65 %
09.08.2022 18:30 19,6 C 59 % 1025,9 hPa 0,0 l/m 8,0 km/h (2 Bft) O-NO 67 0,000 mm 11,4 C 19,6 C 16,1 km/h (3 Bft) 95,65 %
09.08.2022 18:29 19,5 C 57 % 1026,0 hPa 0,0 l/m 4,8 km/h (1 Bft) NO 45 0,000 mm 10,8 C 19,5 C 9,7 km/h (2 Bft) 100,00 %
09.08.2022 18:28 19,5 C 60 % 1025,9 hPa 0,0 l/m 8,0 km/h (2 Bft) NO 45 0,000 mm 11,5 C 19,5 C 12,9 km/h (3 Bft) 100,00 %
09.08.2022 18:27 19,5 C 61 % 1025,9 hPa 0,0 l/m 3,2 km/h (1 Bft) NO 45 0,000 mm 11,8 C 19,5 C 8,0 km/h (2 Bft) 95,65 %
09.08.2022 18:26 19,4 C 58 % 1026,1 hPa 0,0 l/m 1,6 km/h (1 Bft) N 360 0,000 mm 10,9 C 19,4 C 4,8 km/h (1 Bft) 95,65 %
09.08.2022 18:25 19,5 C 59 % 1026,0 hPa 0,0 l/m 4,8 km/h (1 Bft) N 360 0,000 mm 11,3 C 19,5 C 6,4 km/h (2 Bft) 100,00 %
09.08.2022 18:24 19,4 C 59 % 1026,1 hPa 0,0 l/m 4,8 km/h (1 Bft) N-NW 337 0,000 mm 11,2 C 19,4 C 8,0 km/h (2 Bft) 95,65 %
09.08.2022 18:23 19,5 C 60 % 1026,0 hPa 0,0 l/m 6,4 km/h (2 Bft) N-NO 22 0,000 mm 11,5 C 19,5 C 12,9 km/h (3 Bft) 100,00 %
09.08.2022 18:22 19,5 C 58 % 1026,0 hPa 0,0 l/m 4,8 km/h (1 Bft) N 360 0,000 mm 11,0 C 19,5 C 8,0 km/h (2 Bft) 100,00 %
09.08.2022 18:21 19,6 C 56 % 1026,0 hPa 0,0 l/m 4,8 km/h (1 Bft) N 360 0,000 mm 10,6 C 19,6 C 6,4 km/h (2 Bft) 100,00 %
09.08.2022 18:20 19,6 C 56 % 1026,0 hPa 0,0 l/m 6,4 km/h (2 Bft) N-NO 22 0,000 mm 10,6 C 19,6 C 11,3 km/h (2 Bft) 100,00 %
09.08.2022 18:19 19,6 C 56 % 1026,1 hPa 0,0 l/m 3,2 km/h (1 Bft) W-NW 292 0,000 mm 10,6 C 19,6 C 11,3 km/h (2 Bft) 95,65 %
09.08.2022 18:18 19,6 C 58 % 1026,0 hPa 0,0 l/m 4,8 km/h (1 Bft) N-NW 337 0,000 mm 11,1 C 19,6 C 6,4 km/h (2 Bft) 100,00 %
09.08.2022 18:17 19,6 C 57 % 1026,1 hPa 0,0 l/m 6,4 km/h (2 Bft) NW 315 0,000 mm 10,8 C 19,6 C 6,4 km/h (2 Bft) 100,00 %
09.08.2022 18:16 19,7 C 57 % 1026,1 hPa 0,0 l/m 4,8 km/h (1 Bft) W-NW 292 0,000 mm 10,9 C 19,7 C 9,7 km/h (2 Bft) 95,65 %
09.08.2022 18:15 19,7 C 56 % 1026,0 hPa 0,0 l/m 9,7 km/h (2 Bft) W-NW 292 0,000 mm 10,7 C 19,7 C 12,9 km/h (3 Bft) 100,00 %
09.08.2022 18:14 19,6 C 57 % 1026,0 hPa 0,0 l/m 9,7 km/h (2 Bft) W 270 0,000 mm 10,8 C 19,6 C 11,3 km/h (2 Bft) 100,00 %
09.08.2022 18:13 19,6 C 59 % 1026,1 hPa 0,0 l/m 4,8 km/h (1 Bft) W 270 0,000 mm 11,4 C 19,6 C 6,4 km/h (2 Bft) 100,00 %
09.08.2022 18:12 19,4 C 58 % 1026,0 hPa 0,0 l/m 4,8 km/h (1 Bft) W-NW 292 0,000 mm 10,9 C 19,4 C 6,4 km/h (2 Bft) 95,65 %
09.08.2022 18:11 19,3 C 61 % 1026,0 hPa 0,0 l/m 8,0 km/h (2 Bft) W-NW 292 0,000 mm 11,6 C 19,3 C 11,3 km/h (2 Bft) 100,00 %
09.08.2022 18:10 19,1 C 58 % 1026,0 hPa 0,0 l/m 11,3 km/h (2 Bft) W-NW 292 0,000 mm 10,6 C 19,1 C 14,5 km/h (3 Bft) 100,00 %
09.08.2022 18:09 19,0 C 62 % 1026,0 hPa 0,0 l/m 9,7 km/h (2 Bft) W 270 0,000 mm 11,6 C 19,0 C 11,3 km/h (2 Bft) 95,65 %
09.08.2022 18:08 18,9 C 61 % 1026,0 hPa 0,0 l/m 9,7 km/h (2 Bft) W 270 0,000 mm 11,2 C 18,9 C 12,9 km/h (3 Bft) 100,00 %
09.08.2022 18:07 18,8 C 64 % 1026,1 hPa 0,0 l/m 8,0 km/h (2 Bft) W 270 0,000 mm 11,8 C 18,8 C 11,3 km/h (2 Bft) 95,65 %
09.08.2022 18:06 18,7 C 64 % 1026,1 hPa 0,0 l/m 8,0 km/h (2 Bft) W 270 0,000 mm 11,7 C 18,7 C 11,3 km/h (2 Bft) 100,00 %
09.08.2022 18:05 18,5 C 64 % 1026,1 hPa 0,0 l/m 8,0 km/h (2 Bft) W-NW 292 0,000 mm 11,6 C 18,5 C 11,3 km/h (2 Bft) 95,65 %
09.08.2022 18:04 18,4 C 63 % 1026,2 hPa 0,0 l/m 9,7 km/h (2 Bft) NW 315 0,000 mm 11,2 C 18,4 C 12,9 km/h (3 Bft) 100,00 %
09.08.2022 18:03 18,3 C 64 % 1026,1 hPa 0,0 l/m 8,0 km/h (2 Bft) W-NW 292 0,000 mm 11,4 C 18,3 C 14,5 km/h (3 Bft) 100,00 %
09.08.2022 18:02 18,2 C 64 % 1026,1 hPa 0,0 l/m 4,8 km/h (1 Bft) W-NW 292 0,000 mm 11,3 C 18,2 C 14,5 km/h (3 Bft) 100,00 %
09.08.2022 18:01 18,2 C 65 % 1026,2 hPa 0,0 l/m 6,4 km/h (2 Bft) W-NW 292 0,000 mm 11,5 C 18,2 C 6,4 km/h (2 Bft) 100,00 %
09.08.2022 18:00 18,2 C 63 % 1026,2 hPa 0,0 l/m 4,8 km/h (1 Bft) W-NW 292 0,000 mm 11,0 C 18,2 C 6,4 km/h (2 Bft) 100,00 %
09.08.2022 17:59 18,2 C 64 % 1026,2 hPa 0,0 l/m 4,8 km/h (1 Bft) W-NW 292 0,000 mm 11,3 C 18,2 C 9,7 km/h (2 Bft) 100,00 %
09.08.2022 17:58 18,3 C 62 % 1026,2 hPa 0,0 l/m 4,8 km/h (1 Bft) W-NW 292 0,000 mm 10,9 C 18,3 C 6,4 km/h (2 Bft) 91,30 %
09.08.2022 17:57 18,3 C 61 % 1026,2 hPa 0,0 l/m 3,2 km/h (1 Bft) NW 315 0,000 mm 10,6 C 18,3 C 4,8 km/h (1 Bft) 100,00 %
09.08.2022 17:56 18,3 C 62 % 1026,2 hPa 0,0 l/m 3,2 km/h (1 Bft) N-NW 337 0,000 mm 10,9 C 18,3 C 3,2 km/h (1 Bft) 100,00 %
09.08.2022 17:55 18,4 C 62 % 1026,1 hPa 0,0 l/m 3,2 km/h (1 Bft) NO 45 0,000 mm 11,0 C 18,4 C 6,4 km/h (2 Bft) 100,00 %
09.08.2022 17:54 18,5 C 61 % 1026,2 hPa 0,0 l/m 3,2 km/h (1 Bft) N 360 0,000 mm 10,8 C 18,5 C 8,0 km/h (2 Bft) 100,00 %
09.08.2022 17:53 18,6 C 62 % 1026,2 hPa 0,0 l/m 3,2 km/h (1 Bft) N-NW 337 0,000 mm 11,2 C 18,6 C 4,8 km/h (1 Bft) 95,65 %
09.08.2022 17:52 18,7 C 60 % 1026,1 hPa 0,0 l/m 3,2 km/h (1 Bft) N 360 0,000 mm 10,8 C 18,7 C 4,8 km/h (1 Bft) 95,65 %
09.08.2022 17:51 18,8 C 63 % 1026,3 hPa 0,0 l/m 3,2 km/h (1 Bft) N-NO 22 0,000 mm 11,6 C 18,8 C 3,2 km/h (1 Bft) 91,30 %
09.08.2022 17:50 18,8 C 61 % 1026,2 hPa 0,0 l/m 3,2 km/h (1 Bft) N-NW 337 0,000 mm 11,1 C 18,8 C 6,4 km/h (2 Bft) 100,00 %
09.08.2022 17:49 18,8 C 61 % 1026,2 hPa 0,0 l/m 3,2 km/h (1 Bft) N-NW 337 0,000 mm 11,1 C 18,8 C 6,4 km/h (2 Bft) 100,00 %
09.08.2022 17:48 18,9 C 64 % 1026,2 hPa 0,0 l/m 3,2 km/h (1 Bft) NO 45 0,000 mm 11,9 C 18,9 C 6,4 km/h (2 Bft) 100,00 %
09.08.2022 17:47 18,9 C 67 % 1026,2 hPa 0,0 l/m 3,2 km/h (1 Bft) N 360 0,000 mm 12,6 C 18,9 C 4,8 km/h (1 Bft) 95,65 %
09.08.2022 17:46 18,9 C 67 % 1026,2 hPa 0,0 l/m 3,2 km/h (1 Bft) N 360 0,000 mm 12,6 C 18,9 C 6,4 km/h (2 Bft) 95,65 %
09.08.2022 17:45 18,9 C 59 % 1026,1 hPa 0,0 l/m 0,0 km/h (0 Bft) N-NO 22 0,000 mm 10,7 C 18,9 C 1,6 km/h (1 Bft) 100,00 %
09.08.2022 17:44 18,9 C 59 % 1026,1 hPa 0,0 l/m 1,6 km/h (1 Bft) N-NO 22 0,000 mm 10,7 C 18,9 C 3,2 km/h (1 Bft) 95,65 %
09.08.2022 17:43 18,8 C 61 % 1026,2 hPa 0,0 l/m 3,2 km/h (1 Bft) N-NO 22 0,000 mm 11,1 C 18,8 C 4,8 km/h (1 Bft) 100,00 %
09.08.2022 17:42 18,7 C 64 % 1026,2 hPa 0,0 l/m 4,8 km/h (1 Bft) N-NO 22 0,000 mm 11,7 C 18,7 C 6,4 km/h (2 Bft) 100,00 %
09.08.2022 17:41 18,6 C 65 % 1026,2 hPa 0,0 l/m 3,2 km/h (1 Bft) N 360 0,000 mm 11,9 C 18,6 C 6,4 km/h (2 Bft) 100,00 %
09.08.2022 17:40 18,6 C 62 % 1026,2 hPa 0,0 l/m 1,6 km/h (1 Bft) N-NW 337 0,000 mm 11,2 C 18,6 C 3,2 km/h (1 Bft) 100,00 %
09.08.2022 17:39 18,6 C 61 % 1026,2 hPa 0,0 l/m 1,6 km/h (1 Bft) N 360 0,000 mm 10,9 C 18,6 C 3,2 km/h (1 Bft) 100,00 %
09.08.2022 17:38 18,6 C 62 % 1026,2 hPa 0,0 l/m 3,2 km/h (1 Bft) N 360 0,000 mm 11,2 C 18,6 C 4,8 km/h (1 Bft) 100,00 %
09.08.2022 17:37 18,6 C 61 % 1026,2 hPa 0,0 l/m 1,6 km/h (1 Bft) N 360 0,000 mm 10,9 C 18,6 C 4,8 km/h (1 Bft) 91,30 %
09.08.2022 17:36 18,5 C 63 % 1026,2 hPa 0,0 l/m 3,2 km/h (1 Bft) NW 315 0,000 mm 11,3 C 18,5 C 3,2 km/h (1 Bft) 95,65 %
09.08.2022 17:35 18,4 C 62 % 1026,2 hPa 0,0 l/m 1,6 km/h (1 Bft) N-NW 337 0,000 mm 11,0 C 18,4 C 3,2 km/h (1 Bft) 100,00 %
09.08.2022 17:34 18,4 C 66 % 1026,2 hPa 0,0 l/m 1,6 km/h (1 Bft) N-NW 337 0,000 mm 11,9 C 18,4 C 3,2 km/h (1 Bft) 100,00 %
09.08.2022 17:33 18,5 C 67 % 1026,2 hPa 0,0 l/m 1,6 km/h (1 Bft) NO 45 0,000 mm 12,3 C 18,5 C 3,2 km/h (1 Bft) 100,00 %
09.08.2022 17:32 18,6 C 65 % 1026,2 hPa 0,0 l/m 1,6 km/h (1 Bft) NW 315 0,000 mm 11,9 C 18,6 C 1,6 km/h (1 Bft) 100,00 %
09.08.2022 17:31 18,6 C 62 % 1026,2 hPa 0,0 l/m 1,6 km/h (1 Bft) N 360 0,000 mm 11,2 C 18,6 C 3,2 km/h (1 Bft) 100,00 %
09.08.2022 17:30 18,6 C 62 % 1026,2 hPa 0,0 l/m 3,2 km/h (1 Bft) N 360 0,000 mm 11,2 C 18,6 C 4,8 km/h (1 Bft) 95,65 %
09.08.2022 17:29 18,7 C 60 % 1026,2 hPa 0,0 l/m 4,8 km/h (1 Bft) NO 45 0,000 mm 10,8 C 18,7 C 6,4 km/h (2 Bft) 95,65 %
09.08.2022 17:28 18,7 C 61 % 1026,1 hPa 0,0 l/m 3,2 km/h (1 Bft) NO 45 0,000 mm 11,0 C 18,7 C 4,8 km/h (1 Bft) 100,00 %
09.08.2022 17:27 18,8 C 61 % 1026,2 hPa 0,0 l/m 3,2 km/h (1 Bft) N-NW 337 0,000 mm 11,1 C 18,8 C 6,4 km/h (2 Bft) 100,00 %
09.08.2022 17:26 18,9 C 58 % 1026,2 hPa 0,0 l/m 4,8 km/h (1 Bft) NW 315 0,000 mm 10,5 C 18,9 C 6,4 km/h (2 Bft) 100,00 %
09.08.2022 17:25 18,9 C 59 % 1026,2 hPa 0,0 l/m 4,8 km/h (1 Bft) NW 315 0,000 mm 10,7 C 18,9 C 8,0 km/h (2 Bft) 100,00 %
09.08.2022 17:24 18,9 C 60 % 1026,3 hPa 0,0 l/m 4,8 km/h (1 Bft) N-NW 337 0,000 mm 11,0 C 18,9 C 8,0 km/h (2 Bft) 95,65 %
09.08.2022 17:23 19,0 C 60 % 1026,2 hPa 0,0 l/m 3,2 km/h (1 Bft) N 360 0,000 mm 11,1 C 19,0 C 6,4 km/h (2 Bft) 95,65 %
09.08.2022 17:22 19,1 C 60 % 1026,3 hPa 0,0 l/m 3,2 km/h (1 Bft) NW 315 0,000 mm 11,1 C 19,1 C 4,8 km/h (1 Bft) 95,65 %
09.08.2022 17:21 19,1 C 60 % 1026,3 hPa 0,0 l/m 6,4 km/h (2 Bft) N-NW 337 0,000 mm 11,1 C 19,1 C 8,0 km/h (2 Bft) 100,00 %
09.08.2022 17:20 19,2 C 64 % 1026,3 hPa 0,0 l/m 3,2 km/h (1 Bft) N-NW 337 0,000 mm 12,2 C 19,2 C 4,8 km/h (1 Bft) 100,00 %
09.08.2022 17:19 19,2 C 64 % 1026,3 hPa 0,0 l/m 6,4 km/h (2 Bft) NW 315 0,000 mm 12,2 C 19,2 C 8,0 km/h (2 Bft) 100,00 %
09.08.2022 17:18 19,2 C 64 % 1026,3 hPa 0,0 l/m 6,4 km/h (2 Bft) N-NW 337 0,000 mm 12,2 C 19,2 C 9,7 km/h (2 Bft) 100,00 %
09.08.2022 17:17 19,3 C 64 % 1026,2 hPa 0,0 l/m 4,8 km/h (1 Bft) N-NO 22 0,000 mm 12,3 C 19,3 C 9,7 km/h (2 Bft) 100,00 %
09.08.2022 17:16 19,3 C 61 % 1026,2 hPa 0,0 l/m 3,2 km/h (1 Bft) NW 315 0,000 mm 11,6 C 19,3 C 4,8 km/h (1 Bft) 95,65 %
09.08.2022 17:15 19,4 C 58 % 1026,2 hPa 0,0 l/m 6,4 km/h (2 Bft) N 360 0,000 mm 10,9 C 19,4 C 8,0 km/h (2 Bft) 95,65 %
09.08.2022 17:14 19,5 C 56 % 1026,2 hPa 0,0 l/m 6,4 km/h (2 Bft) N 360 0,000 mm 10,5 C 19,5 C 9,7 km/h (2 Bft) 100,00 %
09.08.2022 17:13 19,5 C 56 % 1026,2 hPa 0,0 l/m 9,7 km/h (2 Bft) N 360 0,000 mm 10,5 C 19,5 C 12,9 km/h (3 Bft) 100,00 %
09.08.2022 17:12 19,6 C 58 % 1026,2 hPa 0,0 l/m 3,2 km/h (1 Bft) N 360 0,000 mm 11,1 C 19,6 C 6,4 km/h (2 Bft) 100,00 %
09.08.2022 17:11 19,6 C 58 % 1026,2 hPa 0,0 l/m 9,7 km/h (2 Bft) N 360 0,000 mm 11,1 C 19,6 C 14,5 km/h (3 Bft) 100,00 %
09.08.2022 17:10 19,7 C 60 % 1026,2 hPa 0,0 l/m 8,0 km/h (2 Bft) NO 45 0,000 mm 11,7 C 19,7 C 11,3 km/h (2 Bft) 100,00 %
09.08.2022 17:09 19,8 C 56 % 1026,2 hPa 0,0 l/m 3,2 km/h (1 Bft) O-SO 112 0,000 mm 10,8 C 19,8 C 6,4 km/h (2 Bft) 95,65 %
09.08.2022 17:08 19,8 C 55 % 1026,2 hPa 0,0 l/m 4,8 km/h (1 Bft) SO 135 0,000 mm 10,5 C 19,8 C 9,7 km/h (2 Bft) 100,00 %
09.08.2022 17:07 19,8 C 58 % 1026,3 hPa 0,0 l/m 4,8 km/h (1 Bft) O 90 0,000 mm 11,3 C 19,8 C 11,3 km/h (2 Bft) 100,00 %
09.08.2022 17:06 19,7 C 61 % 1026,2 hPa 0,0 l/m 0,0 km/h (0 Bft) O 90 0,000 mm 12,0 C 19,7 C 3,2 km/h (1 Bft) 95,65 %
09.08.2022 17:05 19,4 C 57 % 1026,3 hPa 0,0 l/m 1,6 km/h (1 Bft) O-NO 67 0,000 mm 10,7 C 19,4 C 1,6 km/h (1 Bft) 95,65 %
09.08.2022 17:04 19,3 C 57 % 1026,4 hPa 0,0 l/m 1,6 km/h (1 Bft) O-NO 67 0,000 mm 10,6 C 19,3 C 3,2 km/h (1 Bft) 100,00 %
09.08.2022 17:03 19,3 C 61 % 1026,4 hPa 0,0 l/m 3,2 km/h (1 Bft) W 270 0,000 mm 11,6 C 19,3 C 4,8 km/h (1 Bft) 100,00 %
09.08.2022 17:02 19,2 C 64 % 1026,4 hPa 0,0 l/m 6,4 km/h (2 Bft) W-NW 292 0,000 mm 12,2 C 19,2 C 8,0 km/h (2 Bft) 100,00 %
09.08.2022 17:01 18,9 C 66 % 1026,4 hPa 0,0 l/m 4,8 km/h (1 Bft) W-NW 292 0,000 mm 12,4 C 18,9 C 8,0 km/h (2 Bft) 95,65 %
09.08.2022 17:00 18,8 C 63 % 1026,4 hPa 0,0 l/m 3,2 km/h (1 Bft) W-NW 292 0,000 mm 11,6 C 18,8 C 4,8 km/h (1 Bft) 100,00 %
09.08.2022 16:59 18,8 C 61 % 1026,4 hPa 0,0 l/m 3,2 km/h (1 Bft) NO 45 0,000 mm 11,1 C 18,8 C 4,8 km/h (1 Bft) 100,00 %
09.08.2022 16:58 18,8 C 64 % 1026,5 hPa 0,0 l/m 4,8 km/h (1 Bft) N 360 0,000 mm 11,8 C 18,8 C 6,4 km/h (2 Bft) 100,00 %
09.08.2022 16:57 18,7 C 64 % 1026,5 hPa 0,0 l/m 3,2 km/h (1 Bft) N 360 0,000 mm 11,7 C 18,7 C 4,8 km/h (1 Bft) 100,00 %
09.08.2022 16:56 18,8 C 64 % 1026,5 hPa 0,0 l/m 4,8 km/h (1 Bft) NW 315 0,000 mm 11,8 C 18,8 C 6,4 km/h (2 Bft) 100,00 %
09.08.2022 16:55 18,7 C 61 % 1026,4 hPa 0,0 l/m 4,8 km/h (1 Bft) NW 315 0,000 mm 11,0 C 18,7 C 6,4 km/h (2 Bft) 100,00 %
09.08.2022 16:54 18,7 C 66 % 1026,4 hPa 0,0 l/m 3,2 km/h (1 Bft) NW 315 0,000 mm 12,2 C 18,7 C 4,8 km/h (1 Bft) 95,65 %
09.08.2022 16:53 18,7 C 66 % 1026,5 hPa 0,0 l/m 3,2 km/h (1 Bft) N-NW 337 0,000 mm 12,2 C 18,7 C 6,4 km/h (2 Bft) 100,00 %
09.08.2022 16:52 18,6 C 66 % 1026,3 hPa 0,0 l/m 4,8 km/h (1 Bft) W-NW 292 0,000 mm 12,1 C 18,6 C 8,0 km/h (2 Bft) 100,00 %
09.08.2022 16:51 18,6 C 66 % 1026,3 hPa 0,0 l/m 6,4 km/h (2 Bft) NW 315 0,000 mm 12,1 C 18,6 C 8,0 km/h (2 Bft) 100,00 %
09.08.2022 16:50 18,6 C 66 % 1026,4 hPa 0,0 l/m 3,2 km/h (1 Bft) NW 315 0,000 mm 12,1 C 18,6 C 6,4 km/h (2 Bft) 100,00 %
09.08.2022 16:49 18,6 C 64 % 1026,3 hPa 0,0 l/m 6,4 km/h (2 Bft) NW 315 0,000 mm 11,7 C 18,6 C 9,7 km/h (2 Bft) 95,65 %
09.08.2022 16:48 18,6 C 68 % 1026,3 hPa 0,0 l/m 4,8 km/h (1 Bft) NW 315 0,000 mm 12,6 C 18,6 C 8,0 km/h (2 Bft) 100,00 %
09.08.2022 16:47 18,6 C 68 % 1026,4 hPa 0,0 l/m 4,8 km/h (1 Bft) N 360 0,000 mm 12,6 C 18,6 C 6,4 km/h (2 Bft) 91,30 %
09.08.2022 16:46 18,6 C 68 % 1026,3 hPa 0,0 l/m 3,2 km/h (1 Bft) N-NO 22 0,000 mm 12,6 C 18,6 C 3,2 km/h (1 Bft) 95,65 %
09.08.2022 16:45 18,6 C 66 % 1026,3 hPa 0,0 l/m 3,2 km/h (1 Bft) N-NW 337 0,000 mm 12,1 C 18,6 C 4,8 km/h (1 Bft) 100,00 %
09.08.2022 16:44 18,7 C 64 % 1026,4 hPa 0,0 l/m 3,2 km/h (1 Bft) NW 315 0,000 mm 11,7 C 18,7 C 4,8 km/h (1 Bft) 100,00 %
09.08.2022 16:43 18,7 C 61 % 1026,4 hPa 0,0 l/m 4,8 km/h (1 Bft) N 360 0,000 mm 11,0 C 18,7 C 8,0 km/h (2 Bft) 100,00 %
09.08.2022 16:42 18,8 C 62 % 1026,4 hPa 0,0 l/m 4,8 km/h (1 Bft) NO 45 0,000 mm 11,4 C 18,8 C 9,7 km/h (2 Bft) 100,00 %
09.08.2022 16:41 18,8 C 64 % 1026,3 hPa 0,0 l/m 6,4 km/h (2 Bft) NO 45 0,000 mm 11,8 C 18,8 C 9,7 km/h (2 Bft) 100,00 %
09.08.2022 16:40 18,8 C 65 % 1026,4 hPa 0,0 l/m 4,8 km/h (1 Bft) N-NO 22 0,000 mm 12,1 C 18,8 C 8,0 km/h (2 Bft) 95,65 %
09.08.2022 16:39 18,8 C 66 % 1026,3 hPa 0,0 l/m 4,8 km/h (1 Bft) O-NO 67 0,000 mm 12,3 C 18,8 C 8,0 km/h (2 Bft) 95,65 %
09.08.2022 16:38 18,9 C 63 % 1026,3 hPa 0,0 l/m 4,8 km/h (1 Bft) N-NW 337 0,000 mm 11,7 C 18,9 C 8,0 km/h (2 Bft) 100,00 %
09.08.2022 16:37 18,9 C 59 % 1026,2 hPa 0,0 l/m 6,4 km/h (2 Bft) NO 45 0,000 mm 10,7 C 18,9 C 9,7 km/h (2 Bft) 95,65 %
09.08.2022 16:36 18,9 C 58 % 1026,3 hPa 0,0 l/m 6,4 km/h (2 Bft) NO 45 0,000 mm 10,5 C 18,9 C 11,3 km/h (2 Bft) 95,65 %
09.08.2022 16:35 18,9 C 58 % 1026,3 hPa 0,0 l/m 3,2 km/h (1 Bft) NW 315 0,000 mm 10,5 C 18,9 C 6,4 km/h (2 Bft) 100,00 %
09.08.2022 16:34 19,1 C 58 % 1026,2 hPa 0,0 l/m 9,7 km/h (2 Bft) N 360 0,000 mm 10,6 C 19,1 C 14,5 km/h (3 Bft) 95,65 %
09.08.2022 16:33 19,1 C 58 % 1026,3 hPa 0,0 l/m 8,0 km/h (2 Bft) W-NW 292 0,000 mm 10,6 C 19,1 C 9,7 km/h (2 Bft) 95,65 %
09.08.2022 16:32 19,2 C 62 % 1026,3 hPa 0,0 l/m 4,8 km/h (1 Bft) N 360 0,000 mm 11,7 C 19,2 C 6,4 km/h (2 Bft) 100,00 %
09.08.2022 16:31 19,3 C 62 % 1026,2 hPa 0,0 l/m 4,8 km/h (1 Bft) NW 315 0,000 mm 11,8 C 19,3 C 6,4 km/h (2 Bft) 100,00 %
09.08.2022 16:30 19,4 C 62 % 1026,2 hPa 0,0 l/m 6,4 km/h (2 Bft) NO 45 0,000 mm 11,9 C 19,4 C 14,5 km/h (3 Bft) 100,00 %
09.08.2022 16:29 19,6 C 62 % 1026,2 hPa 0,0 l/m 8,0 km/h (2 Bft) N-NO 22 0,000 mm 12,1 C 19,6 C 12,9 km/h (3 Bft) 100,00 %
09.08.2022 16:28 19,6 C 60 % 1026,2 hPa 0,0 l/m 6,4 km/h (2 Bft) O-NO 67 0,000 mm 11,6 C 19,6 C 8,0 km/h (2 Bft) 100,00 %
09.08.2022 16:27 19,7 C 60 % 1026,2 hPa 0,0 l/m 6,4 km/h (2 Bft) O-NO 67 0,000 mm 11,7 C 19,7 C 8,0 km/h (2 Bft) 100,00 %
09.08.2022 16:26 19,7 C 63 % 1026,3 hPa 0,0 l/m 8,0 km/h (2 Bft) NO 45 0,000 mm 12,5 C 19,7 C 11,3 km/h (2 Bft) 95,65 %
09.08.2022 16:25 19,7 C 60 % 1026,3 hPa 0,0 l/m 6,4 km/h (2 Bft) O-NO 67 0,000 mm 11,7 C 19,7 C 12,9 km/h (3 Bft) 100,00 %
09.08.2022 16:24 19,9 C 61 % 1026,2 hPa 0,0 l/m 8,0 km/h (2 Bft) NO 45 0,000 mm 12,2 C 19,9 C 12,9 km/h (3 Bft) 100,00 %
09.08.2022 16:23 19,9 C 60 % 1026,3 hPa 0,0 l/m 4,8 km/h (1 Bft) W-NW 292 0,000 mm 11,9 C 19,9 C 8,0 km/h (2 Bft) 100,00 %
09.08.2022 16:22 19,8 C 59 % 1026,3 hPa 0,0 l/m 11,3 km/h (2 Bft) NO 45 0,000 mm 11,6 C 19,8 C 16,1 km/h (3 Bft) 100,00 %
09.08.2022 16:21 19,8 C 59 % 1026,2 hPa 0,0 l/m 6,4 km/h (2 Bft) N 360 0,000 mm 11,6 C 19,8 C 16,1 km/h (3 Bft) 100,00 %
09.08.2022 16:20 19,6 C 60 % 1026,3 hPa 0,0 l/m 3,2 km/h (1 Bft) N-NW 337 0,000 mm 11,6 C 19,6 C 4,8 km/h (1 Bft) 100,00 %
09.08.2022 16:19 19,6 C 59 % 1026,4 hPa 0,0 l/m 8,0 km/h (2 Bft) NW 315 0,000 mm 11,4 C 19,6 C 11,3 km/h (2 Bft) 95,65 %
09.08.2022 16:18 19,6 C 59 % 1026,2 hPa 0,0 l/m 8,0 km/h (2 Bft) NW 315 0,000 mm 11,4 C 19,6 C 14,5 km/h (3 Bft) 100,00 %
09.08.2022 16:17 19,6 C 60 % 1026,2 hPa 0,0 l/m 3,2 km/h (1 Bft) W 270 0,000 mm 11,6 C 19,6 C 6,4 km/h (2 Bft) 100,00 %
09.08.2022 16:16 19,6 C 61 % 1026,2 hPa 0,0 l/m 3,2 km/h (1 Bft) SW 225 0,000 mm 11,9 C 19,6 C 4,8 km/h (1 Bft) 100,00 %
09.08.2022 16:15 19,7 C 58 % 1026,4 hPa 0,0 l/m 4,8 km/h (1 Bft) W-SW 247 0,000 mm 11,2 C 19,7 C 6,4 km/h (2 Bft) 100,00 %
09.08.2022 16:14 19,7 C 62 % 1026,3 hPa 0,0 l/m 6,4 km/h (2 Bft) W 270 0,000 mm 12,2 C 19,7 C 11,3 km/h (2 Bft) 100,00 %
09.08.2022 16:13 19,6 C 65 % 1026,4 hPa 0,0 l/m 8,0 km/h (2 Bft) W-NW 292 0,000 mm 12,8 C 19,6 C 11,3 km/h (2 Bft) 100,00 %
09.08.2022 16:12 19,4 C 63 % 1026,4 hPa 0,0 l/m 3,2 km/h (1 Bft) W-NW 292 0,000 mm 12,2 C 19,4 C 9,7 km/h (2 Bft) 91,30 %
09.08.2022 16:11 19,2 C 62 % 1026,4 hPa 0,0 l/m 3,2 km/h (1 Bft) N-NO 22 0,000 mm 11,7 C 19,2 C 6,4 km/h (2 Bft) 100,00 %
09.08.2022 16:10 18,9 C 61 % 1026,4 hPa 0,0 l/m 1,6 km/h (1 Bft) NW 315 0,000 mm 11,2 C 18,9 C 4,8 km/h (1 Bft) 100,00 %
09.08.2022 16:09 18,8 C 63 % 1026,3 hPa 0,0 l/m 1,6 km/h (1 Bft) NW 315 0,000 mm 11,6 C 18,8 C 3,2 km/h (1 Bft) 100,00 %
09.08.2022 16:08 18,6 C 62 % 1026,3 hPa 0,0 l/m 3,2 km/h (1 Bft) NW 315 0,000 mm 11,2 C 18,6 C 3,2 km/h (1 Bft) 95,65 %
09.08.2022 16:07 18,6 C 61 % 1026,4 hPa 0,0 l/m 3,2 km/h (1 Bft) NO 45 0,000 mm 10,9 C 18,6 C 4,8 km/h (1 Bft) 95,65 %
09.08.2022 16:06 18,6 C 61 % 1026,4 hPa 0,0 l/m 3,2 km/h (1 Bft) NO 45 0,000 mm 10,9 C 18,6 C 4,8 km/h (1 Bft) 100,00 %
09.08.2022 16:05 18,6 C 62 % 1026,4 hPa 0,0 l/m 3,2 km/h (1 Bft) NO 45 0,000 mm 11,2 C 18,6 C 4,8 km/h (1 Bft) 95,65 %
09.08.2022 16:04 18,7 C 63 % 1026,4 hPa 0,0 l/m 3,2 km/h (1 Bft) NO 45 0,000 mm 11,5 C 18,7 C 6,4 km/h (2 Bft) 100,00 %
09.08.2022 16:03 18,7 C 63 % 1026,4 hPa 0,0 l/m 3,2 km/h (1 Bft) N-NW 337 0,000 mm 11,5 C 18,7 C 3,2 km/h (1 Bft) 95,65 %
09.08.2022 16:02 18,7 C 65 % 1026,4 hPa 0,0 l/m 3,2 km/h (1 Bft) N 360 0,000 mm 12,0 C 18,7 C 4,8 km/h (1 Bft) 100,00 %
09.08.2022 16:01 18,8 C 61 % 1026,4 hPa 0,0 l/m 4,8 km/h (1 Bft) N-NO 22 0,000 mm 11,1 C 18,8 C 6,4 km/h (2 Bft) 100,00 %
09.08.2022 16:00 18,8 C 61 % 1026,4 hPa 0,0 l/m 3,2 km/h (1 Bft) N-NO 22 0,000 mm 11,1 C 18,8 C 4,8 km/h (1 Bft) 100,00 %
09.08.2022 15:59 18,8 C 63 % 1026,4 hPa 0,0 l/m 1,6 km/h (1 Bft) NO 45 0,000 mm 11,6 C 18,8 C 3,2 km/h (1 Bft) 100,00 %
09.08.2022 15:58 18,6 C 63 % 1026,4 hPa 0,0 l/m 3,2 km/h (1 Bft) NO 45 0,000 mm 11,4 C 18,6 C 6,4 km/h (2 Bft) 95,65 %
09.08.2022 15:57 18,6 C 62 % 1026,4 hPa 0,0 l/m 4,8 km/h (1 Bft) N-NO 22 0,000 mm 11,2 C 18,6 C 8,0 km/h (2 Bft) 95,65 %
09.08.2022 15:56 18,6 C 62 % 1026,4 hPa 0,0 l/m 8,0 km/h (2 Bft) W-NW 292 0,000 mm 11,2 C 18,6 C 12,9 km/h (3 Bft) 100,00 %
09.08.2022 15:55 18,6 C 61 % 1026,4 hPa 0,0 l/m 8,0 km/h (2 Bft) N-NO 22 0,000 mm 10,9 C 18,6 C 12,9 km/h (3 Bft) 100,00 %
09.08.2022 15:54 18,6 C 61 % 1026,4 hPa 0,0 l/m 9,7 km/h (2 Bft) NW 315 0,000 mm 10,9 C 18,6 C 12,9 km/h (3 Bft) 95,65 %
09.08.2022 15:53 18,7 C 61 % 1026,4 hPa 0,0 l/m 6,4 km/h (2 Bft) NW 315 0,000 mm 11,0 C 18,7 C 11,3 km/h (2 Bft) 100,00 %
09.08.2022 15:52 18,8 C 61 % 1026,4 hPa 0,0 l/m 6,4 km/h (2 Bft) NW 315 0,000 mm 11,1 C 18,8 C 12,9 km/h (3 Bft) 100,00 %
09.08.2022 15:51 18,8 C 63 % 1026,4 hPa 0,0 l/m 6,4 km/h (2 Bft) N-NW 337 0,000 mm 11,6 C 18,8 C 12,9 km/h (3 Bft) 91,30 %
09.08.2022 15:50 18,9 C 63 % 1026,4 hPa 0,0 l/m 4,8 km/h (1 Bft) W-NW 292 0,000 mm 11,7 C 18,9 C 11,3 km/h (2 Bft) 100,00 %
09.08.2022 15:49 18,9 C 63 % 1026,4 hPa 0,0 l/m 8,0 km/h (2 Bft) N-NO 22 0,000 mm 11,7 C 18,9 C 14,5 km/h (3 Bft) 100,00 %
09.08.2022 15:48 19,1 C 59 % 1026,4 hPa 0,0 l/m 8,0 km/h (2 Bft) N-NO 22 0,000 mm 10,9 C 19,1 C 12,9 km/h (3 Bft) 100,00 %
09.08.2022 15:47 19,2 C 61 % 1026,4 hPa 0,0 l/m 8,0 km/h (2 Bft) NO 45 0,000 mm 11,5 C 19,2 C 12,9 km/h (3 Bft) 100,00 %
09.08.2022 15:46 19,3 C 61 % 1026,3 hPa 0,0 l/m 8,0 km/h (2 Bft) N-NO 22 0,000 mm 11,6 C 19,3 C 12,9 km/h (3 Bft) 100,00 %
09.08.2022 15:45 19,6 C 64 % 1026,4 hPa 0,0 l/m 6,4 km/h (2 Bft) NW 315 0,000 mm 12,6 C 19,6 C 12,9 km/h (3 Bft) 100,00 %
09.08.2022 15:44 19,7 C 64 % 1026,4 hPa 0,0 l/m 6,4 km/h (2 Bft) NW 315 0,000 mm 12,7 C 19,7 C 9,7 km/h (2 Bft) 91,30 %
09.08.2022 15:43 19,8 C 61 % 1026,3 hPa 0,0 l/m 4,8 km/h (1 Bft) N 360 0,000 mm 12,1 C 19,8 C 11,3 km/h (2 Bft) 100,00 %
09.08.2022 15:42 20,0 C 62 % 1026,3 hPa 0,0 l/m 6,4 km/h (2 Bft) NO 45 0,000 mm 12,5 C 20,0 C 11,3 km/h (2 Bft) 100,00 %
09.08.2022 15:41 20,1 C 62 % 1026,4 hPa 0,0 l/m 9,7 km/h (2 Bft) W-NW 292 0,000 mm 12,6 C 20,1 C 11,3 km/h (2 Bft) 100,00 %
09.08.2022 15:40 20,0 C 64 % 1026,3 hPa 0,0 l/m 6,4 km/h (2 Bft) W-NW 292 0,000 mm 13,0 C 20,0 C 12,9 km/h (3 Bft) 100,00 %
09.08.2022 15:39 19,9 C 59 % 1026,3 hPa 0,0 l/m 8,0 km/h (2 Bft) W 270 0,000 mm 11,6 C 19,9 C 9,7 km/h (2 Bft) 95,65 %
09.08.2022 15:38 19,9 C 58 % 1026,3 hPa 0,0 l/m 11,3 km/h (2 Bft) W-NW 292 0,000 mm 11,4 C 19,9 C 19,3 km/h (3 Bft) 100,00 %
09.08.2022 15:37 19,9 C 61 % 1026,3 hPa 0,0 l/m 4,8 km/h (1 Bft) NW 315 0,000 mm 12,2 C 19,9 C 8,0 km/h (2 Bft) 95,65 %
09.08.2022 15:36 19,9 C 61 % 1026,4 hPa 0,0 l/m 8,0 km/h (2 Bft) W-NW 292 0,000 mm 12,2 C 19,9 C 11,3 km/h (2 Bft) 100,00 %
09.08.2022 15:35 19,8 C 61 % 1026,4 hPa 0,0 l/m 4,8 km/h (1 Bft) W 270 0,000 mm 12,1 C 19,8 C 9,7 km/h (2 Bft) 100,00 %
09.08.2022 15:34 19,8 C 62 % 1026,5 hPa 0,0 l/m 3,2 km/h (1 Bft) S-SW 202 0,000 mm 12,3 C 19,8 C 4,8 km/h (1 Bft) 100,00 %
09.08.2022 15:33 19,7 C 65 % 1026,4 hPa 0,0 l/m 4,8 km/h (1 Bft) N-NO 22 0,000 mm 12,9 C 19,7 C 6,4 km/h (2 Bft) 100,00 %
09.08.2022 15:32 19,6 C 61 % 1026,5 hPa 0,0 l/m 6,4 km/h (2 Bft) O 90 0,000 mm 11,9 C 19,6 C 9,7 km/h (2 Bft) 100,00 %
09.08.2022 15:31 19,6 C 60 % 1026,4 hPa 0,0 l/m 9,7 km/h (2 Bft) N-NO 22 0,000 mm 11,6 C 19,6 C 14,5 km/h (3 Bft) 100,00 %
09.08.2022 15:30 19,7 C 61 % 1026,3 hPa 0,0 l/m 3,2 km/h (1 Bft) N-NO 22 0,000 mm 12,0 C 19,7 C 8,0 km/h (2 Bft) 95,65 %
09.08.2022 15:29 19,6 C 63 % 1026,3 hPa 0,0 l/m 1,6 km/h (1 Bft) N-NO 22 0,000 mm 12,4 C 19,6 C 8,0 km/h (2 Bft) 100,00 %
09.08.2022 15:28 19,3 C 63 % 1026,4 hPa 0,0 l/m 8,0 km/h (2 Bft) N-NO 22 0,000 mm 12,1 C 19,3 C 11,3 km/h (2 Bft) 95,65 %
09.08.2022 15:27 19,3 C 61 % 1026,5 hPa 0,0 l/m 6,4 km/h (2 Bft) N-NW 337 0,000 mm 11,6 C 19,3 C 11,3 km/h (2 Bft) 100,00 %
09.08.2022 15:26 18,9 C 63 % 1026,4 hPa 0,0 l/m 8,0 km/h (2 Bft) N-NO 22 0,000 mm 11,7 C 18,9 C 12,9 km/h (3 Bft) 95,65 %
09.08.2022 15:25 18,8 C 63 % 1026,3 hPa 0,0 l/m 6,4 km/h (2 Bft) N-NW 337 0,000 mm 11,6 C 18,8 C 8,0 km/h (2 Bft) 100,00 %
09.08.2022 15:24 18,7 C 65 % 1026,4 hPa 0,0 l/m 9,7 km/h (2 Bft) O-NO 67 0,000 mm 12,0 C 18,7 C 14,5 km/h (3 Bft) 95,65 %
09.08.2022 15:23 18,6 C 65 % 1026,4 hPa 0,0 l/m 4,8 km/h (1 Bft) NW 315 0,000 mm 11,9 C 18,6 C 8,0 km/h (2 Bft) 95,65 %
09.08.2022 15:22 18,6 C 64 % 1026,4 hPa 0,0 l/m 8,0 km/h (2 Bft) N 360 0,000 mm 11,7 C 18,6 C 11,3 km/h (2 Bft) 100,00 %
09.08.2022 15:21 18,6 C 66 % 1026,3 hPa 0,0 l/m 6,4 km/h (2 Bft) N 360 0,000 mm 12,1 C 18,6 C 11,3 km/h (2 Bft) 91,30 %
09.08.2022 15:20 18,7 C 66 % 1026,5 hPa 0,0 l/m 8,0 km/h (2 Bft) NW 315 0,000 mm 12,2 C 18,7 C 12,9 km/h (3 Bft) 100,00 %
09.08.2022 15:19 18,7 C 66 % 1026,4 hPa 0,0 l/m 6,4 km/h (2 Bft) NW 315 0,000 mm 12,2 C 18,7 C 11,3 km/h (2 Bft) 100,00 %
09.08.2022 15:18 18,7 C 66 % 1026,5 hPa 0,0 l/m 6,4 km/h (2 Bft) N 360 0,000 mm 12,2 C 18,7 C 9,7 km/h (2 Bft) 95,65 %
09.08.2022 15:17 18,7 C 64 % 1026,4 hPa 0,0 l/m 9,7 km/h (2 Bft) W-NW 292 0,000 mm 11,7 C 18,7 C 14,5 km/h (3 Bft) 95,65 %
09.08.2022 15:16 18,7 C 65 % 1026,4 hPa 0,0 l/m 8,0 km/h (2 Bft) W-NW 292 0,000 mm 12,0 C 18,7 C 12,9 km/h (3 Bft) 95,65 %
09.08.2022 15:15 18,7 C 65 % 1026,4 hPa 0,0 l/m 3,2 km/h (1 Bft) NO 45 0,000 mm 12,0 C 18,7 C 6,4 km/h (2 Bft) 100,00 %
09.08.2022 15:14 18,8 C 64 % 1026,4 hPa 0,0 l/m 6,4 km/h (2 Bft) N 360 0,000 mm 11,8 C 18,8 C 8,0 km/h (2 Bft) 95,65 %
09.08.2022 15:13 18,8 C 65 % 1026,4 hPa 0,0 l/m 8,0 km/h (2 Bft) N-NO 22 0,000 mm 12,1 C 18,8 C 12,9 km/h (3 Bft) 82,61 %
09.08.2022 15:12 18,8 C 64 % 1026,4 hPa 0,0 l/m 4,8 km/h (1 Bft) O-NO 67 0,000 mm 11,8 C 18,8 C 6,4 km/h (2 Bft) 86,96 %
09.08.2022 15:11 18,9 C 65 % 1026,4 hPa 0,0 l/m 6,4 km/h (2 Bft) O-NO 67 0,000 mm 12,2 C 18,9 C 9,7 km/h (2 Bft) 86,96 %
09.08.2022 15:10 18,9 C 65 % 1026,4 hPa 0,0 l/m 4,8 km/h (1 Bft) N 360 0,000 mm 12,2 C 18,9 C 6,4 km/h (2 Bft) 91,30 %
09.08.2022 15:09 19,1 C 64 % 1026,5 hPa 0,0 l/m 14,5 km/h (3 Bft) N-NO 22 0,000 mm 12,1 C 19,1 C 19,3 km/h (3 Bft) 82,61 %
09.08.2022 15:08 19,1 C 66 % 1026,4 hPa 0,0 l/m 8,0 km/h (2 Bft) N-NO 22 0,000 mm 12,6 C 19,1 C 16,1 km/h (3 Bft) 78,26 %
09.08.2022 15:07 19,2 C 66 % 1026,4 hPa 0,0 l/m 4,8 km/h (1 Bft) O-SO 112 0,000 mm 12,7 C 19,2 C 11,3 km/h (2 Bft) 86,96 %
09.08.2022 15:06 19,2 C 68 % 1026,5 hPa 0,0 l/m 6,4 km/h (2 Bft) N 360 0,000 mm 13,1 C 19,2 C 9,7 km/h (2 Bft) 86,96 %
09.08.2022 15:05 19,1 C 66 % 1026,5 hPa 0,0 l/m 9,7 km/h (2 Bft) N 360 0,000 mm 12,6 C 19,1 C 14,5 km/h (3 Bft) 86,96 %
09.08.2022 15:04 19,0 C 66 % 1026,3 hPa 0,0 l/m 8,0 km/h (2 Bft) NO 45 0,000 mm 12,5 C 19,0 C 14,5 km/h (3 Bft) 86,96 %
09.08.2022 15:03 18,9 C 63 % 1026,4 hPa 0,0 l/m 8,0 km/h (2 Bft) N-NO 22 0,000 mm 11,7 C 18,9 C 11,3 km/h (2 Bft) 91,30 %
09.08.2022 15:02 18,9 C 65 % 1026,5 hPa 0,0 l/m 8,0 km/h (2 Bft) N 360 0,000 mm 12,2 C 18,9 C 12,9 km/h (3 Bft) 82,61 %
09.08.2022 15:01 18,8 C 65 % 1026,5 hPa 0,0 l/m 9,7 km/h (2 Bft) O-NO 67 0,000 mm 12,1 C 18,8 C 14,5 km/h (3 Bft) 86,96 %
09.08.2022 15:00 18,8 C 64 % 1026,4 hPa 0,0 l/m 4,8 km/h (1 Bft) W-NW 292 0,000 mm 11,8 C 18,8 C 6,4 km/h (2 Bft) 86,96 %
09.08.2022 14:59 18,8 C 64 % 1026,5 hPa 0,0 l/m 6,4 km/h (2 Bft) N 360 0,000 mm 11,8 C 18,8 C 9,7 km/h (2 Bft) 82,61 %
09.08.2022 14:58 18,7 C 64 % 1026,6 hPa 0,0 l/m 8,0 km/h (2 Bft) N-NW 337 0,000 mm 11,7 C 18,7 C 16,1 km/h (3 Bft) 82,61 %
09.08.2022 14:57 18,7 C 67 % 1026,6 hPa 0,0 l/m 4,8 km/h (1 Bft) N-NW 337 0,000 mm 12,4 C 18,7 C 8,0 km/h (2 Bft) 86,96 %
09.08.2022 14:56 18,7 C 66 % 1026,5 hPa 0,0 l/m 3,2 km/h (1 Bft) W-NW 292 0,000 mm 12,2 C 18,7 C 6,4 km/h (2 Bft) 91,30 %
09.08.2022 14:55 18,6 C 62 % 1026,5 hPa 0,0 l/m 4,8 km/h (1 Bft) NO 45 0,000 mm 11,2 C 18,6 C 9,7 km/h (2 Bft) 82,61 %
09.08.2022 14:54 18,6 C 62 % 1026,5 hPa 0,0 l/m 4,8 km/h (1 Bft) NO 45 0,000 mm 11,2 C 18,6 C 8,0 km/h (2 Bft) 82,61 %
09.08.2022 14:53 18,6 C 62 % 1026,5 hPa 0,0 l/m 6,4 km/h (2 Bft) NW 315 0,000 mm 11,2 C 18,6 C 11,3 km/h (2 Bft) 86,96 %
09.08.2022 14:52 18,6 C 66 % 1026,5 hPa 0,0 l/m 4,8 km/h (1 Bft) N-NO 22 0,000 mm 12,1 C 18,6 C 8,0 km/h (2 Bft) 86,96 %
09.08.2022 14:51 18,5 C 62 % 1026,5 hPa 0,0 l/m 4,8 km/h (1 Bft) N-NW 337 0,000 mm 11,1 C 18,5 C 8,0 km/h (2 Bft) 86,96 %
09.08.2022 14:50 18,4 C 60 % 1026,5 hPa 0,0 l/m 4,8 km/h (1 Bft) N 360 0,000 mm 10,5 C 18,4 C 9,7 km/h (2 Bft) 86,96 %
09.08.2022 14:49 18,4 C 60 % 1026,5 hPa 0,0 l/m 4,8 km/h (1 Bft) W-NW 292 0,000 mm 10,5 C 18,4 C 8,0 km/h (2 Bft) 91,30 %
09.08.2022 14:48 18,5 C 59 % 1026,6 hPa 0,0 l/m 6,4 km/h (2 Bft) NW 315 0,000 mm 10,3 C 18,5 C 11,3 km/h (2 Bft) 86,96 %
09.08.2022 14:47 18,6 C 63 % 1026,5 hPa 0,0 l/m 4,8 km/h (1 Bft) NW 315 0,000 mm 11,4 C 18,6 C 6,4 km/h (2 Bft) 82,61 %
09.08.2022 14:46 18,6 C 63 % 1026,5 hPa 0,0 l/m 8,0 km/h (2 Bft) W-NW 292 0,000 mm 11,4 C 18,6 C 12,9 km/h (3 Bft) 86,96 %
09.08.2022 14:45 18,7 C 62 % 1026,6 hPa 0,0 l/m 9,7 km/h (2 Bft) W-NW 292 0,000 mm 11,3 C 18,7 C 11,3 km/h (2 Bft) 86,96 %
09.08.2022 14:44 18,7 C 62 % 1026,6 hPa 0,0 l/m 6,4 km/h (2 Bft) W-NW 292 0,000 mm 11,3 C 18,7 C 14,5 km/h (3 Bft) 86,96 %
09.08.2022 14:43 18,8 C 63 % 1026,5 hPa 0,0 l/m 4,8 km/h (1 Bft) W-NW 292 0,000 mm 11,6 C 18,8 C 8,0 km/h (2 Bft) 86,96 %
09.08.2022 14:42 18,9 C 61 % 1026,5 hPa 0,0 l/m 4,8 km/h (1 Bft) N-NO 22 0,000 mm 11,2 C 18,9 C 8,0 km/h (2 Bft) 91,30 %
09.08.2022 14:41 19,0 C 61 % 1026,5 hPa 0,0 l/m 6,4 km/h (2 Bft) NO 45 0,000 mm 11,3 C 19,0 C 9,7 km/h (2 Bft) 86,96 %
09.08.2022 14:40 19,1 C 61 % 1026,7 hPa 0,0 l/m 11,3 km/h (2 Bft) O-NO 67 0,000 mm 11,4 C 19,1 C 14,5 km/h (3 Bft) 82,61 %
09.08.2022 14:39 19,2 C 60 % 1026,7 hPa 0,0 l/m 11,3 km/h (2 Bft) NO 45 0,000 mm 11,2 C 19,2 C 16,1 km/h (3 Bft) 82,61 %
09.08.2022 14:38 19,3 C 61 % 1026,6 hPa 0,0 l/m 9,7 km/h (2 Bft) O-NO 67 0,000 mm 11,6 C 19,3 C 16,1 km/h (3 Bft) 86,96 %
09.08.2022 14:37 19,2 C 61 % 1026,6 hPa 0,0 l/m 6,4 km/h (2 Bft) NO 45 0,000 mm 11,5 C 19,2 C 9,7 km/h (2 Bft) 86,96 %
09.08.2022 14:36 19,3 C 61 % 1026,6 hPa 0,0 l/m 6,4 km/h (2 Bft) N-NO 22 0,000 mm 11,6 C 19,3 C 12,9 km/h (3 Bft) 82,61 %
09.08.2022 14:35 19,2 C 68 % 1026,6 hPa 0,0 l/m 6,4 km/h (2 Bft) N-NW 337 0,000 mm 13,1 C 19,2 C 14,5 km/h (3 Bft) 91,30 %
09.08.2022 14:34 18,9 C 68 % 1026,6 hPa 0,0 l/m 9,7 km/h (2 Bft) NO 45 0,000 mm 12,9 C 18,9 C 16,1 km/h (3 Bft) 86,96 %
09.08.2022 14:33 18,7 C 64 % 1026,6 hPa 0,0 l/m 9,7 km/h (2 Bft) NO 45 0,000 mm 11,7 C 18,7 C 17,7 km/h (3 Bft) 82,61 %
09.08.2022 14:32 18,6 C 64 % 1026,6 hPa 0,0 l/m 8,0 km/h (2 Bft) N-NW 337 0,000 mm 11,7 C 18,6 C 12,9 km/h (3 Bft) 86,96 %
09.08.2022 14:31 18,5 C 64 % 1026,7 hPa 0,0 l/m 6,4 km/h (2 Bft) NO 45 0,000 mm 11,6 C 18,5 C 9,7 km/h (2 Bft) 82,61 %
09.08.2022 14:30 18,4 C 67 % 1026,6 hPa 0,0 l/m 3,2 km/h (1 Bft) NO 45 0,000 mm 12,2 C 18,4 C 4,8 km/h (1 Bft) 86,96 %
09.08.2022 14:29 18,4 C 67 % 1026,5 hPa 0,0 l/m 1,6 km/h (1 Bft) NO 45 0,000 mm 12,2 C 18,4 C 3,2 km/h (1 Bft) 82,61 %
09.08.2022 14:28 18,3 C 67 % 1026,7 hPa 0,0 l/m 1,6 km/h (1 Bft) O 90 0,000 mm 12,1 C 18,3 C 3,2 km/h (1 Bft) 91,30 %
09.08.2022 14:27 18,4 C 63 % 1026,7 hPa 0,0 l/m 3,2 km/h (1 Bft) O 90 0,000 mm 11,2 C 18,4 C 4,8 km/h (1 Bft) 86,96 %
09.08.2022 14:26 18,4 C 64 % 1026,6 hPa 0,0 l/m 1,6 km/h (1 Bft) NW 315 0,000 mm 11,5 C 18,4 C 3,2 km/h (1 Bft) 82,61 %
09.08.2022 14:25 18,4 C 64 % 1026,7 hPa 0,0 l/m 4,8 km/h (1 Bft) N 360 0,000 mm 11,5 C 18,4 C 8,0 km/h (2 Bft) 86,96 %
09.08.2022 14:24 18,6 C 65 % 1026,7 hPa 0,0 l/m 3,2 km/h (1 Bft) N-NW 337 0,000 mm 11,9 C 18,6 C 6,4 km/h (2 Bft) 86,96 %
09.08.2022 14:23 18,7 C 65 % 1026,7 hPa 0,0 l/m 4,8 km/h (1 Bft) N 360 0,000 mm 12,0 C 18,7 C 8,0 km/h (2 Bft) 82,61 %
09.08.2022 14:22 18,8 C 67 % 1026,6 hPa 0,0 l/m 6,4 km/h (2 Bft) N 360 0,000 mm 12,5 C 18,8 C 9,7 km/h (2 Bft) 86,96 %
09.08.2022 14:21 18,8 C 65 % 1026,7 hPa 0,0 l/m 4,8 km/h (1 Bft) NO 45 0,000 mm 12,1 C 18,8 C 6,4 km/h (2 Bft) 91,30 %
09.08.2022 14:20 18,9 C 64 % 1026,7 hPa 0,0 l/m 8,0 km/h (2 Bft) N-NO 22 0,000 mm 11,9 C 18,9 C 14,5 km/h (3 Bft) 86,96 %
09.08.2022 14:19 18,9 C 60 % 1026,7 hPa 0,0 l/m 9,7 km/h (2 Bft) N-NO 22 0,000 mm 11,0 C 18,9 C 16,1 km/h (3 Bft) 95,65 %
09.08.2022 14:18 19,1 C 60 % 1026,7 hPa 0,0 l/m 8,0 km/h (2 Bft) N-NO 22 0,000 mm 11,1 C 19,1 C 14,5 km/h (3 Bft) 100,00 %
09.08.2022 14:17 19,1 C 64 % 1026,7 hPa 0,0 l/m 9,7 km/h (2 Bft) N-NW 337 0,000 mm 12,1 C 19,1 C 14,5 km/h (3 Bft) 100,00 %
09.08.2022 14:16 18,8 C 66 % 1026,7 hPa 0,0 l/m 9,7 km/h (2 Bft) NW 315 0,000 mm 12,3 C 18,8 C 17,7 km/h (3 Bft) 100,00 %
09.08.2022 14:15 18,7 C 65 % 1026,7 hPa 0,0 l/m 11,3 km/h (2 Bft) N 360 0,000 mm 12,0 C 18,7 C 19,3 km/h (3 Bft) 100,00 %
09.08.2022 14:14 18,4 C 65 % 1026,6 hPa 0,0 l/m 14,5 km/h (3 Bft) N 360 0,000 mm 11,7 C 18,4 C 17,7 km/h (3 Bft) 100,00 %
09.08.2022 14:13 18,3 C 62 % 1026,6 hPa 0,0 l/m 9,7 km/h (2 Bft) W-NW 292 0,000 mm 10,9 C 18,3 C 20,9 km/h (4 Bft) 95,65 %
09.08.2022 14:12 18,4 C 62 % 1026,6 hPa 0,0 l/m 12,9 km/h (3 Bft) W-NW 292 0,000 mm 11,0 C 18,4 C 17,7 km/h (3 Bft) 95,65 %
09.08.2022 14:11 18,4 C 64 % 1026,7 hPa 0,0 l/m 6,4 km/h (2 Bft) W-NW 292 0,000 mm 11,5 C 18,4 C 12,9 km/h (3 Bft) 100,00 %
09.08.2022 14:10 18,5 C 64 % 1026,7 hPa 0,0 l/m 8,0 km/h (2 Bft) N-NW 337 0,000 mm 11,6 C 18,5 C 19,3 km/h (3 Bft) 95,65 %
09.08.2022 14:09 18,6 C 62 % 1026,7 hPa 0,0 l/m 14,5 km/h (3 Bft) W-NW 292 0,000 mm 11,2 C 18,6 C 22,5 km/h (4 Bft) 100,00 %
09.08.2022 14:08 18,6 C 62 % 1026,6 hPa 0,0 l/m 4,8 km/h (1 Bft) NW 315 0,000 mm 11,2 C 18,6 C 9,7 km/h (2 Bft) 95,65 %
09.08.2022 14:07 18,8 C 62 % 1026,7 hPa 0,0 l/m 4,8 km/h (1 Bft) W-NW 292 0,000 mm 11,4 C 18,8 C 11,3 km/h (2 Bft) 100,00 %
09.08.2022 14:06 18,8 C 64 % 1026,7 hPa 0,0 l/m 6,4 km/h (2 Bft) N-NW 337 0,000 mm 11,8 C 18,8 C 11,3 km/h (2 Bft) 100,00 %
09.08.2022 14:05 18,8 C 62 % 1026,7 hPa 0,0 l/m 4,8 km/h (1 Bft) NW 315 0,000 mm 11,4 C 18,8 C 9,7 km/h (2 Bft) 91,30 %
09.08.2022 14:04 19,0 C 62 % 1026,6 hPa 0,0 l/m 6,4 km/h (2 Bft) N 360 0,000 mm 11,6 C 19,0 C 9,7 km/h (2 Bft) 100,00 %
09.08.2022 14:03 19,1 C 62 % 1026,6 hPa 0,0 l/m 8,0 km/h (2 Bft) NW 315 0,000 mm 11,6 C 19,1 C 12,9 km/h (3 Bft) 100,00 %
09.08.2022 14:02 18,9 C 62 % 1026,7 hPa 0,0 l/m 4,8 km/h (1 Bft) W-NW 292 0,000 mm 11,5 C 18,9 C 6,4 km/h (2 Bft) 100,00 %
09.08.2022 14:01 18,9 C 65 % 1026,7 hPa 0,0 l/m 6,4 km/h (2 Bft) NW 315 0,000 mm 12,2 C 18,9 C 11,3 km/h (2 Bft) 100,00 %
09.08.2022 14:00 19,1 C 65 % 1026,8 hPa 0,0 l/m 9,7 km/h (2 Bft) NW 315 0,000 mm 12,4 C 19,1 C 16,1 km/h (3 Bft) 100,00 %
09.08.2022 13:59 19,2 C 65 % 1026,7 hPa 0,0 l/m 11,3 km/h (2 Bft) N 360 0,000 mm 12,5 C 19,2 C 16,1 km/h (3 Bft) 100,00 %
09.08.2022 13:58 19,2 C 65 % 1026,8 hPa 0,0 l/m 12,9 km/h (3 Bft) NO 45 0,000 mm 12,5 C 19,2 C 19,3 km/h (3 Bft) 95,65 %
09.08.2022 13:57 19,1 C 62 % 1026,9 hPa 0,0 l/m 8,0 km/h (2 Bft) N 360 0,000 mm 11,6 C 19,1 C 16,1 km/h (3 Bft) 95,65 %
09.08.2022 13:56 18,9 C 64 % 1026,8 hPa 0,0 l/m 6,4 km/h (2 Bft) N 360 0,000 mm 11,9 C 18,9 C 9,7 km/h (2 Bft) 100,00 %
09.08.2022 13:55 18,9 C 64 % 1026,8 hPa 0,0 l/m 8,0 km/h (2 Bft) N 360 0,000 mm 11,9 C 18,9 C 12,9 km/h (3 Bft) 91,30 %
09.08.2022 13:54 19,1 C 60 % 1026,8 hPa 0,0 l/m 6,4 km/h (2 Bft) N-NO 22 0,000 mm 11,1 C 19,1 C 11,3 km/h (2 Bft) 95,65 %
09.08.2022 13:53 19,2 C 60 % 1026,8 hPa 0,0 l/m 8,0 km/h (2 Bft) N 360 0,000 mm 11,2 C 19,2 C 16,1 km/h (3 Bft) 100,00 %
09.08.2022 13:52 19,4 C 60 % 1026,7 hPa 0,0 l/m 4,8 km/h (1 Bft) N 360 0,000 mm 11,4 C 19,4 C 9,7 km/h (2 Bft) 100,00 %
09.08.2022 13:51 19,6 C 66 % 1026,7 hPa 0,0 l/m 9,7 km/h (2 Bft) N-NO 22 0,000 mm 13,1 C 19,6 C 16,1 km/h (3 Bft) 95,65 %
09.08.2022 13:50 19,6 C 66 % 1026,6 hPa 0,0 l/m 9,7 km/h (2 Bft) N-NO 22 0,000 mm 13,1 C 19,6 C 17,7 km/h (3 Bft) 100,00 %
09.08.2022 13:49 19,5 C 66 % 1026,5 hPa 0,0 l/m 6,4 km/h (2 Bft) SO 135 0,000 mm 13,0 C 19,5 C 12,9 km/h (3 Bft) 95,65 %
09.08.2022 13:48 19,3 C 62 % 1026,6 hPa 0,0 l/m 8,0 km/h (2 Bft) O-SO 112 0,000 mm 11,8 C 19,3 C 16,1 km/h (3 Bft) 100,00 %
09.08.2022 13:47 19,1 C 63 % 1026,7 hPa 0,0 l/m 4,8 km/h (1 Bft) S 180 0,000 mm 11,9 C 19,1 C 9,7 km/h (2 Bft) 100,00 %
09.08.2022 13:46 19,1 C 63 % 1026,7 hPa 0,0 l/m 9,7 km/h (2 Bft) SO 135 0,000 mm 11,9 C 19,1 C 12,9 km/h (3 Bft) 100,00 %
09.08.2022 13:45 18,9 C 61 % 1026,7 hPa 0,0 l/m 4,8 km/h (1 Bft) O-SO 112 0,000 mm 11,2 C 18,9 C 11,3 km/h (2 Bft) 100,00 %
09.08.2022 13:44 18,9 C 61 % 1026,7 hPa 0,0 l/m 3,2 km/h (1 Bft) O 90 0,000 mm 11,2 C 18,9 C 8,0 km/h (2 Bft) 95,65 %
09.08.2022 13:43 19,2 C 61 % 1026,7 hPa 0,0 l/m 8,0 km/h (2 Bft) S-SO 157 0,000 mm 11,5 C 19,2 C 11,3 km/h (2 Bft) 95,65 %
09.08.2022 13:42 19,3 C 63 % 1026,7 hPa 0,0 l/m 11,3 km/h (2 Bft) O-SO 112 0,000 mm 12,1 C 19,3 C 17,7 km/h (3 Bft) 100,00 %
09.08.2022 13:41 19,0 C 67 % 1026,7 hPa 0,0 l/m 11,3 km/h (2 Bft) O-SO 112 0,000 mm 12,7 C 19,0 C 16,1 km/h (3 Bft) 95,65 %
09.08.2022 13:40 18,8 C 66 % 1026,7 hPa 0,0 l/m 12,9 km/h (3 Bft) O-SO 112 0,000 mm 12,3 C 18,8 C 17,7 km/h (3 Bft) 100,00 %
09.08.2022 13:39 18,7 C 66 % 1026,7 hPa 0,0 l/m 4,8 km/h (1 Bft) O-NO 67 0,000 mm 12,2 C 18,7 C 8,0 km/h (2 Bft) 95,65 %
09.08.2022 13:38 18,4 C 65 % 1026,7 hPa 0,0 l/m 4,8 km/h (1 Bft) N 360 0,000 mm 11,7 C 18,4 C 6,4 km/h (2 Bft) 100,00 %
09.08.2022 13:37 18,4 C 67 % 1026,7 hPa 0,0 l/m 3,2 km/h (1 Bft) NW 315 0,000 mm 12,2 C 18,4 C 6,4 km/h (2 Bft) 95,65 %
09.08.2022 13:36 18,1 C 63 % 1026,7 hPa 0,0 l/m 3,2 km/h (1 Bft) NW 315 0,000 mm 10,9 C 18,1 C 4,8 km/h (1 Bft) 95,65 %
09.08.2022 13:35 17,9 C 70 % 1026,8 hPa 0,0 l/m 4,8 km/h (1 Bft) W-NW 292 0,000 mm 12,3 C 17,9 C 6,4 km/h (2 Bft) 100,00 %
09.08.2022 13:34 17,8 C 70 % 1026,8 hPa 0,0 l/m 4,8 km/h (1 Bft) W-NW 292 0,000 mm 12,3 C 17,8 C 8,0 km/h (2 Bft) 95,65 %
09.08.2022 13:33 17,7 C 70 % 1026,7 hPa 0,0 l/m 4,8 km/h (1 Bft) W-NW 292 0,000 mm 12,2 C 17,7 C 4,8 km/h (1 Bft) 100,00 %
09.08.2022 13:32 17,6 C 70 % 1026,8 hPa 0,0 l/m 3,2 km/h (1 Bft) O-NO 67 0,000 mm 12,1 C 17,6 C 6,4 km/h (2 Bft) 100,00 %
09.08.2022 13:31 17,6 C 66 % 1026,8 hPa 0,0 l/m 4,8 km/h (1 Bft) N 360 0,000 mm 11,2 C 17,6 C 6,4 km/h (2 Bft) 100,00 %
09.08.2022 13:30 17,6 C 66 % 1026,8 hPa 0,0 l/m 3,2 km/h (1 Bft) N-NW 337 0,000 mm 11,2 C 17,6 C 8,0 km/h (2 Bft) 95,65 %
09.08.2022 13:29 17,7 C 69 % 1026,9 hPa 0,0 l/m 4,8 km/h (1 Bft) NO 45 0,000 mm 11,9 C 17,7 C 8,0 km/h (2 Bft) 100,00 %
09.08.2022 13:28 17,7 C 69 % 1026,8 hPa 0,0 l/m 4,8 km/h (1 Bft) W-NW 292 0,000 mm 11,9 C 17,7 C 8,0 km/h (2 Bft) 95,65 %
09.08.2022 13:27 17,8 C 69 % 1026,9 hPa 0,0 l/m 3,2 km/h (1 Bft) NW 315 0,000 mm 12,0 C 17,8 C 6,4 km/h (2 Bft) 100,00 %
09.08.2022 13:26 17,8 C 69 % 1026,8 hPa 0,0 l/m 11,3 km/h (2 Bft) N-NO 22 0,000 mm 12,0 C 17,8 C 17,7 km/h (3 Bft) 100,00 %
09.08.2022 13:25 17,8 C 69 % 1026,8 hPa 0,0 l/m 9,7 km/h (2 Bft) N-NO 22 0,000 mm 12,0 C 17,8 C 17,7 km/h (3 Bft) 100,00 %
09.08.2022 13:24 17,9 C 68 % 1026,9 hPa 0,0 l/m 11,3 km/h (2 Bft) N 360 0,000 mm 11,9 C 17,9 C 14,5 km/h (3 Bft) 100,00 %
09.08.2022 13:23 18,1 C 65 % 1026,9 hPa 0,0 l/m 11,3 km/h (2 Bft) N-NO 22 0,000 mm 11,4 C 18,1 C 16,1 km/h (3 Bft) 91,30 %
09.08.2022 13:22 18,2 C 65 % 1026,9 hPa 0,0 l/m 12,9 km/h (3 Bft) N 360 0,000 mm 11,5 C 18,2 C 17,7 km/h (3 Bft) 100,00 %
09.08.2022 13:21 18,6 C 62 % 1026,9 hPa 0,0 l/m 12,9 km/h (3 Bft) W-NW 292 0,000 mm 11,2 C 18,6 C 17,7 km/h (3 Bft) 100,00 %
09.08.2022 13:20 18,6 C 62 % 1026,9 hPa 0,0 l/m 8,0 km/h (2 Bft) N 360 0,000 mm 11,2 C 18,6 C 14,5 km/h (3 Bft) 100,00 %
09.08.2022 13:19 18,8 C 62 % 1026,9 hPa 0,0 l/m 9,7 km/h (2 Bft) NW 315 0,000 mm 11,4 C 18,8 C 16,1 km/h (3 Bft) 100,00 %
09.08.2022 13:18 19,1 C 61 % 1026,8 hPa 0,0 l/m 9,7 km/h (2 Bft) N 360 0,000 mm 11,4 C 19,1 C 12,9 km/h (3 Bft) 95,65 %
09.08.2022 13:17 19,1 C 61 % 1026,8 hPa 0,0 l/m 9,7 km/h (2 Bft) N-NO 22 0,000 mm 11,4 C 19,1 C 16,1 km/h (3 Bft) 100,00 %
09.08.2022 13:16 18,8 C 61 % 1026,9 hPa 0,0 l/m 11,3 km/h (2 Bft) N-NW 337 0,000 mm 11,1 C 18,8 C 16,1 km/h (3 Bft) 95,65 %
09.08.2022 13:15 18,7 C 58 % 1026,8 hPa 0,0 l/m 6,4 km/h (2 Bft) N-NW 337 0,000 mm 10,3 C 18,7 C 12,9 km/h (3 Bft) 100,00 %
09.08.2022 13:14 18,6 C 58 % 1026,8 hPa 0,0 l/m 1,6 km/h (1 Bft) S 180 0,000 mm 10,2 C 18,6 C 4,8 km/h (1 Bft) 100,00 %
09.08.2022 13:13 18,6 C 58 % 1026,7 hPa 0,0 l/m 3,2 km/h (1 Bft) S-SO 157 0,000 mm 10,2 C 18,6 C 4,8 km/h (1 Bft) 100,00 %
09.08.2022 13:12 18,5 C 62 % 1026,8 hPa 0,0 l/m 3,2 km/h (1 Bft) S-SO 157 0,000 mm 11,1 C 18,5 C 8,0 km/h (2 Bft) 100,00 %
09.08.2022 13:11 18,2 C 62 % 1026,8 hPa 0,0 l/m 3,2 km/h (1 Bft) S 180 0,000 mm 10,8 C 18,2 C 4,8 km/h (1 Bft) 100,00 %
09.08.2022 13:10 17,8 C 65 % 1026,8 hPa 0,0 l/m 1,6 km/h (1 Bft) S-SO 157 0,000 mm 11,1 C 17,8 C 3,2 km/h (1 Bft) 100,00 %
09.08.2022 13:09 17,5 C 66 % 1026,8 hPa 0,0 l/m 4,8 km/h (1 Bft) SO 135 0,000 mm 11,1 C 17,5 C 6,4 km/h (2 Bft) 95,65 %
09.08.2022 13:08 17,3 C 67 % 1026,9 hPa 0,0 l/m 1,6 km/h (1 Bft) SO 135 0,000 mm 11,1 C 17,3 C 4,8 km/h (1 Bft) 95,65 %
09.08.2022 13:07 17,3 C 63 % 1026,9 hPa 0,0 l/m 4,8 km/h (1 Bft) NW 315 0,000 mm 10,2 C 17,3 C 6,4 km/h (2 Bft) 100,00 %
09.08.2022 13:06 17,4 C 66 % 1026,9 hPa 0,0 l/m 8,0 km/h (2 Bft) N 360 0,000 mm 11,0 C 17,4 C 9,7 km/h (2 Bft) 100,00 %
09.08.2022 13:05 17,4 C 66 % 1026,8 hPa 0,0 l/m 6,4 km/h (2 Bft) N 360 0,000 mm 11,0 C 17,4 C 11,3 km/h (2 Bft) 100,00 %
09.08.2022 13:04 17,6 C 61 % 1027,0 hPa 0,0 l/m 6,4 km/h (2 Bft) N-NO 22 0,000 mm 10,0 C 17,6 C 11,3 km/h (2 Bft) 100,00 %
09.08.2022 13:03 17,8 C 61 % 1026,9 hPa 0,0 l/m 8,0 km/h (2 Bft) NO 45 0,000 mm 10,2 C 17,8 C 14,5 km/h (3 Bft) 95,65 %
09.08.2022 13:02 17,9 C 61 % 1026,9 hPa 0,0 l/m 6,4 km/h (2 Bft) NO 45 0,000 mm 10,3 C 17,9 C 8,0 km/h (2 Bft) 95,65 %
09.08.2022 13:01 18,1 C 61 % 1026,8 hPa 0,0 l/m 6,4 km/h (2 Bft) N 360 0,000 mm 10,5 C 18,1 C 11,3 km/h (2 Bft) 100,00 %
09.08.2022 13:00 18,5 C 61 % 1026,9 hPa 0,0 l/m 6,4 km/h (2 Bft) NW 315 0,000 mm 10,8 C 18,5 C 12,9 km/h (3 Bft) 100,00 %
09.08.2022 12:59 18,5 C 61 % 1026,9 hPa 0,0 l/m 8,0 km/h (2 Bft) W-NW 292 0,000 mm 10,8 C 18,5 C 12,9 km/h (3 Bft) 100,00 %
09.08.2022 12:58 18,6 C 61 % 1026,9 hPa 0,0 l/m 9,7 km/h (2 Bft) NW 315 0,000 mm 10,9 C 18,6 C 14,5 km/h (3 Bft) 100,00 %
09.08.2022 12:57 18,7 C 61 % 1026,9 hPa 0,0 l/m 11,3 km/h (2 Bft) N-NO 22 0,000 mm 11,0 C 18,7 C 17,7 km/h (3 Bft) 100,00 %
09.08.2022 12:56 18,6 C 61 % 1026,8 hPa 0,0 l/m 9,7 km/h (2 Bft) N-NW 337 0,000 mm 10,9 C 18,6 C 16,1 km/h (3 Bft) 100,00 %
09.08.2022 12:55 18,4 C 61 % 1026,8 hPa 0,0 l/m 6,4 km/h (2 Bft) N 360 0,000 mm 10,7 C 18,4 C 12,9 km/h (3 Bft) 95,65 %
09.08.2022 12:54 18,3 C 61 % 1026,7 hPa 0,0 l/m 6,4 km/h (2 Bft) O-NO 67 0,000 mm 10,6 C 18,3 C 12,9 km/h (3 Bft) 100,00 %
09.08.2022 12:53 18,6 C 63 % 1026,7 hPa 0,0 l/m 4,8 km/h (1 Bft) N-NW 337 0,000 mm 11,4 C 18,6 C 11,3 km/h (2 Bft) 100,00 %
09.08.2022 12:52 18,7 C 63 % 1026,9 hPa 0,0 l/m 6,4 km/h (2 Bft) W 270 0,000 mm 11,5 C 18,7 C 11,3 km/h (2 Bft) 100,00 %
09.08.2022 12:51 18,4 C 63 % 1026,8 hPa 0,0 l/m 4,8 km/h (1 Bft) W 270 0,000 mm 11,2 C 18,4 C 11,3 km/h (2 Bft) 100,00 %
09.08.2022 12:50 18,4 C 63 % 1026,9 hPa 0,0 l/m 9,7 km/h (2 Bft) W-NW 292 0,000 mm 11,2 C 18,4 C 16,1 km/h (3 Bft) 100,00 %
09.08.2022 12:49 18,4 C 66 % 1026,8 hPa 0,0 l/m 8,0 km/h (2 Bft) W 270 0,000 mm 11,9 C 18,4 C 12,9 km/h (3 Bft) 100,00 %
09.08.2022 12:48 18,3 C 66 % 1026,8 hPa 0,0 l/m 8,0 km/h (2 Bft) NW 315 0,000 mm 11,8 C 18,3 C 16,1 km/h (3 Bft) 95,65 %
09.08.2022 12:47 18,3 C 66 % 1026,8 hPa 0,0 l/m 3,2 km/h (1 Bft) N-NW 337 0,000 mm 11,8 C 18,3 C 6,4 km/h (2 Bft) 100,00 %
09.08.2022 12:46 18,6 C 66 % 1026,9 hPa 0,0 l/m 6,4 km/h (2 Bft) N-NO 22 0,000 mm 12,1 C 18,6 C 8,0 km/h (2 Bft) 100,00 %
09.08.2022 12:45 18,6 C 66 % 1026,9 hPa 0,0 l/m 6,4 km/h (2 Bft) NO 45 0,000 mm 12,1 C 18,6 C 11,3 km/h (2 Bft) 100,00 %
09.08.2022 12:44 18,6 C 66 % 1026,8 hPa 0,0 l/m 8,0 km/h (2 Bft) W-NW 292 0,000 mm 12,1 C 18,6 C 12,9 km/h (3 Bft) 100,00 %
09.08.2022 12:43 18,4 C 66 % 1026,9 hPa 0,0 l/m 11,3 km/h (2 Bft) NO 45 0,000 mm 11,9 C 18,4 C 16,1 km/h (3 Bft) 100,00 %
09.08.2022 12:42 18,4 C 66 % 1026,9 hPa 0,0 l/m 6,4 km/h (2 Bft) N-NO 22 0,000 mm 11,9 C 18,4 C 12,9 km/h (3 Bft) 100,00 %
09.08.2022 12:41 18,4 C 65 % 1026,9 hPa 0,0 l/m 6,4 km/h (2 Bft) N 360 0,000 mm 11,7 C 18,4 C 12,9 km/h (3 Bft) 100,00 %
09.08.2022 12:40 18,4 C 67 % 1026,9 hPa 0,0 l/m 6,4 km/h (2 Bft) O-NO 67 0,000 mm 12,2 C 18,4 C 9,7 km/h (2 Bft) 95,65 %
09.08.2022 12:39 18,5 C 67 % 1026,9 hPa 0,0 l/m 8,0 km/h (2 Bft) O-NO 67 0,000 mm 12,3 C 18,5 C 12,9 km/h (3 Bft) 100,00 %
09.08.2022 12:38 18,4 C 67 % 1026,9 hPa 0,0 l/m 14,5 km/h (3 Bft) NO 45 0,000 mm 12,2 C 18,4 C 19,3 km/h (3 Bft) 95,65 %
09.08.2022 12:37 18,2 C 67 % 1027,0 hPa 0,0 l/m 11,3 km/h (2 Bft) N 360 0,000 mm 12,0 C 18,2 C 17,7 km/h (3 Bft) 100,00 %
09.08.2022 12:36 18,0 C 67 % 1027,0 hPa 0,0 l/m 8,0 km/h (2 Bft) O-NO 67 0,000 mm 11,8 C 18,0 C 11,3 km/h (2 Bft) 100,00 %
09.08.2022 12:35 17,8 C 67 % 1027,0 hPa 0,0 l/m 8,0 km/h (2 Bft) O-NO 67 0,000 mm 11,6 C 17,8 C 16,1 km/h (3 Bft) 100,00 %
09.08.2022 12:34 17,6 C 67 % 1027,0 hPa 0,0 l/m 6,4 km/h (2 Bft) O-NO 67 0,000 mm 11,4 C 17,6 C 11,3 km/h (2 Bft) 95,65 %
09.08.2022 12:33 17,2 C 67 % 1026,9 hPa 0,0 l/m 8,0 km/h (2 Bft) O-NO 67 0,000 mm 11,0 C 17,2 C 9,7 km/h (2 Bft) 95,65 %
09.08.2022 12:32 17,1 C 67 % 1026,9 hPa 0,0 l/m 3,2 km/h (1 Bft) SW 225 0,000 mm 10,9 C 17,1 C 6,4 km/h (2 Bft) 100,00 %
09.08.2022 12:31 17,1 C 63 % 1026,9 hPa 0,0 l/m 1,6 km/h (1 Bft) N-NO 22 0,000 mm 10,0 C 17,1 C 4,8 km/h (1 Bft) 95,65 %
09.08.2022 12:30 17,1 C 63 % 1026,9 hPa 0,0 l/m 4,8 km/h (1 Bft) NO 45 0,000 mm 10,0 C 17,1 C 12,9 km/h (3 Bft) 100,00 %
09.08.2022 12:29 17,2 C 63 % 1027,0 hPa 0,0 l/m 8,0 km/h (2 Bft) N-NO 22 0,000 mm 10,1 C 17,2 C 12,9 km/h (3 Bft) 100,00 %
09.08.2022 12:28 17,1 C 63 % 1027,0 hPa 0,0 l/m 9,7 km/h (2 Bft) N-NW 337 0,000 mm 10,0 C 17,1 C 14,5 km/h (3 Bft) 100,00 %
09.08.2022 12:27 17,2 C 63 % 1026,9 hPa 0,0 l/m 6,4 km/h (2 Bft) N-NW 337 0,000 mm 10,1 C 17,2 C 9,7 km/h (2 Bft) 100,00 %
09.08.2022 12:26 17,4 C 63 % 1026,9 hPa 0,0 l/m 6,4 km/h (2 Bft) N-NO 22 0,000 mm 10,3 C 17,4 C 12,9 km/h (3 Bft) 95,65 %
09.08.2022 12:25 17,4 C 65 % 1026,8 hPa 0,0 l/m 4,8 km/h (1 Bft) NW 315 0,000 mm 10,8 C 17,4 C 6,4 km/h (2 Bft) 100,00 %
09.08.2022 12:24 17,6 C 65 % 1027,0 hPa 0,0 l/m 4,8 km/h (1 Bft) O 90 0,000 mm 10,9 C 17,6 C 8,0 km/h (2 Bft) 100,00 %
09.08.2022 12:23 17,6 C 65 % 1026,9 hPa 0,0 l/m 8,0 km/h (2 Bft) N 360 0,000 mm 10,9 C 17,6 C 9,7 km/h (2 Bft) 100,00 %
09.08.2022 12:22 17,8 C 65 % 1026,9 hPa 0,0 l/m 6,4 km/h (2 Bft) NO 45 0,000 mm 11,1 C 17,8 C 12,9 km/h (3 Bft) 100,00 %
09.08.2022 12:21 17,8 C 65 % 1026,9 hPa 0,0 l/m 4,8 km/h (1 Bft) O-NO 67 0,000 mm 11,1 C 17,8 C 8,0 km/h (2 Bft) 100,00 %
09.08.2022 12:20 17,9 C 68 % 1027,0 hPa 0,0 l/m 4,8 km/h (1 Bft) NO 45 0,000 mm 11,9 C 17,9 C 8,0 km/h (2 Bft) 100,00 %
09.08.2022 12:19 17,8 C 68 % 1026,9 hPa 0,0 l/m 8,0 km/h (2 Bft) NW 315 0,000 mm 11,8 C 17,8 C 12,9 km/h (3 Bft) 95,65 %
09.08.2022 12:18 17,7 C 65 % 1026,9 hPa 0,0 l/m 6,4 km/h (2 Bft) NO 45 0,000 mm 11,0 C 17,7 C 11,3 km/h (2 Bft) 100,00 %
09.08.2022 12:17 17,7 C 65 % 1026,9 hPa 0,0 l/m 8,0 km/h (2 Bft) N 360 0,000 mm 11,0 C 17,7 C 14,5 km/h (3 Bft) 100,00 %
09.08.2022 12:16 17,7 C 65 % 1027,0 hPa 0,0 l/m 6,4 km/h (2 Bft) O-NO 67 0,000 mm 11,0 C 17,7 C 14,5 km/h (3 Bft) 100,00 %
09.08.2022 12:15 17,8 C 65 % 1026,8 hPa 0,0 l/m 4,8 km/h (1 Bft) NO 45 0,000 mm 11,1 C 17,8 C 8,0 km/h (2 Bft) 95,65 %
09.08.2022 12:14 17,8 C 70 % 1027,0 hPa 0,0 l/m 6,4 km/h (2 Bft) O-SO 112 0,000 mm 12,3 C 17,8 C 11,3 km/h (2 Bft) 100,00 %
09.08.2022 12:13 17,9 C 70 % 1027,0 hPa 0,0 l/m 4,8 km/h (1 Bft) O 90 0,000 mm 12,3 C 17,9 C 8,0 km/h (2 Bft) 95,65 %
09.08.2022 12:12 18,1 C 70 % 1027,0 hPa 0,0 l/m 6,4 km/h (2 Bft) NW 315 0,000 mm 12,5 C 18,1 C 11,3 km/h (2 Bft) 95,65 %
09.08.2022 12:11 18,2 C 70 % 1027,0 hPa 0,0 l/m 6,4 km/h (2 Bft) W-NW 292 0,000 mm 12,6 C 18,2 C 8,0 km/h (2 Bft) 100,00 %
09.08.2022 12:10 18,2 C 70 % 1027,1 hPa 0,0 l/m 6,4 km/h (2 Bft) N-NO 22 0,000 mm 12,6 C 18,2 C 14,5 km/h (3 Bft) 100,00 %
09.08.2022 12:09 18,1 C 70 % 1027,0 hPa 0,0 l/m 12,9 km/h (3 Bft) N-NW 337 0,000 mm 12,5 C 18,1 C 16,1 km/h (3 Bft) 100,00 %
09.08.2022 12:08 17,9 C 67 % 1027,1 hPa 0,0 l/m 8,0 km/h (2 Bft) N-NW 337 0,000 mm 11,7 C 17,9 C 14,5 km/h (3 Bft) 100,00 %
09.08.2022 12:07 17,9 C 67 % 1027,0 hPa 0,0 l/m 9,7 km/h (2 Bft) N-NO 22 0,000 mm 11,7 C 17,9 C 17,7 km/h (3 Bft) 95,65 %
09.08.2022 12:06 17,8 C 63 % 1026,9 hPa 0,0 l/m 9,7 km/h (2 Bft) O-SO 112 0,000 mm 10,7 C 17,8 C 12,9 km/h (3 Bft) 95,65 %
09.08.2022 12:05 17,8 C 63 % 1026,9 hPa 0,0 l/m 4,8 km/h (1 Bft) SO 135 0,000 mm 10,7 C 17,8 C 14,5 km/h (3 Bft) 91,30 %
09.08.2022 12:04 17,7 C 63 % 1027,0 hPa 0,0 l/m 6,4 km/h (2 Bft) NW 315 0,000 mm 10,6 C 17,7 C 9,7 km/h (2 Bft) 100,00 %
09.08.2022 12:03 17,7 C 63 % 1027,0 hPa 0,0 l/m 8,0 km/h (2 Bft) N 360 0,000 mm 10,6 C 17,7 C 12,9 km/h (3 Bft) 100,00 %
09.08.2022 12:02 17,7 C 63 % 1027,0 hPa 0,0 l/m 8,0 km/h (2 Bft) NW 315 0,000 mm 10,6 C 17,7 C 12,9 km/h (3 Bft) 95,65 %
09.08.2022 12:01 17,8 C 63 % 1027,0 hPa 0,0 l/m 6,4 km/h (2 Bft) NW 315 0,000 mm 10,7 C 17,8 C 12,9 km/h (3 Bft) 100,00 %
09.08.2022 12:00 17,8 C 63 % 1026,9 hPa 0,0 l/m 8,0 km/h (2 Bft) N-NW 337 0,000 mm 10,7 C 17,8 C 11,3 km/h (2 Bft) 100,00 %
09.08.2022 11:59 17,8 C 63 % 1026,9 hPa 0,0 l/m 8,0 km/h (2 Bft) N 360 0,000 mm 10,7 C 17,8 C 14,5 km/h (3 Bft) 100,00 %
09.08.2022 11:58 17,7 C 63 % 1026,9 hPa 0,0 l/m 12,9 km/h (3 Bft) N-NW 337 0,000 mm 10,6 C 17,7 C 20,9 km/h (4 Bft) 95,65 %
09.08.2022 11:57 17,9 C 63 % 1027,0 hPa 0,0 l/m 12,9 km/h (3 Bft) NW 315 0,000 mm 10,8 C 17,9 C 17,7 km/h (3 Bft) 91,30 %
09.08.2022 11:56 18,1 C 67 % 1026,8 hPa 0,0 l/m 8,0 km/h (2 Bft) O-SO 112 0,000 mm 11,9 C 18,1 C 12,9 km/h (3 Bft) 100,00 %
09.08.2022 11:55 18,2 C 69 % 1026,9 hPa 0,0 l/m 6,4 km/h (2 Bft) O-SO 112 0,000 mm 12,4 C 18,2 C 14,5 km/h (3 Bft) 95,65 %
09.08.2022 11:54 17,9 C 69 % 1026,8 hPa 0,0 l/m 12,9 km/h (3 Bft) O-SO 112 0,000 mm 12,1 C 17,9 C 16,1 km/h (3 Bft) 100,00 %
09.08.2022 11:53 17,8 C 70 % 1026,9 hPa 0,0 l/m 8,0 km/h (2 Bft) O 90 0,000 mm 12,3 C 17,8 C 16,1 km/h (3 Bft) 100,00 %
09.08.2022 11:52 17,7 C 70 % 1026,9 hPa 0,0 l/m 6,4 km/h (2 Bft) W 270 0,000 mm 12,2 C 17,7 C 19,3 km/h (3 Bft) 100,00 %
09.08.2022 11:51 17,4 C 68 % 1026,9 hPa 0,0 l/m 3,2 km/h (1 Bft) W-NW 292 0,000 mm 11,4 C 17,4 C 8,0 km/h (2 Bft) 91,30 %
09.08.2022 11:50 17,4 C 68 % 1027,0 hPa 0,0 l/m 4,8 km/h (1 Bft) W-NW 292 0,000 mm 11,4 C 17,4 C 11,3 km/h (2 Bft) 100,00 %
09.08.2022 11:49 17,3 C 68 % 1026,9 hPa 0,0 l/m 1,6 km/h (1 Bft) W-NW 292 0,000 mm 11,3 C 17,3 C 4,8 km/h (1 Bft) 100,00 %
09.08.2022 11:48 17,2 C 68 % 1026,9 hPa 0,0 l/m 6,4 km/h (2 Bft) NW 315 0,000 mm 11,2 C 17,2 C 11,3 km/h (2 Bft) 95,65 %
09.08.2022 11:47 17,1 C 68 % 1026,9 hPa 0,0 l/m 8,0 km/h (2 Bft) N-NO 22 0,000 mm 11,1 C 17,1 C 12,9 km/h (3 Bft) 100,00 %
09.08.2022 11:46 16,8 C 68 % 1026,8 hPa 0,0 l/m 3,2 km/h (1 Bft) O-SO 112 0,000 mm 10,9 C 16,8 C 4,8 km/h (1 Bft) 100,00 %
09.08.2022 11:45 16,8 C 68 % 1026,8 hPa 0,0 l/m 3,2 km/h (1 Bft) SO 135 0,000 mm 10,9 C 16,8 C 4,8 km/h (1 Bft) 100,00 %
09.08.2022 11:44 16,8 C 68 % 1026,8 hPa 0,0 l/m 4,8 km/h (1 Bft) SO 135 0,000 mm 10,9 C 16,8 C 9,7 km/h (2 Bft) 95,65 %
09.08.2022 11:43 16,8 C 68 % 1026,8 hPa 0,0 l/m 9,7 km/h (2 Bft) O-SO 112 0,000 mm 10,9 C 16,8 C 12,9 km/h (3 Bft) 100,00 %
09.08.2022 11:42 16,8 C 68 % 1026,8 hPa 0,0 l/m 4,8 km/h (1 Bft) O-SO 112 0,000 mm 10,9 C 16,8 C 8,0 km/h (2 Bft) 100,00 %
09.08.2022 11:41 16,9 C 70 % 1026,9 hPa 0,0 l/m 6,4 km/h (2 Bft) O 90 0,000 mm 11,4 C 16,9 C 11,3 km/h (2 Bft) 100,00 %
09.08.2022 11:40 17,0 C 69 % 1026,9 hPa 0,0 l/m 8,0 km/h (2 Bft) N-NO 22 0,000 mm 11,3 C 17,0 C 14,5 km/h (3 Bft) 100,00 %
09.08.2022 11:39 16,9 C 67 % 1026,9 hPa 0,0 l/m 4,8 km/h (1 Bft) N-NO 22 0,000 mm 10,7 C 16,9 C 6,4 km/h (2 Bft) 100,00 %
09.08.2022 11:38 16,9 C 67 % 1026,8 hPa 0,0 l/m 1,6 km/h (1 Bft) N 360 0,000 mm 10,7 C 16,9 C 3,2 km/h (1 Bft) 100,00 %
09.08.2022 11:37 16,9 C 67 % 1026,8 hPa 0,0 l/m 3,2 km/h (1 Bft) S 180 0,000 mm 10,7 C 16,9 C 8,0 km/h (2 Bft) 95,65 %
09.08.2022 11:36 16,9 C 70 % 1026,8 hPa 0,0 l/m 3,2 km/h (1 Bft) O-NO 67 0,000 mm 11,4 C 16,9 C 4,8 km/h (1 Bft) 95,65 %
09.08.2022 11:35 16,9 C 66 % 1026,8 hPa 0,0 l/m 4,8 km/h (1 Bft) O-NO 67 0,000 mm 10,5 C 16,9 C 6,4 km/h (2 Bft) 95,65 %
09.08.2022 11:34 16,4 C 66 % 1026,8 hPa 0,0 l/m 6,4 km/h (2 Bft) NO 45 0,000 mm 10,0 C 16,4 C 11,3 km/h (2 Bft) 100,00 %
09.08.2022 11:33 16,4 C 65 % 1026,8 hPa 0,0 l/m 3,2 km/h (1 Bft) O-NO 67 0,000 mm 9,8 C 16,4 C 8,0 km/h (2 Bft) 100,00 %
09.08.2022 11:32 16,4 C 65 % 1026,7 hPa 0,0 l/m 3,2 km/h (1 Bft) O 90 0,000 mm 9,8 C 16,4 C 6,4 km/h (2 Bft) 100,00 %
09.08.2022 11:31 16,4 C 65 % 1026,8 hPa 0,0 l/m 4,8 km/h (1 Bft) NO 45 0,000 mm 9,8 C 16,4 C 6,4 km/h (2 Bft) 100,00 %
09.08.2022 11:30 16,4 C 65 % 1026,8 hPa 0,0 l/m 4,8 km/h (1 Bft) NO 45 0,000 mm 9,8 C 16,4 C 6,4 km/h (2 Bft) 91,30 %
09.08.2022 11:29 16,4 C 65 % 1026,8 hPa 0,0 l/m 6,4 km/h (2 Bft) NO 45 0,000 mm 9,8 C 16,4 C 9,7 km/h (2 Bft) 100,00 %
09.08.2022 11:28 16,4 C 65 % 1026,7 hPa 0,0 l/m 8,0 km/h (2 Bft) N 360 0,000 mm 9,8 C 16,4 C 12,9 km/h (3 Bft) 100,00 %
09.08.2022 11:27 16,4 C 65 % 1026,8 hPa 0,0 l/m 9,7 km/h (2 Bft) N-NO 22 0,000 mm 9,8 C 16,4 C 14,5 km/h (3 Bft) 100,00 %
09.08.2022 11:26 16,4 C 65 % 1026,8 hPa 0,0 l/m 9,7 km/h (2 Bft) NO 45 0,000 mm 9,8 C 16,4 C 16,1 km/h (3 Bft) 100,00 %
09.08.2022 11:25 16,4 C 65 % 1026,8 hPa 0,0 l/m 3,2 km/h (1 Bft) O-SO 112 0,000 mm 9,8 C 16,4 C 9,7 km/h (2 Bft) 100,00 %
09.08.2022 11:24 16,4 C 65 % 1026,7 hPa 0,0 l/m 4,8 km/h (1 Bft) W-NW 292 0,000 mm 9,8 C 16,4 C 9,7 km/h (2 Bft) 95,65 %
09.08.2022 11:23 16,4 C 65 % 1026,8 hPa 0,0 l/m 6,4 km/h (2 Bft) N-NO 22 0,000 mm 9,8 C 16,4 C 9,7 km/h (2 Bft) 95,65 %
09.08.2022 11:22 16,4 C 65 % 1026,7 hPa 0,0 l/m 6,4 km/h (2 Bft) N 360 0,000 mm 9,8 C 16,4 C 14,5 km/h (3 Bft) 100,00 %
09.08.2022 11:21 16,4 C 65 % 1026,7 hPa 0,0 l/m 11,3 km/h (2 Bft) NW 315 0,000 mm 9,8 C 16,4 C 14,5 km/h (3 Bft) 100,00 %
09.08.2022 11:20 16,4 C 65 % 1026,8 hPa 0,0 l/m 6,4 km/h (2 Bft) O-NO 67 0,000 mm 9,8 C 16,4 C 9,7 km/h (2 Bft) 100,00 %
09.08.2022 11:19 16,4 C 65 % 1026,7 hPa 0,0 l/m 6,4 km/h (2 Bft) N-NO 22 0,000 mm 9,8 C 16,4 C 12,9 km/h (3 Bft) 91,30 %
09.08.2022 11:18 16,4 C 65 % 1026,7 hPa 0,0 l/m 3,2 km/h (1 Bft) N-NO 22 0,000 mm 9,8 C 16,4 C 6,4 km/h (2 Bft) 100,00 %
09.08.2022 11:17 16,4 C 65 % 1026,7 hPa 0,0 l/m 3,2 km/h (1 Bft) O-NO 67 0,000 mm 9,8 C 16,4 C 6,4 km/h (2 Bft) 100,00 %
09.08.2022 11:16 16,4 C 65 % 1026,9 hPa 0,0 l/m 6,4 km/h (2 Bft) NO 45 0,000 mm 9,8 C 16,4 C 8,0 km/h (2 Bft) 91,30 %
09.08.2022 11:15 16,4 C 65 % 1026,8 hPa 0,0 l/m 4,8 km/h (1 Bft) O-NO 67 0,000 mm 9,8 C 16,4 C 11,3 km/h (2 Bft) 100,00 %
09.08.2022 11:14 16,4 C 65 % 1026,9 hPa 0,0 l/m 4,8 km/h (1 Bft) N 360 0,000 mm 9,8 C 16,4 C 6,4 km/h (2 Bft) 100,00 %
09.08.2022 11:13 16,4 C 65 % 1026,8 hPa 0,0 l/m 3,2 km/h (1 Bft) N 360 0,000 mm 9,8 C 16,4 C 6,4 km/h (2 Bft) 91,30 %
09.08.2022 11:12 16,4 C 65 % 1026,8 hPa 0,0 l/m 4,8 km/h (1 Bft) N-NO 22 0,000 mm 9,8 C 16,4 C 11,3 km/h (2 Bft) 100,00 %
09.08.2022 11:11 16,4 C 65 % 1026,8 hPa 0,0 l/m 3,2 km/h (1 Bft) SO 135 0,000 mm 9,8 C 16,4 C 6,4 km/h (2 Bft) 100,00 %
09.08.2022 11:10 16,4 C 65 % 1026,8 hPa 0,0 l/m 0,0 km/h (0 Bft) SO 135 0,000 mm 9,8 C 16,4 C 1,6 km/h (1 Bft) 100,00 %
09.08.2022 11:09 16,4 C 65 % 1026,9 hPa 0,0 l/m 3,2 km/h (1 Bft) O 90 0,000 mm 9,8 C 16,4 C 9,7 km/h (2 Bft) 95,65 %
09.08.2022 11:08 16,4 C 65 % 1026,9 hPa 0,0 l/m 6,4 km/h (2 Bft) O-NO 67 0,000 mm 9,8 C 16,4 C 9,7 km/h (2 Bft) 100,00 %
09.08.2022 11:07 16,4 C 65 % 1026,8 hPa 0,0 l/m 8,0 km/h (2 Bft) N-NW 337 0,000 mm 9,8 C 16,4 C 12,9 km/h (3 Bft) 100,00 %
09.08.2022 11:06 16,4 C 65 % 1026,8 hPa 0,0 l/m 6,4 km/h (2 Bft) N-NW 337 0,000 mm 9,8 C 16,4 C 12,9 km/h (3 Bft) 95,65 %
09.08.2022 11:05 16,4 C 65 % 1026,7 hPa 0,0 l/m 8,0 km/h (2 Bft) W-NW 292 0,000 mm 9,8 C 16,4 C 12,9 km/h (3 Bft) 100,00 %
09.08.2022 11:04 16,4 C 65 % 1026,8 hPa 0,0 l/m 9,7 km/h (2 Bft) W-NW 292 0,000 mm 9,8 C 16,4 C 16,1 km/h (3 Bft) 95,65 %
09.08.2022 11:03 16,4 C 65 % 1026,8 hPa 0,0 l/m 6,4 km/h (2 Bft) NW 315 0,000 mm 9,8 C 16,4 C 12,9 km/h (3 Bft) 100,00 %
09.08.2022 11:02 16,4 C 65 % 1026,8 hPa 0,0 l/m 6,4 km/h (2 Bft) NW 315 0,000 mm 9,8 C 16,4 C 11,3 km/h (2 Bft) 95,65 %
09.08.2022 11:01 16,4 C 65 % 1026,8 hPa 0,0 l/m 4,8 km/h (1 Bft) O 90 0,000 mm 9,8 C 16,4 C 9,7 km/h (2 Bft) 100,00 %
09.08.2022 11:00 16,4 C 65 % 1026,8 hPa 0,0 l/m 3,2 km/h (1 Bft) O-NO 67 0,000 mm 9,8 C 16,4 C 4,8 km/h (1 Bft) 100,00 %
09.08.2022 10:59 16,4 C 65 % 1026,9 hPa 0,0 l/m 4,8 km/h (1 Bft) O-NO 67 0,000 mm 9,8 C 16,4 C 6,4 km/h (2 Bft) 100,00 %
09.08.2022 10:58 16,4 C 65 % 1026,8 hPa 0,0 l/m 1,6 km/h (1 Bft) O-SO 112 0,000 mm 9,8 C 16,4 C 3,2 km/h (1 Bft) 100,00 %
09.08.2022 10:57 16,4 C 65 % 1026,9 hPa 0,0 l/m 8,0 km/h (2 Bft) O 90 0,000 mm 9,8 C 16,4 C 12,9 km/h (3 Bft) 100,00 %
09.08.2022 10:56 16,4 C 65 % 1026,9 hPa 0,0 l/m 6,4 km/h (2 Bft) O 90 0,000 mm 9,8 C 16,4 C 11,3 km/h (2 Bft) 100,00 %
09.08.2022 10:55 16,4 C 65 % 1026,9 hPa 0,0 l/m 9,7 km/h (2 Bft) O 90 0,000 mm 9,8 C 16,4 C 16,1 km/h (3 Bft) 95,65 %
09.08.2022 10:54 16,4 C 65 % 1026,8 hPa 0,0 l/m 8,0 km/h (2 Bft) N-NW 337 0,000 mm 9,8 C 16,4 C 12,9 km/h (3 Bft) 100,00 %
09.08.2022 10:53 16,4 C 65 % 1026,8 hPa 0,0 l/m 12,9 km/h (3 Bft) NO 45 0,000 mm 9,8 C 16,4 C 19,3 km/h (3 Bft) 100,00 %
09.08.2022 10:52 16,4 C 65 % 1026,8 hPa 0,0 l/m 6,4 km/h (2 Bft) N 360 0,000 mm 9,8 C 16,4 C 16,1 km/h (3 Bft) 100,00 %
09.08.2022 10:51 16,4 C 65 % 1026,8 hPa 0,0 l/m 4,8 km/h (1 Bft) NW 315 0,000 mm 9,8 C 16,4 C 8,0 km/h (2 Bft) 100,00 %
09.08.2022 10:50 16,4 C 65 % 1026,8 hPa 0,0 l/m 1,6 km/h (1 Bft) N-NO 22 0,000 mm 9,8 C 16,4 C 4,8 km/h (1 Bft) 100,00 %
09.08.2022 10:49 16,4 C 65 % 1026,8 hPa 0,0 l/m 1,6 km/h (1 Bft) N 360 0,000 mm 9,8 C 16,4 C 4,8 km/h (1 Bft) 100,00 %
09.08.2022 10:48 16,4 C 65 % 1026,8 hPa 0,0 l/m 11,3 km/h (2 Bft) N-NO 22 0,000 mm 9,8 C 16,4 C 19,3 km/h (3 Bft) 95,65 %
09.08.2022 10:47 16,4 C 65 % 1026,9 hPa 0,0 l/m 8,0 km/h (2 Bft) N-NO 22 0,000 mm 9,8 C 16,4 C 16,1 km/h (3 Bft) 100,00 %
09.08.2022 10:46 16,4 C 65 % 1026,9 hPa 0,0 l/m 4,8 km/h (1 Bft) NO 45 0,000 mm 9,8 C 16,4 C 9,7 km/h (2 Bft) 100,00 %
09.08.2022 10:45 16,4 C 65 % 1026,8 hPa 0,0 l/m 9,7 km/h (2 Bft) N 360 0,000 mm 9,8 C 16,4 C 14,5 km/h (3 Bft) 100,00 %
09.08.2022 10:44 16,4 C 65 % 1026,8 hPa 0,0 l/m 8,0 km/h (2 Bft) NW 315 0,000 mm 9,8 C 16,4 C 14,5 km/h (3 Bft) 100,00 %
09.08.2022 10:43 16,4 C 65 % 1026,8 hPa 0,0 l/m 11,3 km/h (2 Bft) N-NW 337 0,000 mm 9,8 C 16,4 C 14,5 km/h (3 Bft) 100,00 %
09.08.2022 10:42 16,4 C 65 % 1026,7 hPa 0,0 l/m 9,7 km/h (2 Bft) NO 45 0,000 mm 9,8 C 16,4 C 17,7 km/h (3 Bft) 100,00 %
09.08.2022 10:41 16,4 C 65 % 1026,7 hPa 0,0 l/m 9,7 km/h (2 Bft) W-NW 292 0,000 mm 9,8 C 16,4 C 16,1 km/h (3 Bft) 91,30 %
09.08.2022 10:40 16,4 C 65 % 1026,7 hPa 0,0 l/m 8,0 km/h (2 Bft) NW 315 0,000 mm 9,8 C 16,4 C 12,9 km/h (3 Bft) 100,00 %
09.08.2022 10:39 16,4 C 65 % 1026,6 hPa 0,0 l/m 9,7 km/h (2 Bft) NW 315 0,000 mm 9,8 C 16,4 C 16,1 km/h (3 Bft) 100,00 %
09.08.2022 10:38 16,4 C 65 % 1026,8 hPa 0,0 l/m 8,0 km/h (2 Bft) NO 45 0,000 mm 9,8 C 16,4 C 16,1 km/h (3 Bft) 95,65 %
09.08.2022 10:37 16,4 C 65 % 1026,8 hPa 0,0 l/m 6,4 km/h (2 Bft) NW 315 0,000 mm 9,8 C 16,4 C 12,9 km/h (3 Bft) 100,00 %
09.08.2022 10:36 16,4 C 65 % 1026,8 hPa 0,0 l/m 1,6 km/h (1 Bft) NW 315 0,000 mm 9,8 C 16,4 C 3,2 km/h (1 Bft) 100,00 %
09.08.2022 10:35 16,4 C 65 % 1026,8 hPa 0,0 l/m 4,8 km/h (1 Bft) NO 45 0,000 mm 9,8 C 16,4 C 12,9 km/h (3 Bft) 95,65 %
09.08.2022 10:34 16,4 C 65 % 1026,8 hPa 0,0 l/m 6,4 km/h (2 Bft) NO 45 0,000 mm 9,8 C 16,4 C 9,7 km/h (2 Bft) 95,65 %
09.08.2022 10:33 16,4 C 65 % 1026,8 hPa 0,0 l/m 9,7 km/h (2 Bft) NO 45 0,000 mm 9,8 C 16,4 C 19,3 km/h (3 Bft) 100,00 %
09.08.2022 10:32 16,4 C 65 % 1027,0 hPa 0,0 l/m 4,8 km/h (1 Bft) N-NW 337 0,000 mm 9,8 C 16,4 C 14,5 km/h (3 Bft) 100,00 %
09.08.2022 10:31 16,4 C 65 % 1026,8 hPa 0,0 l/m 8,0 km/h (2 Bft) O-NO 67 0,000 mm 9,8 C 16,4 C 17,7 km/h (3 Bft) 100,00 %
09.08.2022 10:30 16,4 C 65 % 1026,9 hPa 0,0 l/m 8,0 km/h (2 Bft) W-NW 292 0,000 mm 9,8 C 16,4 C 16,1 km/h (3 Bft) 100,00 %
09.08.2022 10:29 16,4 C 65 % 1026,8 hPa 0,0 l/m 4,8 km/h (1 Bft) O-SO 112 0,000 mm 9,8 C 16,4 C 8,0 km/h (2 Bft) 100,00 %
09.08.2022 10:28 16,4 C 65 % 1026,9 hPa 0,0 l/m 6,4 km/h (2 Bft) N-NO 22 0,000 mm 9,8 C 16,4 C 8,0 km/h (2 Bft) 95,65 %
09.08.2022 10:27 16,4 C 65 % 1026,8 hPa 0,0 l/m 6,4 km/h (2 Bft) N 360 0,000 mm 9,8 C 16,4 C 11,3 km/h (2 Bft) 95,65 %
09.08.2022 10:26 16,4 C 65 % 1026,8 hPa 0,0 l/m 8,0 km/h (2 Bft) N-NO 22 0,000 mm 9,8 C 16,4 C 17,7 km/h (3 Bft) 95,65 %
09.08.2022 10:25 16,4 C 65 % 1026,9 hPa 0,0 l/m 9,7 km/h (2 Bft) NO 45 0,000 mm 9,8 C 16,4 C 14,5 km/h (3 Bft) 95,65 %
09.08.2022 10:24 16,4 C 65 % 1026,8 hPa 0,0 l/m 4,8 km/h (1 Bft) O 90 0,000 mm 9,8 C 16,4 C 8,0 km/h (2 Bft) 100,00 %
09.08.2022 10:23 16,4 C 65 % 1026,9 hPa 0,0 l/m 6,4 km/h (2 Bft) O-NO 67 0,000 mm 9,8 C 16,4 C 14,5 km/h (3 Bft) 100,00 %
09.08.2022 10:22 16,4 C 65 % 1026,9 hPa 0,0 l/m 12,9 km/h (3 Bft) N-NO 22 0,000 mm 9,8 C 16,4 C 19,3 km/h (3 Bft) 100,00 %
09.08.2022 10:21 16,4 C 65 % 1026,9 hPa 0,0 l/m 9,7 km/h (2 Bft) N-NW 337 0,000 mm 9,8 C 16,4 C 16,1 km/h (3 Bft) 100,00 %
09.08.2022 10:20 16,4 C 65 % 1026,9 hPa 0,0 l/m 6,4 km/h (2 Bft) NO 45 0,000 mm 9,8 C 16,4 C 8,0 km/h (2 Bft) 95,65 %
09.08.2022 10:19 16,4 C 65 % 1026,9 hPa 0,0 l/m 4,8 km/h (1 Bft) NO 45 0,000 mm 9,8 C 16,4 C 6,4 km/h (2 Bft) 95,65 %
09.08.2022 10:18 16,4 C 65 % 1026,9 hPa 0,0 l/m 8,0 km/h (2 Bft) N-NW 337 0,000 mm 9,8 C 16,4 C 14,5 km/h (3 Bft) 100,00 %
09.08.2022 10:17 16,4 C 65 % 1026,9 hPa 0,0 l/m 6,4 km/h (2 Bft) N 360 0,000 mm 9,8 C 16,4 C 17,7 km/h (3 Bft) 100,00 %
09.08.2022 10:16 16,4 C 65 % 1026,8 hPa 0,0 l/m 9,7 km/h (2 Bft) NO 45 0,000 mm 9,8 C 16,4 C 16,1 km/h (3 Bft) 100,00 %
09.08.2022 10:15 16,4 C 65 % 1026,8 hPa 0,0 l/m 3,2 km/h (1 Bft) N 360 0,000 mm 9,8 C 16,4 C 8,0 km/h (2 Bft) 100,00 %
09.08.2022 10:14 16,4 C 65 % 1026,8 hPa 0,0 l/m 11,3 km/h (2 Bft) NO 45 0,000 mm 9,8 C 16,4 C 19,3 km/h (3 Bft) 100,00 %
09.08.2022 10:13 16,4 C 65 % 1026,8 hPa 0,0 l/m 8,0 km/h (2 Bft) O-NO 67 0,000 mm 9,8 C 16,4 C 12,9 km/h (3 Bft) 100,00 %
09.08.2022 10:12 16,4 C 65 % 1026,8 hPa 0,0 l/m 8,0 km/h (2 Bft) NO 45 0,000 mm 9,8 C 16,4 C 12,9 km/h (3 Bft) 95,65 %
09.08.2022 10:11 16,4 C 65 % 1026,8 hPa 0,0 l/m 8,0 km/h (2 Bft) NO 45 0,000 mm 9,8 C 16,4 C 14,5 km/h (3 Bft) 100,00 %
09.08.2022 10:10 16,4 C 65 % 1026,8 hPa 0,0 l/m 6,4 km/h (2 Bft) O-NO 67 0,000 mm 9,8 C 16,4 C 14,5 km/h (3 Bft) 100,00 %
09.08.2022 10:09 16,4 C 65 % 1026,8 hPa 0,0 l/m 11,3 km/h (2 Bft) N 360 0,000 mm 9,8 C 16,4 C 17,7 km/h (3 Bft) 100,00 %
09.08.2022 10:08 16,4 C 65 % 1026,7 hPa 0,0 l/m 4,8 km/h (1 Bft) N 360 0,000 mm 9,8 C 16,4 C 6,4 km/h (2 Bft) 100,00 %
09.08.2022 10:07 16,4 C 65 % 1026,7 hPa 0,0 l/m 6,4 km/h (2 Bft) O-NO 67 0,000 mm 9,8 C 16,4 C 12,9 km/h (3 Bft) 100,00 %
09.08.2022 10:06 16,4 C 65 % 1026,8 hPa 0,0 l/m 6,4 km/h (2 Bft) NO 45 0,000 mm 9,8 C 16,4 C 9,7 km/h (2 Bft) 100,00 %
09.08.2022 10:05 16,4 C 65 % 1026,8 hPa 0,0 l/m 6,4 km/h (2 Bft) O-SO 112 0,000 mm 9,8 C 16,4 C 12,9 km/h (3 Bft) 95,65 %
09.08.2022 10:04 16,4 C 65 % 1026,8 hPa 0,0 l/m 9,7 km/h (2 Bft) O-NO 67 0,000 mm 9,8 C 16,4 C 12,9 km/h (3 Bft) 100,00 %
09.08.2022 10:03 16,4 C 65 % 1026,9 hPa 0,0 l/m 12,9 km/h (3 Bft) O-NO 67 0,000 mm 9,8 C 16,4 C 16,1 km/h (3 Bft) 95,65 %
09.08.2022 10:02 16,4 C 65 % 1026,8 hPa 0,0 l/m 8,0 km/h (2 Bft) N 360 0,000 mm 9,8 C 16,4 C 19,3 km/h (3 Bft) 100,00 %
09.08.2022 10:01 16,4 C 65 % 1026,9 hPa 0,0 l/m 8,0 km/h (2 Bft) NO 45 0,000 mm 9,8 C 16,4 C 12,9 km/h (3 Bft) 95,65 %
09.08.2022 10:00 16,4 C 65 % 1026,8 hPa 0,0 l/m 8,0 km/h (2 Bft) O 90 0,000 mm 9,8 C 16,4 C 12,9 km/h (3 Bft) 100,00 %
09.08.2022 09:59 16,4 C 65 % 1026,8 hPa 0,0 l/m 3,2 km/h (1 Bft) N-NO 22 0,000 mm 9,8 C 16,4 C 6,4 km/h (2 Bft) 95,65 %
09.08.2022 09:58 16,4 C 68 % 1026,8 hPa 0,0 l/m 4,8 km/h (1 Bft) N-NW 337 0,000 mm 10,5 C 16,4 C 9,7 km/h (2 Bft) 95,65 %
09.08.2022 09:57 16,4 C 68 % 1026,7 hPa 0,0 l/m 4,8 km/h (1 Bft) NO 45 0,000 mm 10,5 C 16,4 C 8,0 km/h (2 Bft) 100,00 %
09.08.2022 09:56 16,4 C 68 % 1026,7 hPa 0,0 l/m 9,7 km/h (2 Bft) O 90 0,000 mm 10,5 C 16,4 C 17,7 km/h (3 Bft) 100,00 %
09.08.2022 09:55 16,5 C 68 % 1026,8 hPa 0,0 l/m 9,7 km/h (2 Bft) O 90 0,000 mm 10,6 C 16,5 C 17,7 km/h (3 Bft) 100,00 %
09.08.2022 09:54 16,5 C 68 % 1026,8 hPa 0,0 l/m 9,7 km/h (2 Bft) NO 45 0,000 mm 10,6 C 16,5 C 17,7 km/h (3 Bft) 100,00 %
09.08.2022 09:53 16,4 C 68 % 1026,7 hPa 0,0 l/m 14,5 km/h (3 Bft) N 360 0,000 mm 10,5 C 16,4 C 20,9 km/h (4 Bft) 100,00 %
09.08.2022 09:52 16,3 C 65 % 1026,7 hPa 0,0 l/m 14,5 km/h (3 Bft) N 360 0,000 mm 9,7 C 16,3 C 20,9 km/h (4 Bft) 100,00 %
09.08.2022 09:51 16,3 C 64 % 1026,6 hPa 0,0 l/m 11,3 km/h (2 Bft) N 360 0,000 mm 9,5 C 16,3 C 19,3 km/h (3 Bft) 95,65 %
09.08.2022 09:50 16,3 C 64 % 1026,7 hPa 0,0 l/m 3,2 km/h (1 Bft) N-NO 22 0,000 mm 9,5 C 16,3 C 6,4 km/h (2 Bft) 100,00 %
09.08.2022 09:49 16,3 C 64 % 1026,6 hPa 0,0 l/m 11,3 km/h (2 Bft) N-NO 22 0,000 mm 9,5 C 16,3 C 16,1 km/h (3 Bft) 100,00 %
09.08.2022 09:48 16,4 C 64 % 1026,6 hPa 0,0 l/m 9,7 km/h (2 Bft) O 90 0,000 mm 9,6 C 16,4 C 16,1 km/h (3 Bft) 100,00 %
09.08.2022 09:47 16,5 C 68 % 1026,6 hPa 0,0 l/m 6,4 km/h (2 Bft) O-NO 67 0,000 mm 10,6 C 16,5 C 12,9 km/h (3 Bft) 100,00 %
09.08.2022 09:46 16,4 C 70 % 1026,7 hPa 0,0 l/m 11,3 km/h (2 Bft) O 90 0,000 mm 10,9 C 16,4 C 19,3 km/h (3 Bft) 100,00 %
09.08.2022 09:45 16,4 C 70 % 1026,7 hPa 0,0 l/m 9,7 km/h (2 Bft) O-SO 112 0,000 mm 10,9 C 16,4 C 14,5 km/h (3 Bft) 100,00 %
09.08.2022 09:44 16,4 C 70 % 1026,7 hPa 0,0 l/m 6,4 km/h (2 Bft) NO 45 0,000 mm 10,9 C 16,4 C 12,9 km/h (3 Bft) 91,30 %
09.08.2022 09:43 16,4 C 66 % 1026,7 hPa 0,0 l/m 1,6 km/h (1 Bft) N-NO 22 0,000 mm 10,0 C 16,4 C 3,2 km/h (1 Bft) 95,65 %
09.08.2022 09:42 16,4 C 66 % 1026,5 hPa 0,0 l/m 3,2 km/h (1 Bft) NO 45 0,000 mm 10,0 C 16,4 C 3,2 km/h (1 Bft) 100,00 %
09.08.2022 09:41 16,4 C 67 % 1026,5 hPa 0,0 l/m 8,0 km/h (2 Bft) NO 45 0,000 mm 10,3 C 16,4 C 11,3 km/h (2 Bft) 100,00 %
09.08.2022 09:40 16,4 C 67 % 1026,7 hPa 0,0 l/m 11,3 km/h (2 Bft) O-NO 67 0,000 mm 10,3 C 16,4 C 14,5 km/h (3 Bft) 100,00 %
09.08.2022 09:39 16,4 C 65 % 1026,5 hPa 0,0 l/m 4,8 km/h (1 Bft) N 360 0,000 mm 9,8 C 16,4 C 6,4 km/h (2 Bft) 95,65 %
09.08.2022 09:38 16,3 C 65 % 1026,5 hPa 0,0 l/m 3,2 km/h (1 Bft) S-SO 157 0,000 mm 9,7 C 16,3 C 6,4 km/h (2 Bft) 100,00 %
09.08.2022 09:37 16,3 C 65 % 1026,5 hPa 0,0 l/m 8,0 km/h (2 Bft) N 360 0,000 mm 9,7 C 16,3 C 12,9 km/h (3 Bft) 95,65 %
09.08.2022 09:36 16,4 C 69 % 1026,5 hPa 0,0 l/m 9,7 km/h (2 Bft) NW 315 0,000 mm 10,7 C 16,4 C 14,5 km/h (3 Bft) 100,00 %
09.08.2022 09:35 16,4 C 69 % 1026,6 hPa 0,0 l/m 9,7 km/h (2 Bft) O-SO 112 0,000 mm 10,7 C 16,4 C 14,5 km/h (3 Bft) 100,00 %
09.08.2022 09:34 16,4 C 69 % 1026,5 hPa 0,0 l/m 6,4 km/h (2 Bft) N-NW 337 0,000 mm 10,7 C 16,4 C 16,1 km/h (3 Bft) 100,00 %
09.08.2022 09:33 16,4 C 68 % 1026,5 hPa 0,0 l/m 6,4 km/h (2 Bft) O-NO 67 0,000 mm 10,5 C 16,4 C 11,3 km/h (2 Bft) 100,00 %
09.08.2022 09:32 16,4 C 69 % 1026,5 hPa 0,0 l/m 4,8 km/h (1 Bft) NO 45 0,000 mm 10,7 C 16,4 C 6,4 km/h (2 Bft) 100,00 %
09.08.2022 09:31 16,3 C 69 % 1026,5 hPa 0,0 l/m 3,2 km/h (1 Bft) NO 45 0,000 mm 10,6 C 16,3 C 4,8 km/h (1 Bft) 95,65 %
09.08.2022 09:30 16,3 C 70 % 1026,5 hPa 0,0 l/m 4,8 km/h (1 Bft) O-SO 112 0,000 mm 10,8 C 16,3 C 6,4 km/h (2 Bft) 95,65 %
09.08.2022 09:29 16,3 C 68 % 1026,5 hPa 0,0 l/m 6,4 km/h (2 Bft) NO 45 0,000 mm 10,4 C 16,3 C 11,3 km/h (2 Bft) 91,30 %
09.08.2022 09:28 16,3 C 67 % 1026,4 hPa 0,0 l/m 9,7 km/h (2 Bft) NO 45 0,000 mm 10,2 C 16,3 C 14,5 km/h (3 Bft) 95,65 %
09.08.2022 09:27 16,4 C 72 % 1026,5 hPa 0,0 l/m 4,8 km/h (1 Bft) N 360 0,000 mm 11,3 C 16,4 C 8,0 km/h (2 Bft) 100,00 %
09.08.2022 09:26 16,4 C 72 % 1026,5 hPa 0,0 l/m 3,2 km/h (1 Bft) NO 45 0,000 mm 11,3 C 16,4 C 8,0 km/h (2 Bft) 100,00 %
09.08.2022 09:25 16,4 C 70 % 1026,5 hPa 0,0 l/m 9,7 km/h (2 Bft) O-NO 67 0,000 mm 10,9 C 16,4 C 14,5 km/h (3 Bft) 100,00 %
09.08.2022 09:24 16,3 C 69 % 1026,5 hPa 0,0 l/m 9,7 km/h (2 Bft) O-SO 112 0,000 mm 10,6 C 16,3 C 14,5 km/h (3 Bft) 100,00 %
09.08.2022 09:23 16,2 C 73 % 1026,5 hPa 0,0 l/m 6,4 km/h (2 Bft) NO 45 0,000 mm 11,4 C 16,2 C 9,7 km/h (2 Bft) 95,65 %
09.08.2022 09:22 16,2 C 73 % 1026,5 hPa 0,0 l/m 3,2 km/h (1 Bft) NO 45 0,000 mm 11,4 C 16,2 C 6,4 km/h (2 Bft) 95,65 %
09.08.2022 09:21 16,0 C 71 % 1026,6 hPa 0,0 l/m 8,0 km/h (2 Bft) N 360 0,000 mm 10,7 C 16,0 C 14,5 km/h (3 Bft) 95,65 %
09.08.2022 09:20 16,0 C 71 % 1026,6 hPa 0,0 l/m 6,4 km/h (2 Bft) N-NO 22 0,000 mm 10,7 C 16,0 C 11,3 km/h (2 Bft) 95,65 %
09.08.2022 09:19 15,9 C 67 % 1026,5 hPa 0,0 l/m 6,4 km/h (2 Bft) N 360 0,000 mm 9,8 C 15,9 C 9,7 km/h (2 Bft) 100,00 %
09.08.2022 09:18 15,8 C 67 % 1026,5 hPa 0,0 l/m 1,6 km/h (1 Bft) O-NO 67 0,000 mm 9,7 C 15,8 C 4,8 km/h (1 Bft) 100,00 %
09.08.2022 09:17 15,7 C 72 % 1026,5 hPa 0,0 l/m 3,2 km/h (1 Bft) N-NW 337 0,000 mm 10,7 C 15,7 C 6,4 km/h (2 Bft) 100,00 %
09.08.2022 09:16 15,7 C 72 % 1026,6 hPa 0,0 l/m 6,4 km/h (2 Bft) N 360 0,000 mm 10,7 C 15,7 C 11,3 km/h (2 Bft) 95,65 %
09.08.2022 09:15 15,7 C 71 % 1026,5 hPa 0,0 l/m 3,2 km/h (1 Bft) N-NW 337 0,000 mm 10,5 C 15,7 C 4,8 km/h (1 Bft) 100,00 %
09.08.2022 09:14 15,6 C 71 % 1026,7 hPa 0,0 l/m 4,8 km/h (1 Bft) N-NO 22 0,000 mm 10,4 C 15,6 C 6,4 km/h (2 Bft) 100,00 %
09.08.2022 09:13 15,7 C 71 % 1026,6 hPa 0,0 l/m 6,4 km/h (2 Bft) O 90 0,000 mm 10,5 C 15,7 C 11,3 km/h (2 Bft) 100,00 %
09.08.2022 09:12 15,6 C 70 % 1026,7 hPa 0,0 l/m 3,2 km/h (1 Bft) N-NO 22 0,000 mm 10,1 C 15,6 C 4,8 km/h (1 Bft) 95,65 %
09.08.2022 09:11 15,6 C 69 % 1026,6 hPa 0,0 l/m 8,0 km/h (2 Bft) NO 45 0,000 mm 9,9 C 15,6 C 12,9 km/h (3 Bft) 100,00 %
09.08.2022 09:10 15,6 C 70 % 1026,7 hPa 0,0 l/m 9,7 km/h (2 Bft) N 360 0,000 mm 10,1 C 15,6 C 16,1 km/h (3 Bft) 95,65 %
09.08.2022 09:09 15,6 C 68 % 1026,6 hPa 0,0 l/m 6,4 km/h (2 Bft) O-NO 67 0,000 mm 9,7 C 15,6 C 9,7 km/h (2 Bft) 95,65 %
09.08.2022 09:08 15,7 C 68 % 1026,6 hPa 0,0 l/m 6,4 km/h (2 Bft) NO 45 0,000 mm 9,8 C 15,7 C 9,7 km/h (2 Bft) 91,30 %
09.08.2022 09:07 15,8 C 71 % 1026,7 hPa 0,0 l/m 9,7 km/h (2 Bft) O 90 0,000 mm 10,6 C 15,8 C 17,7 km/h (3 Bft) 100,00 %
09.08.2022 09:06 15,7 C 72 % 1026,7 hPa 0,0 l/m 6,4 km/h (2 Bft) NO 45 0,000 mm 10,7 C 15,7 C 14,5 km/h (3 Bft) 100,00 %
09.08.2022 09:05 15,6 C 70 % 1026,6 hPa 0,0 l/m 8,0 km/h (2 Bft) NO 45 0,000 mm 10,1 C 15,6 C 24,1 km/h (4 Bft) 100,00 %
09.08.2022 09:04 15,6 C 67 % 1026,7 hPa 0,0 l/m 12,9 km/h (3 Bft) O-NO 67 0,000 mm 9,5 C 15,6 C 24,1 km/h (4 Bft) 100,00 %
09.08.2022 09:03 15,6 C 71 % 1026,6 hPa 0,0 l/m 3,2 km/h (1 Bft) NO 45 0,000 mm 10,4 C 15,6 C 4,8 km/h (1 Bft) 100,00 %
09.08.2022 09:02 15,6 C 71 % 1026,6 hPa 0,0 l/m 6,4 km/h (2 Bft) O 90 0,000 mm 10,4 C 15,6 C 16,1 km/h (3 Bft) 86,96 %
09.08.2022 09:01 15,6 C 71 % 1026,5 hPa 0,0 l/m 6,4 km/h (2 Bft) N 360 0,000 mm 10,4 C 15,6 C 12,9 km/h (3 Bft) 100,00 %
09.08.2022 09:00 15,5 C 69 % 1026,6 hPa 0,0 l/m 3,2 km/h (1 Bft) O 90 0,000 mm 9,8 C 15,5 C 6,4 km/h (2 Bft) 100,00 %
09.08.2022 08:59 15,5 C 69 % 1026,5 hPa 0,0 l/m 3,2 km/h (1 Bft) O-NO 67 0,000 mm 9,8 C 15,5 C 6,4 km/h (2 Bft) 100,00 %
09.08.2022 08:58 15,4 C 71 % 1026,6 hPa 0,0 l/m 3,2 km/h (1 Bft) N 360 0,000 mm 10,2 C 15,4 C 4,8 km/h (1 Bft) 100,00 %
09.08.2022 08:57 15,4 C 69 % 1026,5 hPa 0,0 l/m 1,6 km/h (1 Bft) N 360 0,000 mm 9,7 C 15,4 C 3,2 km/h (1 Bft) 100,00 %
09.08.2022 08:56 15,4 C 69 % 1026,4 hPa 0,0 l/m 6,4 km/h (2 Bft) N 360 0,000 mm 9,7 C 15,4 C 8,0 km/h (2 Bft) 100,00 %
09.08.2022 08:55 15,4 C 68 % 1026,5 hPa 0,0 l/m 6,4 km/h (2 Bft) NO 45 0,000 mm 9,5 C 15,4 C 9,7 km/h (2 Bft) 95,65 %
09.08.2022 08:54 15,4 C 69 % 1026,4 hPa 0,0 l/m 11,3 km/h (2 Bft) NO 45 0,000 mm 9,7 C 15,4 C 16,1 km/h (3 Bft) 100,00 %
09.08.2022 08:53 15,4 C 72 % 1026,4 hPa 0,0 l/m 8,0 km/h (2 Bft) O-NO 67 0,000 mm 10,4 C 15,4 C 14,5 km/h (3 Bft) 100,00 %
09.08.2022 08:52 15,4 C 71 % 1026,4 hPa 0,0 l/m 4,8 km/h (1 Bft) NO 45 0,000 mm 10,2 C 15,4 C 6,4 km/h (2 Bft) 100,00 %
09.08.2022 08:51 15,3 C 70 % 1026,4 hPa 0,0 l/m 8,0 km/h (2 Bft) N 360 0,000 mm 9,9 C 15,3 C 12,9 km/h (3 Bft) 100,00 %
09.08.2022 08:50 15,3 C 70 % 1026,5 hPa 0,0 l/m 1,6 km/h (1 Bft) NO 45 0,000 mm 9,9 C 15,3 C 4,8 km/h (1 Bft) 100,00 %
09.08.2022 08:49 15,3 C 69 % 1026,5 hPa 0,0 l/m 3,2 km/h (1 Bft) S 180 0,000 mm 9,6 C 15,3 C 4,8 km/h (1 Bft) 100,00 %
09.08.2022 08:48 15,4 C 69 % 1026,5 hPa 0,0 l/m 4,8 km/h (1 Bft) N-NO 22 0,000 mm 9,7 C 15,4 C 9,7 km/h (2 Bft) 95,65 %
09.08.2022 08:47 15,4 C 71 % 1026,4 hPa 0,0 l/m 4,8 km/h (1 Bft) O-NO 67 0,000 mm 10,2 C 15,4 C 11,3 km/h (2 Bft) 95,65 %
09.08.2022 08:46 15,4 C 68 % 1026,4 hPa 0,0 l/m 3,2 km/h (1 Bft) W-NW 292 0,000 mm 9,5 C 15,4 C 6,4 km/h (2 Bft) 100,00 %
09.08.2022 08:45 15,4 C 69 % 1026,3 hPa 0,0 l/m 6,4 km/h (2 Bft) N-NO 22 0,000 mm 9,7 C 15,4 C 8,0 km/h (2 Bft) 95,65 %
09.08.2022 08:44 15,4 C 70 % 1026,4 hPa 0,0 l/m 4,8 km/h (1 Bft) N-NO 22 0,000 mm 10,0 C 15,4 C 12,9 km/h (3 Bft) 100,00 %
09.08.2022 08:43 15,3 C 73 % 1026,3 hPa 0,0 l/m 6,4 km/h (2 Bft) O-NO 67 0,000 mm 10,5 C 15,3 C 14,5 km/h (3 Bft) 100,00 %
09.08.2022 08:42 15,3 C 72 % 1026,3 hPa 0,0 l/m 8,0 km/h (2 Bft) O-NO 67 0,000 mm 10,3 C 15,3 C 12,9 km/h (3 Bft) 95,65 %
09.08.2022 08:41 15,3 C 73 % 1026,3 hPa 0,0 l/m 4,8 km/h (1 Bft) O-NO 67 0,000 mm 10,5 C 15,3 C 9,7 km/h (2 Bft) 91,30 %
09.08.2022 08:40 15,2 C 71 % 1026,3 hPa 0,0 l/m 1,6 km/h (1 Bft) NW 315 0,000 mm 10,0 C 15,2 C 3,2 km/h (1 Bft) 100,00 %
09.08.2022 08:39 15,1 C 72 % 1026,3 hPa 0,0 l/m 4,8 km/h (1 Bft) N-NW 337 0,000 mm 10,1 C 15,1 C 6,4 km/h (2 Bft) 100,00 %
09.08.2022 08:38 15,1 C 72 % 1026,3 hPa 0,0 l/m 3,2 km/h (1 Bft) N-NO 22 0,000 mm 10,1 C 15,1 C 4,8 km/h (1 Bft) 100,00 %
09.08.2022 08:37 15,1 C 70 % 1026,3 hPa 0,0 l/m 1,6 km/h (1 Bft) O-NO 67 0,000 mm 9,7 C 15,1 C 4,8 km/h (1 Bft) 100,00 %
09.08.2022 08:36 15,1 C 71 % 1026,4 hPa 0,0 l/m 3,2 km/h (1 Bft) O-NO 67 0,000 mm 9,9 C 15,1 C 6,4 km/h (2 Bft) 100,00 %
09.08.2022 08:35 15,1 C 72 % 1026,3 hPa 0,0 l/m 6,4 km/h (2 Bft) O 90 0,000 mm 10,1 C 15,1 C 12,9 km/h (3 Bft) 100,00 %
09.08.2022 08:34 15,0 C 70 % 1026,3 hPa 0,0 l/m 8,0 km/h (2 Bft) O-NO 67 0,000 mm 9,6 C 15,0 C 14,5 km/h (3 Bft) 95,65 %
09.08.2022 08:33 15,0 C 70 % 1026,3 hPa 0,0 l/m 3,2 km/h (1 Bft) NW 315 0,000 mm 9,6 C 15,0 C 6,4 km/h (2 Bft) 100,00 %
09.08.2022 08:32 14,9 C 72 % 1026,2 hPa 0,0 l/m 3,2 km/h (1 Bft) O-NO 67 0,000 mm 9,9 C 14,9 C 6,4 km/h (2 Bft) 95,65 %
09.08.2022 08:31 14,9 C 73 % 1026,2 hPa 0,0 l/m 4,8 km/h (1 Bft) N-NW 337 0,000 mm 10,1 C 14,9 C 6,4 km/h (2 Bft) 100,00 %
09.08.2022 08:30 14,9 C 69 % 1026,2 hPa 0,0 l/m 1,6 km/h (1 Bft) O-SO 112 0,000 mm 9,3 C 14,9 C 4,8 km/h (1 Bft) 100,00 %
09.08.2022 08:29 14,9 C 71 % 1026,2 hPa 0,0 l/m 4,8 km/h (1 Bft) N-NW 337 0,000 mm 9,7 C 14,9 C 8,0 km/h (2 Bft) 100,00 %
09.08.2022 08:28 14,9 C 71 % 1026,2 hPa 0,0 l/m 8,0 km/h (2 Bft) N-NO 22 0,000 mm 9,7 C 14,9 C 16,1 km/h (3 Bft) 100,00 %
09.08.2022 08:27 14,9 C 70 % 1026,3 hPa 0,0 l/m 4,8 km/h (1 Bft) NO 45 0,000 mm 9,5 C 14,9 C 6,4 km/h (2 Bft) 95,65 %
09.08.2022 08:26 14,9 C 73 % 1026,3 hPa 0,0 l/m 3,2 km/h (1 Bft) N-NO 22 0,000 mm 10,1 C 14,9 C 4,8 km/h (1 Bft) 100,00 %
09.08.2022 08:25 14,9 C 73 % 1026,3 hPa 0,0 l/m 8,0 km/h (2 Bft) NO 45 0,000 mm 10,1 C 14,9 C 9,7 km/h (2 Bft) 100,00 %
09.08.2022 08:24 14,9 C 71 % 1026,4 hPa 0,0 l/m 4,8 km/h (1 Bft) O 90 0,000 mm 9,7 C 14,9 C 9,7 km/h (2 Bft) 100,00 %
09.08.2022 08:23 14,8 C 74 % 1026,4 hPa 0,0 l/m 6,4 km/h (2 Bft) N-NW 337 0,000 mm 10,2 C 14,8 C 9,7 km/h (2 Bft) 100,00 %
09.08.2022 08:22 14,8 C 72 % 1026,4 hPa 0,0 l/m 1,6 km/h (1 Bft) NO 45 0,000 mm 9,8 C 14,8 C 4,8 km/h (1 Bft) 100,00 %
09.08.2022 08:21 14,8 C 73 % 1026,4 hPa 0,0 l/m 6,4 km/h (2 Bft) O 90 0,000 mm 10,0 C 14,8 C 11,3 km/h (2 Bft) 100,00 %
09.08.2022 08:20 14,8 C 75 % 1026,5 hPa 0,0 l/m 6,4 km/h (2 Bft) N-NW 337 0,000 mm 10,4 C 14,8 C 9,7 km/h (2 Bft) 100,00 %
09.08.2022 08:19 14,7 C 73 % 1026,3 hPa 0,0 l/m 4,8 km/h (1 Bft) N-NO 22 0,000 mm 9,9 C 14,7 C 6,4 km/h (2 Bft) 95,65 %
09.08.2022 08:18 14,7 C 73 % 1026,4 hPa 0,0 l/m 3,2 km/h (1 Bft) NW 315 0,000 mm 9,9 C 14,7 C 4,8 km/h (1 Bft) 100,00 %
09.08.2022 08:17 14,7 C 72 % 1026,3 hPa 0,0 l/m 4,8 km/h (1 Bft) NO 45 0,000 mm 9,7 C 14,7 C 12,9 km/h (3 Bft) 100,00 %
09.08.2022 08:16 14,7 C 75 % 1026,3 hPa 0,0 l/m 6,4 km/h (2 Bft) O-NO 67 0,000 mm 10,3 C 14,7 C 14,5 km/h (3 Bft) 100,00 %
09.08.2022 08:15 14,7 C 74 % 1026,4 hPa 0,0 l/m 4,8 km/h (1 Bft) NO 45 0,000 mm 10,1 C 14,7 C 16,1 km/h (3 Bft) 100,00 %
09.08.2022 08:14 14,7 C 74 % 1026,3 hPa 0,0 l/m 9,7 km/h (2 Bft) N-NO 22 0,000 mm 10,1 C 14,7 C 12,9 km/h (3 Bft) 100,00 %
09.08.2022 08:13 14,6 C 74 % 1026,2 hPa 0,0 l/m 8,0 km/h (2 Bft) O 90 0,000 mm 10,0 C 14,6 C 16,1 km/h (3 Bft) 100,00 %
09.08.2022 08:12 14,6 C 74 % 1026,1 hPa 0,0 l/m 4,8 km/h (1 Bft) O-NO 67 0,000 mm 10,0 C 14,6 C 8,0 km/h (2 Bft) 95,65 %
09.08.2022 08:11 14,7 C 75 % 1026,2 hPa 0,0 l/m 6,4 km/h (2 Bft) NO 45 0,000 mm 10,3 C 14,7 C 8,0 km/h (2 Bft) 100,00 %
09.08.2022 08:10 14,6 C 75 % 1026,1 hPa 0,0 l/m 4,8 km/h (1 Bft) N 360 0,000 mm 10,2 C 14,6 C 9,7 km/h (2 Bft) 100,00 %
09.08.2022 08:09 14,6 C 77 % 1026,2 hPa 0,0 l/m 4,8 km/h (1 Bft) N-NW 337 0,000 mm 10,6 C 14,6 C 6,4 km/h (2 Bft) 100,00 %
09.08.2022 08:08 14,6 C 78 % 1026,1 hPa 0,0 l/m 1,6 km/h (1 Bft) N-NO 22 0,000 mm 10,8 C 14,6 C 4,8 km/h (1 Bft) 95,65 %
09.08.2022 08:07 14,6 C 77 % 1026,0 hPa 0,0 l/m 4,8 km/h (1 Bft) N-NO 22 0,000 mm 10,6 C 14,6 C 8,0 km/h (2 Bft) 100,00 %
09.08.2022 08:06 14,6 C 74 % 1026,2 hPa 0,0 l/m 3,2 km/h (1 Bft) N-NO 22 0,000 mm 10,0 C 14,6 C 3,2 km/h (1 Bft) 100,00 %
09.08.2022 08:05 14,6 C 78 % 1026,2 hPa 0,0 l/m 8,0 km/h (2 Bft) N 360 0,000 mm 10,8 C 14,6 C 11,3 km/h (2 Bft) 95,65 %
09.08.2022 08:04 14,5 C 77 % 1026,1 hPa 0,0 l/m 4,8 km/h (1 Bft) N-NW 337 0,000 mm 10,5 C 14,5 C 8,0 km/h (2 Bft) 100,00 %
09.08.2022 08:03 14,6 C 76 % 1026,2 hPa 0,0 l/m 1,6 km/h (1 Bft) N 360 0,000 mm 10,4 C 14,6 C 4,8 km/h (1 Bft) 91,30 %
09.08.2022 08:02 14,4 C 76 % 1026,2 hPa 0,0 l/m 6,4 km/h (2 Bft) NO 45 0,000 mm 10,2 C 14,4 C 8,0 km/h (2 Bft) 100,00 %
09.08.2022 08:01 14,4 C 78 % 1026,3 hPa 0,0 l/m 4,8 km/h (1 Bft) N-NW 337 0,000 mm 10,6 C 14,4 C 8,0 km/h (2 Bft) 100,00 %
09.08.2022 08:00 14,4 C 77 % 1026,3 hPa 0,0 l/m 3,2 km/h (1 Bft) N-NO 22 0,000 mm 10,4 C 14,4 C 8,0 km/h (2 Bft) 100,00 %
09.08.2022 07:59 14,3 C 77 % 1026,4 hPa 0,0 l/m 3,2 km/h (1 Bft) N-NO 22 0,000 mm 10,3 C 14,3 C 4,8 km/h (1 Bft) 100,00 %
09.08.2022 07:58 14,4 C 76 % 1026,3 hPa 0,0 l/m 3,2 km/h (1 Bft) N 360 0,000 mm 10,2 C 14,4 C 12,9 km/h (3 Bft) 95,65 %
09.08.2022 07:57 14,3 C 77 % 1026,3 hPa 0,0 l/m 6,4 km/h (2 Bft) O-NO 67 0,000 mm 10,3 C 14,3 C 9,7 km/h (2 Bft) 95,65 %
09.08.2022 07:56 14,3 C 79 % 1026,3 hPa 0,0 l/m 4,8 km/h (1 Bft) N-NW 337 0,000 mm 10,7 C 14,3 C 12,9 km/h (3 Bft) 100,00 %
09.08.2022 07:55 14,2 C 78 % 1026,3 hPa 0,0 l/m 3,2 km/h (1 Bft) N-NW 337 0,000 mm 10,4 C 14,2 C 11,3 km/h (2 Bft) 100,00 %
09.08.2022 07:54 14,2 C 81 % 1026,2 hPa 0,0 l/m 1,6 km/h (1 Bft) NW 315 0,000 mm 11,0 C 14,2 C 3,2 km/h (1 Bft) 95,65 %
09.08.2022 07:53 14,1 C 79 % 1026,2 hPa 0,0 l/m 1,6 km/h (1 Bft) N 360 0,000 mm 10,5 C 14,1 C 6,4 km/h (2 Bft) 100,00 %
09.08.2022 07:52 13,9 C 83 % 1026,2 hPa 0,0 l/m 4,8 km/h (1 Bft) N 360 0,000 mm 11,1 C 13,9 C 6,4 km/h (2 Bft) 100,00 %
09.08.2022 07:51 13,9 C 83 % 1026,2 hPa 0,0 l/m 4,8 km/h (1 Bft) N-NW 337 0,000 mm 11,1 C 13,9 C 8,0 km/h (2 Bft) 86,96 %
09.08.2022 07:50 13,8 C 84 % 1026,1 hPa 0,0 l/m 3,2 km/h (1 Bft) N 360 0,000 mm 11,1 C 13,8 C 4,8 km/h (1 Bft) 100,00 %
09.08.2022 07:49 13,7 C 83 % 1026,2 hPa 0,0 l/m 3,2 km/h (1 Bft) NW 315 0,000 mm 10,9 C 13,7 C 6,4 km/h (2 Bft) 100,00 %
09.08.2022 07:48 13,6 C 85 % 1026,2 hPa 0,0 l/m 1,6 km/h (1 Bft) O-NO 67 0,000 mm 11,1 C 13,6 C 3,2 km/h (1 Bft) 95,65 %
09.08.2022 07:47 13,4 C 82 % 1026,2 hPa 0,0 l/m 0,0 km/h (0 Bft) NO 45 0,000 mm 10,4 C 13,4 C 1,6 km/h (1 Bft) 95,65 %
09.08.2022 07:46 13,2 C 85 % 1026,1 hPa 0,0 l/m 0,0 km/h (0 Bft) NO 45 0,000 mm 10,7 C 13,2 C 1,6 km/h (1 Bft) 100,00 %
09.08.2022 07:45 13,2 C 87 % 1026,1 hPa 0,0 l/m 0,0 km/h (0 Bft) NO 45 0,000 mm 11,1 C 13,2 C 3,2 km/h (1 Bft) 100,00 %
09.08.2022 07:44 13,2 C 86 % 1026,1 hPa 0,0 l/m 0,0 km/h (0 Bft) NO 45 0,000 mm 10,9 C 13,2 C 1,6 km/h (1 Bft) 95,65 %
09.08.2022 07:43 13,1 C 85 % 1026,1 hPa 0,0 l/m 0,0 km/h (0 Bft) NO 45 0,000 mm 10,6 C 13,1 C 1,6 km/h (1 Bft) 100,00 %
09.08.2022 07:42 12,8 C 85 % 1026,2 hPa 0,0 l/m 0,0 km/h (0 Bft) NO 45 0,000 mm 10,3 C 12,8 C 1,6 km/h (1 Bft) 95,65 %
09.08.2022 07:41 12,8 C 86 % 1026,1 hPa 0,0 l/m 3,2 km/h (1 Bft) NO 45 0,000 mm 10,5 C 12,8 C 4,8 km/h (1 Bft) 95,65 %
09.08.2022 07:40 12,7 C 86 % 1026,0 hPa 0,0 l/m 0,0 km/h (0 Bft) N-NO 22 0,000 mm 10,4 C 12,7 C 1,6 km/h (1 Bft) 100,00 %
09.08.2022 07:39 12,7 C 88 % 1026,1 hPa 0,0 l/m 0,0 km/h (0 Bft) N-NO 22 0,000 mm 10,8 C 12,7 C 1,6 km/h (1 Bft) 95,65 %
09.08.2022 07:38 12,6 C 88 % 1026,1 hPa 0,0 l/m 0,0 km/h (0 Bft) N-NO 22 0,000 mm 10,7 C 12,6 C 1,6 km/h (1 Bft) 100,00 %
09.08.2022 07:37 12,3 C 89 % 1026,1 hPa 0,0 l/m 0,0 km/h (0 Bft) N 0 0,000 mm 10,5 C 12,3 C 0,0 km/h (0 Bft) 95,65 %
09.08.2022 07:36 12,1 C 89 % 1026,1 hPa 0,0 l/m 1,6 km/h (1 Bft) N-NO 22 0,000 mm 10,3 C 12,1 C 3,2 km/h (1 Bft) 100,00 %
09.08.2022 07:35 11,9 C 89 % 1026,0 hPa 0,0 l/m 1,6 km/h (1 Bft) N-NO 22 0,000 mm 10,1 C 11,9 C 3,2 km/h (1 Bft) 100,00 %
09.08.2022 07:34 11,8 C 89 % 1026,1 hPa 0,0 l/m 0,0 km/h (0 Bft) NO 45 0,000 mm 10,0 C 11,8 C 1,6 km/h (1 Bft) 100,00 %
09.08.2022 07:33 11,8 C 90 % 1026,0 hPa 0,0 l/m 1,6 km/h (1 Bft) O-NO 67 0,000 mm 10,2 C 11,8 C 1,6 km/h (1 Bft) 100,00 %
09.08.2022 07:32 11,7 C 89 % 1026,0 hPa 0,0 l/m 1,6 km/h (1 Bft) O-NO 67 0,000 mm 9,9 C 11,7 C 3,2 km/h (1 Bft) 100,00 %
09.08.2022 07:31 11,7 C 88 % 1026,0 hPa 0,0 l/m 1,6 km/h (1 Bft) O-NO 67 0,000 mm 9,8 C 11,7 C 3,2 km/h (1 Bft) 95,65 %
09.08.2022 07:30 11,7 C 88 % 1026,0 hPa 0,0 l/m 1,6 km/h (1 Bft) NO 45 0,000 mm 9,8 C 11,7 C 3,2 km/h (1 Bft) 95,65 %
09.08.2022 07:29 11,7 C 88 % 1026,1 hPa 0,0 l/m 1,6 km/h (1 Bft) NO 45 0,000 mm 9,8 C 11,7 C 3,2 km/h (1 Bft) 100,00 %
09.08.2022 07:28 11,7 C 87 % 1026,1 hPa 0,0 l/m 3,2 km/h (1 Bft) NO 45 0,000 mm 9,6 C 11,7 C 4,8 km/h (1 Bft) 91,30 %
09.08.2022 07:27 11,7 C 89 % 1026,1 hPa 0,0 l/m 1,6 km/h (1 Bft) O-NO 67 0,000 mm 9,9 C 11,7 C 3,2 km/h (1 Bft) 100,00 %
09.08.2022 07:26 11,5 C 90 % 1026,1 hPa 0,0 l/m 3,2 km/h (1 Bft) NO 45 0,000 mm 9,9 C 11,5 C 3,2 km/h (1 Bft) 95,65 %
09.08.2022 07:25 11,4 C 90 % 1026,1 hPa 0,0 l/m 1,6 km/h (1 Bft) O-NO 67 0,000 mm 9,8 C 11,4 C 3,2 km/h (1 Bft) 100,00 %
09.08.2022 07:24 11,4 C 90 % 1026,1 hPa 0,0 l/m 1,6 km/h (1 Bft) O-NO 67 0,000 mm 9,8 C 11,4 C 3,2 km/h (1 Bft) 100,00 %
09.08.2022 07:23 11,3 C 89 % 1026,0 hPa 0,0 l/m 3,2 km/h (1 Bft) NO 45 0,000 mm 9,6 C 11,3 C 4,8 km/h (1 Bft) 95,65 %
09.08.2022 07:22 11,2 C 90 % 1026,1 hPa 0,0 l/m 1,6 km/h (1 Bft) NO 45 0,000 mm 9,6 C 11,2 C 3,2 km/h (1 Bft) 100,00 %
09.08.2022 07:21 11,2 C 90 % 1026,1 hPa 0,0 l/m 1,6 km/h (1 Bft) NO 45 0,000 mm 9,6 C 11,2 C 4,8 km/h (1 Bft) 100,00 %
09.08.2022 07:20 11,2 C 90 % 1026,1 hPa 0,0 l/m 3,2 km/h (1 Bft) NO 45 0,000 mm 9,6 C 11,2 C 4,8 km/h (1 Bft) 100,00 %
09.08.2022 07:19 11,2 C 90 % 1026,1 hPa 0,0 l/m 3,2 km/h (1 Bft) NO 45 0,000 mm 9,6 C 11,2 C 3,2 km/h (1 Bft) 100,00 %
09.08.2022 07:18 11,3 C 88 % 1026,1 hPa 0,0 l/m 3,2 km/h (1 Bft) NO 45 0,000 mm 9,4 C 11,3 C 4,8 km/h (1 Bft) 100,00 %
09.08.2022 07:17 11,2 C 89 % 1026,1 hPa 0,0 l/m 3,2 km/h (1 Bft) NO 45 0,000 mm 9,5 C 11,2 C 4,8 km/h (1 Bft) 100,00 %
09.08.2022 07:16 11,1 C 89 % 1026,0 hPa 0,0 l/m 3,2 km/h (1 Bft) NO 45 0,000 mm 9,4 C 11,1 C 4,8 km/h (1 Bft) 95,65 %
09.08.2022 07:15 10,9 C 90 % 1026,0 hPa 0,0 l/m 3,2 km/h (1 Bft) NO 45 0,000 mm 9,3 C 10,9 C 3,2 km/h (1 Bft) 95,65 %
09.08.2022 07:14 10,7 C 91 % 1026,0 hPa 0,0 l/m 1,6 km/h (1 Bft) NO 45 0,000 mm 9,3 C 10,7 C 3,2 km/h (1 Bft) 100,00 %
09.08.2022 07:13 10,6 C 92 % 1026,1 hPa 0,0 l/m 1,6 km/h (1 Bft) NO 45 0,000 mm 9,4 C 10,6 C 3,2 km/h (1 Bft) 100,00 %
09.08.2022 07:12 10,4 C 92 % 1026,0 hPa 0,0 l/m 1,6 km/h (1 Bft) NO 45 0,000 mm 9,2 C 10,4 C 3,2 km/h (1 Bft) 100,00 %
09.08.2022 07:11 10,3 C 91 % 1026,0 hPa 0,0 l/m 3,2 km/h (1 Bft) NO 45 0,000 mm 8,9 C 10,3 C 4,8 km/h (1 Bft) 100,00 %
09.08.2022 07:10 10,2 C 92 % 1025,9 hPa 0,0 l/m 3,2 km/h (1 Bft) NO 45 0,000 mm 9,0 C 10,2 C 4,8 km/h (1 Bft) 100,00 %
09.08.2022 07:09 10,1 C 93 % 1025,9 hPa 0,0 l/m 3,2 km/h (1 Bft) NO 45 0,000 mm 9,0 C 10,1 C 4,8 km/h (1 Bft) 95,65 %
09.08.2022 07:08 9,9 C 93 % 1025,9 hPa 0,0 l/m 3,2 km/h (1 Bft) NO 45 0,000 mm 8,8 C 9,9 C 4,8 km/h (1 Bft) 100,00 %
09.08.2022 07:07 9,7 C 94 % 1025,9 hPa 0,0 l/m 3,2 km/h (1 Bft) NO 45 0,000 mm 8,8 C 9,7 C 3,2 km/h (1 Bft) 100,00 %
09.08.2022 07:06 9,4 C 94 % 1025,9 hPa 0,0 l/m 3,2 km/h (1 Bft) NO 45 0,000 mm 8,5 C 9,4 C 4,8 km/h (1 Bft) 100,00 %
09.08.2022 07:05 9,2 C 94 % 1025,9 hPa 0,0 l/m 3,2 km/h (1 Bft) NO 45 0,000 mm 8,3 C 9,2 C 4,8 km/h (1 Bft) 100,00 %
09.08.2022 07:04 9,1 C 94 % 1025,9 hPa 0,0 l/m 4,8 km/h (1 Bft) NO 45 0,000 mm 8,2 C 8,8 C 4,8 km/h (1 Bft) 100,00 %
09.08.2022 07:03 8,9 C 94 % 1025,9 hPa 0,0 l/m 3,2 km/h (1 Bft) O-NO 67 0,000 mm 8,0 C 8,9 C 4,8 km/h (1 Bft) 100,00 %
09.08.2022 07:02 8,8 C 94 % 1025,8 hPa 0,0 l/m 3,2 km/h (1 Bft) O-NO 67 0,000 mm 7,9 C 8,8 C 4,8 km/h (1 Bft) 95,65 %
09.08.2022 07:01 8,7 C 95 % 1025,9 hPa 0,0 l/m 3,2 km/h (1 Bft) O-NO 67 0,000 mm 7,9 C 8,7 C 4,8 km/h (1 Bft) 100,00 %
09.08.2022 07:00 8,6 C 95 % 1025,8 hPa 0,0 l/m 3,2 km/h (1 Bft) O-NO 67 0,000 mm 7,8 C 8,6 C 4,8 km/h (1 Bft) 100,00 %
09.08.2022 06:59 8,4 C 94 % 1025,8 hPa 0,0 l/m 3,2 km/h (1 Bft) O-NO 67 0,000 mm 7,5 C 8,4 C 4,8 km/h (1 Bft) 95,65 %
09.08.2022 06:58 8,4 C 94 % 1025,8 hPa 0,0 l/m 3,2 km/h (1 Bft) O-NO 67 0,000 mm 7,5 C 8,4 C 4,8 km/h (1 Bft) 100,00 %
09.08.2022 06:57 8,4 C 94 % 1025,8 hPa 0,0 l/m 3,2 km/h (1 Bft) O-NO 67 0,000 mm 7,5 C 8,4 C 4,8 km/h (1 Bft) 95,65 %
09.08.2022 06:56 8,3 C 95 % 1025,8 hPa 0,0 l/m 3,2 km/h (1 Bft) O-NO 67 0,000 mm 7,5 C 8,3 C 4,8 km/h (1 Bft) 100,00 %
09.08.2022 06:55 8,3 C 95 % 1025,9 hPa 0,0 l/m 3,2 km/h (1 Bft) NO 45 0,000 mm 7,5 C 8,3 C 4,8 km/h (1 Bft) 95,65 %
09.08.2022 06:54 8,2 C 94 % 1025,8 hPa 0,0 l/m 3,2 km/h (1 Bft) NO 45 0,000 mm 7,3 C 8,2 C 4,8 km/h (1 Bft) 95,65 %
09.08.2022 06:53 8,2 C 94 % 1025,7 hPa 0,0 l/m 4,8 km/h (1 Bft) NO 45 0,000 mm 7,3 C 7,8 C 4,8 km/h (1 Bft) 100,00 %
09.08.2022 06:52 8,2 C 94 % 1025,9 hPa 0,0 l/m 4,8 km/h (1 Bft) NO 45 0,000 mm 7,3 C 7,8 C 4,8 km/h (1 Bft) 95,65 %
09.08.2022 06:51 8,1 C 94 % 1025,8 hPa 0,0 l/m 3,2 km/h (1 Bft) NO 45 0,000 mm 7,2 C 8,1 C 4,8 km/h (1 Bft) 100,00 %
09.08.2022 06:50 8,1 C 94 % 1025,8 hPa 0,0 l/m 4,8 km/h (1 Bft) NO 45 0,000 mm 7,2 C 7,7 C 4,8 km/h (1 Bft) 100,00 %
09.08.2022 06:49 8,1 C 95 % 1025,7 hPa 0,0 l/m 3,2 km/h (1 Bft) NO 45 0,000 mm 7,3 C 8,1 C 4,8 km/h (1 Bft) 100,00 %
09.08.2022 06:48 8,0 C 95 % 1025,8 hPa 0,0 l/m 3,2 km/h (1 Bft) NO 45 0,000 mm 7,2 C 8,0 C 4,8 km/h (1 Bft) 95,65 %
09.08.2022 06:47 7,9 C 95 % 1025,8 hPa 0,0 l/m 3,2 km/h (1 Bft) NO 45 0,000 mm 7,1 C 7,9 C 4,8 km/h (1 Bft) 100,00 %
09.08.2022 06:46 7,8 C 95 % 1025,8 hPa 0,0 l/m 3,2 km/h (1 Bft) NO 45 0,000 mm 7,0 C 7,8 C 4,8 km/h (1 Bft) 100,00 %
09.08.2022 06:45 7,8 C 95 % 1025,8 hPa 0,0 l/m 4,8 km/h (1 Bft) NO 45 0,000 mm 7,0 C 7,3 C 6,4 km/h (2 Bft) 100,00 %
09.08.2022 06:44 7,8 C 95 % 1025,8 hPa 0,0 l/m 4,8 km/h (1 Bft) NO 45 0,000 mm 7,0 C 7,3 C 4,8 km/h (1 Bft) 95,65 %
09.08.2022 06:43 7,8 C 95 % 1025,8 hPa 0,0 l/m 4,8 km/h (1 Bft) NO 45 0,000 mm 7,0 C 7,3 C 4,8 km/h (1 Bft) 100,00 %
09.08.2022 06:42 7,8 C 95 % 1025,8 hPa 0,0 l/m 4,8 km/h (1 Bft) NO 45 0,000 mm 7,0 C 7,3 C 6,4 km/h (2 Bft) 100,00 %
09.08.2022 06:41 7,7 C 96 % 1025,8 hPa 0,0 l/m 4,8 km/h (1 Bft) NO 45 0,000 mm 7,1 C 7,2 C 6,4 km/h (2 Bft) 86,96 %
09.08.2022 06:40 7,7 C 96 % 1025,8 hPa 0,0 l/m 4,8 km/h (1 Bft) NO 45 0,000 mm 7,1 C 7,2 C 6,4 km/h (2 Bft) 100,00 %
09.08.2022 06:39 7,6 C 96 % 1025,9 hPa 0,0 l/m 4,8 km/h (1 Bft) NO 45 0,000 mm 7,0 C 7,1 C 6,4 km/h (2 Bft) 100,00 %
09.08.2022 06:38 7,6 C 96 % 1025,9 hPa 0,0 l/m 4,8 km/h (1 Bft) NO 45 0,000 mm 7,0 C 7,1 C 6,4 km/h (2 Bft) 95,65 %
09.08.2022 06:37 7,4 C 96 % 1025,8 hPa 0,0 l/m 4,8 km/h (1 Bft) NO 45 0,000 mm 6,8 C 6,9 C 6,4 km/h (2 Bft) 100,00 %
09.08.2022 06:36 7,3 C 96 % 1025,9 hPa 0,0 l/m 4,8 km/h (1 Bft) NO 45 0,000 mm 6,7 C 6,8 C 4,8 km/h (1 Bft) 100,00 %
09.08.2022 06:35 7,1 C 96 % 1025,8 hPa 0,0 l/m 4,8 km/h (1 Bft) NO 45 0,000 mm 6,5 C 6,5 C 6,4 km/h (2 Bft) 95,65 %
09.08.2022 06:34 6,8 C 95 % 1025,8 hPa 0,0 l/m 3,2 km/h (1 Bft) NO 45 0,000 mm 6,1 C 6,8 C 4,8 km/h (1 Bft) 95,65 %
09.08.2022 06:33 6,6 C 95 % 1025,9 hPa 0,0 l/m 4,8 km/h (1 Bft) NO 45 0,000 mm 5,9 C 6,0 C 4,8 km/h (1 Bft) 100,00 %
09.08.2022 06:32 6,6 C 95 % 1025,8 hPa 0,0 l/m 3,2 km/h (1 Bft) NO 45 0,000 mm 5,9 C 6,6 C 4,8 km/h (1 Bft) 100,00 %
09.08.2022 06:31 6,6 C 95 % 1025,8 hPa 0,0 l/m 3,2 km/h (1 Bft) NO 45 0,000 mm 5,9 C 6,6 C 3,2 km/h (1 Bft) 95,65 %
09.08.2022 06:30 6,6 C 95 % 1025,9 hPa 0,0 l/m 3,2 km/h (1 Bft) NO 45 0,000 mm 5,9 C 6,6 C 3,2 km/h (1 Bft) 95,65 %
09.08.2022 06:29 6,6 C 95 % 1025,8 hPa 0,0 l/m 1,6 km/h (1 Bft) NO 45 0,000 mm 5,9 C 6,6 C 4,8 km/h (1 Bft) 100,00 %
09.08.2022 06:28 6,7 C 95 % 1025,8 hPa 0,0 l/m 1,6 km/h (1 Bft) NO 45 0,000 mm 6,0 C 6,7 C 3,2 km/h (1 Bft) 100,00 %
09.08.2022 06:27 6,6 C 95 % 1025,8 hPa 0,0 l/m 1,6 km/h (1 Bft) NO 45 0,000 mm 5,9 C 6,6 C 3,2 km/h (1 Bft) 95,65 %
09.08.2022 06:26 6,6 C 95 % 1025,8 hPa 0,0 l/m 1,6 km/h (1 Bft) NO 45 0,000 mm 5,9 C 6,6 C 3,2 km/h (1 Bft) 95,65 %
09.08.2022 06:25 6,6 C 95 % 1025,8 hPa 0,0 l/m 1,6 km/h (1 Bft) NO 45 0,000 mm 5,9 C 6,6 C 3,2 km/h (1 Bft) 100,00 %
09.08.2022 06:24 6,5 C 95 % 1025,8 hPa 0,0 l/m 1,6 km/h (1 Bft) NO 45 0,000 mm 5,8 C 6,5 C 3,2 km/h (1 Bft) 100,00 %
09.08.2022 06:23 6,4 C 95 % 1025,8 hPa 0,0 l/m 1,6 km/h (1 Bft) NO 45 0,000 mm 5,7 C 6,4 C 3,2 km/h (1 Bft) 100,00 %
09.08.2022 06:22 6,4 C 95 % 1025,8 hPa 0,0 l/m 1,6 km/h (1 Bft) NO 45 0,000 mm 5,7 C 6,4 C 3,2 km/h (1 Bft) 100,00 %
09.08.2022 06:21 6,4 C 95 % 1025,8 hPa 0,0 l/m 1,6 km/h (1 Bft) NO 45 0,000 mm 5,7 C 6,4 C 3,2 km/h (1 Bft) 100,00 %
09.08.2022 06:20 6,4 C 95 % 1025,8 hPa 0,0 l/m 1,6 km/h (1 Bft) NO 45 0,000 mm 5,7 C 6,4 C 3,2 km/h (1 Bft) 95,65 %
09.08.2022 06:19 6,4 C 95 % 1025,8 hPa 0,0 l/m 1,6 km/h (1 Bft) NO 45 0,000 mm 5,7 C 6,4 C 3,2 km/h (1 Bft) 100,00 %
09.08.2022 06:18 6,4 C 95 % 1025,8 hPa 0,0 l/m 1,6 km/h (1 Bft) NO 45 0,000 mm 5,7 C 6,4 C 3,2 km/h (1 Bft) 95,65 %
09.08.2022 06:17 6,4 C 95 % 1025,8 hPa 0,0 l/m 1,6 km/h (1 Bft) NO 45 0,000 mm 5,7 C 6,4 C 3,2 km/h (1 Bft) 100,00 %
09.08.2022 06:16 6,4 C 95 % 1025,8 hPa 0,0 l/m 1,6 km/h (1 Bft) NO 45 0,000 mm 5,7 C 6,4 C 3,2 km/h (1 Bft) 100,00 %
09.08.2022 06:15 6,4 C 95 % 1025,7 hPa 0,0 l/m 1,6 km/h (1 Bft) NO 45 0,000 mm 5,7 C 6,4 C 3,2 km/h (1 Bft) 100,00 %
09.08.2022 06:14 6,4 C 95 % 1025,7 hPa 0,0 l/m 1,6 km/h (1 Bft) NO 45 0,000 mm 5,7 C 6,4 C 3,2 km/h (1 Bft) 100,00 %
09.08.2022 06:13 6,4 C 95 % 1025,7 hPa 0,0 l/m 1,6 km/h (1 Bft) NO 45 0,000 mm 5,7 C 6,4 C 3,2 km/h (1 Bft) 95,65 %
09.08.2022 06:12 6,4 C 95 % 1025,8 hPa 0,0 l/m 1,6 km/h (1 Bft) NO 45 0,000 mm 5,7 C 6,4 C 1,6 km/h (1 Bft) 100,00 %
09.08.2022 06:11 6,4 C 95 % 1025,7 hPa 0,0 l/m 1,6 km/h (1 Bft) NO 45 0,000 mm 5,7 C 6,4 C 1,6 km/h (1 Bft) 100,00 %
09.08.2022 06:10 6,4 C 96 % 1025,7 hPa 0,0 l/m 1,6 km/h (1 Bft) NO 45 0,000 mm 5,8 C 6,4 C 3,2 km/h (1 Bft) 91,30 %
09.08.2022 06:09 6,4 C 96 % 1025,7 hPa 0,0 l/m 1,6 km/h (1 Bft) NO 45 0,000 mm 5,8 C 6,4 C 3,2 km/h (1 Bft) 100,00 %
09.08.2022 06:08 6,3 C 96 % 1025,7 hPa 0,0 l/m 1,6 km/h (1 Bft) NO 45 0,000 mm 5,7 C 6,3 C 3,2 km/h (1 Bft) 100,00 %
09.08.2022 06:07 6,2 C 95 % 1025,7 hPa 0,0 l/m 0,0 km/h (0 Bft) NO 45 0,000 mm 5,5 C 6,2 C 1,6 km/h (1 Bft) 91,30 %
09.08.2022 06:06 6,1 C 95 % 1025,7 hPa 0,0 l/m 1,6 km/h (1 Bft) NO 45 0,000 mm 5,4 C 6,1 C 1,6 km/h (1 Bft) 100,00 %
09.08.2022 06:05 6,1 C 95 % 1025,7 hPa 0,0 l/m 1,6 km/h (1 Bft) NO 45 0,000 mm 5,4 C 6,1 C 3,2 km/h (1 Bft) 95,65 %
09.08.2022 06:04 6,0 C 95 % 1025,7 hPa 0,0 l/m 1,6 km/h (1 Bft) NO 45 0,000 mm 5,3 C 6,0 C 3,2 km/h (1 Bft) 100,00 %
09.08.2022 06:03 6,1 C 95 % 1025,8 hPa 0,0 l/m 0,0 km/h (0 Bft) N 0 0,000 mm 5,4 C 6,1 C 0,0 km/h (0 Bft) 95,65 %
09.08.2022 06:02 6,1 C 95 % 1025,7 hPa 0,0 l/m 0,0 km/h (0 Bft) N 0 0,000 mm 5,4 C 6,1 C 0,0 km/h (0 Bft) 100,00 %
09.08.2022 06:01 6,1 C 95 % 1025,8 hPa 0,0 l/m 0,0 km/h (0 Bft) N 0 0,000 mm 5,4 C 6,1 C 0,0 km/h (0 Bft) 100,00 %
09.08.2022 06:00 6,1 C 94 % 1025,7 hPa 0,0 l/m 0,0 km/h (0 Bft) N 0 0,000 mm 5,2 C 6,1 C 0,0 km/h (0 Bft) 95,65 %
09.08.2022 05:59 6,1 C 94 % 1025,7 hPa 0,0 l/m 0,0 km/h (0 Bft) N 0 0,000 mm 5,2 C 6,1 C 0,0 km/h (0 Bft) 100,00 %
09.08.2022 05:58 6,2 C 94 % 1025,7 hPa 0,0 l/m 0,0 km/h (0 Bft) N 0 0,000 mm 5,3 C 6,2 C 0,0 km/h (0 Bft) 95,65 %
09.08.2022 05:57 6,3 C 94 % 1025,7 hPa 0,0 l/m 0,0 km/h (0 Bft) N 0 0,000 mm 5,4 C 6,3 C 0,0 km/h (0 Bft) 95,65 %
09.08.2022 05:56 6,4 C 95 % 1025,6 hPa 0,0 l/m 0,0 km/h (0 Bft) N 0 0,000 mm 5,7 C 6,4 C 0,0 km/h (0 Bft) 100,00 %
09.08.2022 05:55 6,5 C 95 % 1025,7 hPa 0,0 l/m 0,0 km/h (0 Bft) N 0 0,000 mm 5,8 C 6,5 C 0,0 km/h (0 Bft) 100,00 %
09.08.2022 05:54 6,6 C 95 % 1025,7 hPa 0,0 l/m 0,0 km/h (0 Bft) N 0 0,000 mm 5,9 C 6,6 C 0,0 km/h (0 Bft) 100,00 %
09.08.2022 05:53 6,6 C 95 % 1025,6 hPa 0,0 l/m 0,0 km/h (0 Bft) N 0 0,000 mm 5,9 C 6,6 C 0,0 km/h (0 Bft) 95,65 %
09.08.2022 05:52 6,6 C 95 % 1025,7 hPa 0,0 l/m 0,0 km/h (0 Bft) N 0 0,000 mm 5,9 C 6,6 C 0,0 km/h (0 Bft) 95,65 %
09.08.2022 05:51 6,6 C 95 % 1025,6 hPa 0,0 l/m 0,0 km/h (0 Bft) N 0 0,000 mm 5,9 C 6,6 C 0,0 km/h (0 Bft) 95,65 %
09.08.2022 05:50 6,6 C 95 % 1025,6 hPa 0,0 l/m 0,0 km/h (0 Bft) N 0 0,000 mm 5,9 C 6,6 C 0,0 km/h (0 Bft) 100,00 %
09.08.2022 05:49 6,6 C 95 % 1025,6 hPa 0,0 l/m 0,0 km/h (0 Bft) N 0 0,000 mm 5,9 C 6,6 C 0,0 km/h (0 Bft) 100,00 %
09.08.2022 05:48 6,6 C 95 % 1025,6 hPa 0,0 l/m 0,0 km/h (0 Bft) N 0 0,000 mm 5,9 C 6,6 C 0,0 km/h (0 Bft) 95,65 %
09.08.2022 05:47 6,6 C 95 % 1025,6 hPa 0,0 l/m 0,0 km/h (0 Bft) N 0 0,000 mm 5,9 C 6,6 C 0,0 km/h (0 Bft) 100,00 %
09.08.2022 05:46 6,6 C 95 % 1025,6 hPa 0,0 l/m 0,0 km/h (0 Bft) N 0 0,000 mm 5,9 C 6,6 C 0,0 km/h (0 Bft) 100,00 %
09.08.2022 05:45 6,6 C 95 % 1025,6 hPa 0,0 l/m 0,0 km/h (0 Bft) N 0 0,000 mm 5,9 C 6,6 C 0,0 km/h (0 Bft) 100,00 %
09.08.2022 05:44 6,6 C 95 % 1025,5 hPa 0,0 l/m 0,0 km/h (0 Bft) N 0 0,000 mm 5,9 C 6,6 C 0,0 km/h (0 Bft) 91,30 %
09.08.2022 05:43 6,6 C 95 % 1025,6 hPa 0,0 l/m 0,0 km/h (0 Bft) N 0 0,000 mm 5,9 C 6,6 C 0,0 km/h (0 Bft) 100,00 %
09.08.2022 05:42 6,6 C 95 % 1025,7 hPa 0,0 l/m 0,0 km/h (0 Bft) N 0 0,000 mm 5,9 C 6,6 C 0,0 km/h (0 Bft) 100,00 %
09.08.2022 05:41 6,6 C 95 % 1025,6 hPa 0,0 l/m 0,0 km/h (0 Bft) N 0 0,000 mm 5,9 C 6,6 C 0,0 km/h (0 Bft) 100,00 %
09.08.2022 05:40 6,7 C 95 % 1025,6 hPa 0,0 l/m 0,0 km/h (0 Bft) N 0 0,000 mm 6,0 C 6,7 C 0,0 km/h (0 Bft) 100,00 %
09.08.2022 05:39 6,6 C 95 % 1025,5 hPa 0,0 l/m 0,0 km/h (0 Bft) N 0 0,000 mm 5,9 C 6,6 C 0,0 km/h (0 Bft) 95,65 %
09.08.2022 05:38 6,6 C 95 % 1025,6 hPa 0,0 l/m 0,0 km/h (0 Bft) N 0 0,000 mm 5,9 C 6,6 C 0,0 km/h (0 Bft) 100,00 %
09.08.2022 05:37 6,7 C 94 % 1025,6 hPa 0,0 l/m 0,0 km/h (0 Bft) N 0 0,000 mm 5,8 C 6,7 C 0,0 km/h (0 Bft) 95,65 %
09.08.2022 05:36 6,7 C 95 % 1025,7 hPa 0,0 l/m 0,0 km/h (0 Bft) N 0 0,000 mm 6,0 C 6,7 C 0,0 km/h (0 Bft) 100,00 %
09.08.2022 05:35 6,8 C 95 % 1025,6 hPa 0,0 l/m 0,0 km/h (0 Bft) N 0 0,000 mm 6,1 C 6,8 C 0,0 km/h (0 Bft) 95,65 %
09.08.2022 05:34 6,7 C 95 % 1025,7 hPa 0,0 l/m 0,0 km/h (0 Bft) N 0 0,000 mm 6,0 C 6,7 C 0,0 km/h (0 Bft) 100,00 %
09.08.2022 05:33 6,7 C 94 % 1025,7 hPa 0,0 l/m 0,0 km/h (0 Bft) N 0 0,000 mm 5,8 C 6,7 C 0,0 km/h (0 Bft) 100,00 %
09.08.2022 05:32 6,7 C 94 % 1025,7 hPa 0,0 l/m 0,0 km/h (0 Bft) N 0 0,000 mm 5,8 C 6,7 C 0,0 km/h (0 Bft) 100,00 %
09.08.2022 05:31 6,7 C 94 % 1025,7 hPa 0,0 l/m 0,0 km/h (0 Bft) N 0 0,000 mm 5,8 C 6,7 C 0,0 km/h (0 Bft) 95,65 %
09.08.2022 05:30 6,8 C 94 % 1025,7 hPa 0,0 l/m 0,0 km/h (0 Bft) N 0 0,000 mm 5,9 C 6,8 C 0,0 km/h (0 Bft) 95,65 %
09.08.2022 05:29 6,8 C 94 % 1025,7 hPa 0,0 l/m 0,0 km/h (0 Bft) N 0 0,000 mm 5,9 C 6,8 C 0,0 km/h (0 Bft) 100,00 %
09.08.2022 05:28 6,8 C 95 % 1025,6 hPa 0,0 l/m 0,0 km/h (0 Bft) N 0 0,000 mm 6,1 C 6,8 C 0,0 km/h (0 Bft) 100,00 %
09.08.2022 05:27 6,8 C 95 % 1025,6 hPa 0,0 l/m 0,0 km/h (0 Bft) N 0 0,000 mm 6,1 C 6,8 C 0,0 km/h (0 Bft) 100,00 %
09.08.2022 05:26 6,7 C 95 % 1025,6 hPa 0,0 l/m 0,0 km/h (0 Bft) N 0 0,000 mm 6,0 C 6,7 C 0,0 km/h (0 Bft) 100,00 %
09.08.2022 05:25 6,7 C 94 % 1025,7 hPa 0,0 l/m 0,0 km/h (0 Bft) N 0 0,000 mm 5,8 C 6,7 C 0,0 km/h (0 Bft) 100,00 %
09.08.2022 05:24 6,7 C 94 % 1025,6 hPa 0,0 l/m 0,0 km/h (0 Bft) N 0 0,000 mm 5,8 C 6,7 C 0,0 km/h (0 Bft) 100,00 %
09.08.2022 05:23 6,7 C 94 % 1025,6 hPa 0,0 l/m 0,0 km/h (0 Bft) N 0 0,000 mm 5,8 C 6,7 C 0,0 km/h (0 Bft) 95,65 %
09.08.2022 05:22 6,7 C 94 % 1025,6 hPa 0,0 l/m 0,0 km/h (0 Bft) N 0 0,000 mm 5,8 C 6,7 C 0,0 km/h (0 Bft) 100,00 %
09.08.2022 05:21 6,8 C 94 % 1025,6 hPa 0,0 l/m 0,0 km/h (0 Bft) N 0 0,000 mm 5,9 C 6,8 C 0,0 km/h (0 Bft) 100,00 %
09.08.2022 05:20 6,8 C 94 % 1025,6 hPa 0,0 l/m 0,0 km/h (0 Bft) N 0 0,000 mm 5,9 C 6,8 C 0,0 km/h (0 Bft) 100,00 %
09.08.2022 05:19 6,9 C 94 % 1025,6 hPa 0,0 l/m 0,0 km/h (0 Bft) N 0 0,000 mm 6,0 C 6,9 C 0,0 km/h (0 Bft) 100,00 %
09.08.2022 05:18 6,9 C 94 % 1025,6 hPa 0,0 l/m 0,0 km/h (0 Bft) N 0 0,000 mm 6,0 C 6,9 C 0,0 km/h (0 Bft) 100,00 %
09.08.2022 05:17 6,9 C 94 % 1025,6 hPa 0,0 l/m 0,0 km/h (0 Bft) N 0 0,000 mm 6,0 C 6,9 C 0,0 km/h (0 Bft) 100,00 %
09.08.2022 05:16 6,9 C 94 % 1025,6 hPa 0,0 l/m 0,0 km/h (0 Bft) N 0 0,000 mm 6,0 C 6,9 C 0,0 km/h (0 Bft) 95,65 %
09.08.2022 05:15 6,8 C 94 % 1025,7 hPa 0,0 l/m 0,0 km/h (0 Bft) N 0 0,000 mm 5,9 C 6,8 C 0,0 km/h (0 Bft) 91,30 %
09.08.2022 05:14 6,8 C 94 % 1025,6 hPa 0,0 l/m 0,0 km/h (0 Bft) N 0 0,000 mm 5,9 C 6,8 C 0,0 km/h (0 Bft) 100,00 %
09.08.2022 05:13 6,9 C 94 % 1025,6 hPa 0,0 l/m 0,0 km/h (0 Bft) N 0 0,000 mm 6,0 C 6,9 C 0,0 km/h (0 Bft) 100,00 %
09.08.2022 05:12 6,8 C 94 % 1025,6 hPa 0,0 l/m 0,0 km/h (0 Bft) N 0 0,000 mm 5,9 C 6,8 C 0,0 km/h (0 Bft) 95,65 %
09.08.2022 05:11 6,9 C 94 % 1025,6 hPa 0,0 l/m 0,0 km/h (0 Bft) N 0 0,000 mm 6,0 C 6,9 C 0,0 km/h (0 Bft) 100,00 %
09.08.2022 05:10 7,0 C 94 % 1025,7 hPa 0,0 l/m 0,0 km/h (0 Bft) N 0 0,000 mm 6,1 C 7,0 C 0,0 km/h (0 Bft) 100,00 %
09.08.2022 05:09 7,0 C 94 % 1025,6 hPa 0,0 l/m 0,0 km/h (0 Bft) N 0 0,000 mm 6,1 C 7,0 C 0,0 km/h (0 Bft) 95,65 %
09.08.2022 05:08 7,1 C 94 % 1025,6 hPa 0,0 l/m 0,0 km/h (0 Bft) N 0 0,000 mm 6,2 C 7,1 C 0,0 km/h (0 Bft) 100,00 %
09.08.2022 05:07 7,1 C 94 % 1025,7 hPa 0,0 l/m 0,0 km/h (0 Bft) N 0 0,000 mm 6,2 C 7,1 C 0,0 km/h (0 Bft) 100,00 %
09.08.2022 05:06 7,2 C 94 % 1025,7 hPa 0,0 l/m 0,0 km/h (0 Bft) N 0 0,000 mm 6,3 C 7,2 C 0,0 km/h (0 Bft) 100,00 %
09.08.2022 05:05 7,2 C 95 % 1025,7 hPa 0,0 l/m 0,0 km/h (0 Bft) N 0 0,000 mm 6,5 C 7,2 C 0,0 km/h (0 Bft) 100,00 %
09.08.2022 05:04 7,2 C 94 % 1025,7 hPa 0,0 l/m 1,6 km/h (1 Bft) NO 45 0,000 mm 6,3 C 7,2 C 1,6 km/h (1 Bft) 100,00 %
09.08.2022 05:03 7,1 C 94 % 1025,7 hPa 0,0 l/m 1,6 km/h (1 Bft) NO 45 0,000 mm 6,2 C 7,1 C 3,2 km/h (1 Bft) 95,65 %
09.08.2022 05:02 7,1 C 94 % 1025,6 hPa 0,0 l/m 0,0 km/h (0 Bft) NO 45 0,000 mm 6,2 C 7,1 C 1,6 km/h (1 Bft) 95,65 %
09.08.2022 05:01 7,1 C 94 % 1025,6 hPa 0,0 l/m 1,6 km/h (1 Bft) NO 45 0,000 mm 6,2 C 7,1 C 3,2 km/h (1 Bft) 100,00 %
09.08.2022 05:00 7,0 C 94 % 1025,6 hPa 0,0 l/m 1,6 km/h (1 Bft) NO 45 0,000 mm 6,1 C 7,0 C 1,6 km/h (1 Bft) 100,00 %
09.08.2022 04:59 7,0 C 94 % 1025,6 hPa 0,0 l/m 1,6 km/h (1 Bft) NO 45 0,000 mm 6,1 C 7,0 C 1,6 km/h (1 Bft) 95,65 %
09.08.2022 04:58 7,0 C 94 % 1025,7 hPa 0,0 l/m 0,0 km/h (0 Bft) N 0 0,000 mm 6,1 C 7,0 C 0,0 km/h (0 Bft) 100,00 %
09.08.2022 04:57 7,0 C 94 % 1025,6 hPa 0,0 l/m 0,0 km/h (0 Bft) N 0 0,000 mm 6,1 C 7,0 C 0,0 km/h (0 Bft) 100,00 %
09.08.2022 04:56 7,0 C 94 % 1025,5 hPa 0,0 l/m 0,0 km/h (0 Bft) NO 45 0,000 mm 6,1 C 7,0 C 1,6 km/h (1 Bft) 95,65 %
09.08.2022 04:55 7,0 C 94 % 1025,8 hPa 0,0 l/m 0,0 km/h (0 Bft) NO 45 0,000 mm 6,1 C 7,0 C 1,6 km/h (1 Bft) 95,65 %
09.08.2022 04:54 7,0 C 94 % 1025,7 hPa 0,0 l/m 1,6 km/h (1 Bft) NO 45 0,000 mm 6,1 C 7,0 C 1,6 km/h (1 Bft) 100,00 %
09.08.2022 04:53 7,0 C 93 % 1025,7 hPa 0,0 l/m 1,6 km/h (1 Bft) NO 45 0,000 mm 5,9 C 7,0 C 3,2 km/h (1 Bft) 100,00 %
09.08.2022 04:52 7,1 C 93 % 1025,7 hPa 0,0 l/m 1,6 km/h (1 Bft) NO 45 0,000 mm 6,0 C 7,1 C 1,6 km/h (1 Bft) 100,00 %
09.08.2022 04:51 7,2 C 94 % 1025,7 hPa 0,0 l/m 1,6 km/h (1 Bft) NO 45 0,000 mm 6,3 C 7,2 C 3,2 km/h (1 Bft) 100,00 %
09.08.2022 04:50 7,2 C 93 % 1025,7 hPa 0,0 l/m 0,0 km/h (0 Bft) NO 45 0,000 mm 6,1 C 7,2 C 1,6 km/h (1 Bft) 100,00 %
09.08.2022 04:49 7,2 C 93 % 1025,7 hPa 0,0 l/m 0,0 km/h (0 Bft) NO 45 0,000 mm 6,1 C 7,2 C 1,6 km/h (1 Bft) 100,00 %
09.08.2022 04:48 7,3 C 94 % 1025,7 hPa 0,0 l/m 1,6 km/h (1 Bft) NO 45 0,000 mm 6,4 C 7,3 C 3,2 km/h (1 Bft) 91,30 %
09.08.2022 04:47 7,3 C 94 % 1025,7 hPa 0,0 l/m 0,0 km/h (0 Bft) N-NO 22 0,000 mm 6,4 C 7,3 C 1,6 km/h (1 Bft) 100,00 %
09.08.2022 04:46 7,3 C 94 % 1025,8 hPa 0,0 l/m 0,0 km/h (0 Bft) N 360 0,000 mm 6,4 C 7,3 C 1,6 km/h (1 Bft) 100,00 %
09.08.2022 04:45 7,2 C 94 % 1025,7 hPa 0,0 l/m 0,0 km/h (0 Bft) N 360 0,000 mm 6,3 C 7,2 C 1,6 km/h (1 Bft) 100,00 %
09.08.2022 04:44 7,2 C 94 % 1025,7 hPa 0,0 l/m 0,0 km/h (0 Bft) N-NO 22 0,000 mm 6,3 C 7,2 C 1,6 km/h (1 Bft) 100,00 %
09.08.2022 04:43 7,2 C 94 % 1025,6 hPa 0,0 l/m 0,0 km/h (0 Bft) N-NO 22 0,000 mm 6,3 C 7,2 C 1,6 km/h (1 Bft) 100,00 %
09.08.2022 04:42 7,2 C 94 % 1025,7 hPa 0,0 l/m 1,6 km/h (1 Bft) NO 45 0,000 mm 6,3 C 7,2 C 3,2 km/h (1 Bft) 91,30 %
09.08.2022 04:41 7,2 C 94 % 1025,7 hPa 0,0 l/m 1,6 km/h (1 Bft) NO 45 0,000 mm 6,3 C 7,2 C 3,2 km/h (1 Bft) 95,65 %
09.08.2022 04:40 7,2 C 94 % 1025,6 hPa 0,0 l/m 1,6 km/h (1 Bft) NO 45 0,000 mm 6,3 C 7,2 C 3,2 km/h (1 Bft) 95,65 %
09.08.2022 04:39 7,2 C 94 % 1025,7 hPa 0,0 l/m 1,6 km/h (1 Bft) NO 45 0,000 mm 6,3 C 7,2 C 3,2 km/h (1 Bft) 100,00 %
09.08.2022 04:38 7,2 C 94 % 1025,7 hPa 0,0 l/m 1,6 km/h (1 Bft) NO 45 0,000 mm 6,3 C 7,2 C 3,2 km/h (1 Bft) 95,65 %
09.08.2022 04:37 7,2 C 94 % 1025,7 hPa 0,0 l/m 1,6 km/h (1 Bft) NO 45 0,000 mm 6,3 C 7,2 C 3,2 km/h (1 Bft) 100,00 %
09.08.2022 04:36 7,3 C 94 % 1025,7 hPa 0,0 l/m 1,6 km/h (1 Bft) NO 45 0,000 mm 6,4 C 7,3 C 3,2 km/h (1 Bft) 100,00 %
09.08.2022 04:35 7,2 C 94 % 1025,6 hPa 0,0 l/m 1,6 km/h (1 Bft) NO 45 0,000 mm 6,3 C 7,2 C 3,2 km/h (1 Bft) 100,00 %
09.08.2022 04:34 7,2 C 94 % 1025,6 hPa 0,0 l/m 1,6 km/h (1 Bft) NO 45 0,000 mm 6,3 C 7,2 C 3,2 km/h (1 Bft) 95,65 %
09.08.2022 04:33 7,2 C 94 % 1025,6 hPa 0,0 l/m 1,6 km/h (1 Bft) NO 45 0,000 mm 6,3 C 7,2 C 3,2 km/h (1 Bft) 95,65 %
09.08.2022 04:32 7,2 C 94 % 1025,7 hPa 0,0 l/m 1,6 km/h (1 Bft) NO 45 0,000 mm 6,3 C 7,2 C 3,2 km/h (1 Bft) 100,00 %
09.08.2022 04:31 7,1 C 94 % 1025,7 hPa 0,0 l/m 1,6 km/h (1 Bft) NO 45 0,000 mm 6,2 C 7,1 C 3,2 km/h (1 Bft) 100,00 %
09.08.2022 04:30 7,1 C 93 % 1025,7 hPa 0,0 l/m 1,6 km/h (1 Bft) NO 45 0,000 mm 6,0 C 7,1 C 3,2 km/h (1 Bft) 95,65 %
09.08.2022 04:29 7,1 C 93 % 1025,6 hPa 0,0 l/m 1,6 km/h (1 Bft) NO 45 0,000 mm 6,0 C 7,1 C 3,2 km/h (1 Bft) 100,00 %
09.08.2022 04:28 7,2 C 93 % 1025,6 hPa 0,0 l/m 3,2 km/h (1 Bft) NO 45 0,000 mm 6,1 C 7,2 C 4,8 km/h (1 Bft) 95,65 %
09.08.2022 04:27 7,2 C 93 % 1025,6 hPa 0,0 l/m 3,2 km/h (1 Bft) NO 45 0,000 mm 6,1 C 7,2 C 4,8 km/h (1 Bft) 95,65 %
09.08.2022 04:26 7,3 C 93 % 1025,7 hPa 0,0 l/m 4,8 km/h (1 Bft) NO 45 0,000 mm 6,2 C 6,8 C 6,4 km/h (2 Bft) 100,00 %
09.08.2022 04:25 7,3 C 93 % 1025,6 hPa 0,0 l/m 3,2 km/h (1 Bft) NO 45 0,000 mm 6,2 C 7,3 C 4,8 km/h (1 Bft) 100,00 %
09.08.2022 04:24 7,3 C 93 % 1025,6 hPa 0,0 l/m 1,6 km/h (1 Bft) NO 45 0,000 mm 6,2 C 7,3 C 4,8 km/h (1 Bft) 100,00 %
09.08.2022 04:23 7,4 C 94 % 1025,7 hPa 0,0 l/m 3,2 km/h (1 Bft) NO 45 0,000 mm 6,5 C 7,4 C 3,2 km/h (1 Bft) 100,00 %
09.08.2022 04:22 7,3 C 94 % 1025,7 hPa 0,0 l/m 1,6 km/h (1 Bft) N-NO 22 0,000 mm 6,4 C 7,3 C 3,2 km/h (1 Bft) 100,00 %
09.08.2022 04:21 7,3 C 93 % 1025,7 hPa 0,0 l/m 1,6 km/h (1 Bft) N-NO 22 0,000 mm 6,2 C 7,3 C 3,2 km/h (1 Bft) 100,00 %
09.08.2022 04:20 7,3 C 93 % 1025,7 hPa 0,0 l/m 1,6 km/h (1 Bft) N-NO 22 0,000 mm 6,2 C 7,3 C 3,2 km/h (1 Bft) 91,30 %
09.08.2022 04:19 7,3 C 93 % 1025,7 hPa 0,0 l/m 1,6 km/h (1 Bft) N-NO 22 0,000 mm 6,2 C 7,3 C 4,8 km/h (1 Bft) 100,00 %
09.08.2022 04:18 7,4 C 93 % 1025,7 hPa 0,0 l/m 1,6 km/h (1 Bft) N-NO 22 0,000 mm 6,3 C 7,4 C 3,2 km/h (1 Bft) 100,00 %
09.08.2022 04:17 7,4 C 94 % 1025,6 hPa 0,0 l/m 1,6 km/h (1 Bft) O-NO 67 0,000 mm 6,5 C 7,4 C 3,2 km/h (1 Bft) 95,65 %
09.08.2022 04:16 7,4 C 94 % 1025,6 hPa 0,0 l/m 1,6 km/h (1 Bft) O-NO 67 0,000 mm 6,5 C 7,4 C 3,2 km/h (1 Bft) 100,00 %
09.08.2022 04:15 7,3 C 94 % 1025,6 hPa 0,0 l/m 1,6 km/h (1 Bft) O-NO 67 0,000 mm 6,4 C 7,3 C 3,2 km/h (1 Bft) 100,00 %
09.08.2022 04:14 7,3 C 94 % 1025,7 hPa 0,0 l/m 1,6 km/h (1 Bft) O-NO 67 0,000 mm 6,4 C 7,3 C 3,2 km/h (1 Bft) 100,00 %
09.08.2022 04:13 7,3 C 94 % 1025,6 hPa 0,0 l/m 1,6 km/h (1 Bft) NO 45 0,000 mm 6,4 C 7,3 C 3,2 km/h (1 Bft) 95,65 %
09.08.2022 04:12 7,2 C 93 % 1025,7 hPa 0,0 l/m 3,2 km/h (1 Bft) N-NO 22 0,000 mm 6,1 C 7,2 C 4,8 km/h (1 Bft) 100,00 %
09.08.2022 04:11 7,2 C 93 % 1025,6 hPa 0,0 l/m 1,6 km/h (1 Bft) N-NO 22 0,000 mm 6,1 C 7,2 C 3,2 km/h (1 Bft) 100,00 %
09.08.2022 04:10 7,2 C 93 % 1025,6 hPa 0,0 l/m 1,6 km/h (1 Bft) N-NO 22 0,000 mm 6,1 C 7,2 C 3,2 km/h (1 Bft) 100,00 %
09.08.2022 04:09 7,3 C 92 % 1025,7 hPa 0,0 l/m 1,6 km/h (1 Bft) N-NO 22 0,000 mm 6,1 C 7,3 C 3,2 km/h (1 Bft) 100,00 %
09.08.2022 04:08 7,4 C 92 % 1025,6 hPa 0,0 l/m 1,6 km/h (1 Bft) NO 45 0,000 mm 6,2 C 7,4 C 4,8 km/h (1 Bft) 100,00 %
09.08.2022 04:07 7,4 C 93 % 1025,7 hPa 0,0 l/m 1,6 km/h (1 Bft) NO 45 0,000 mm 6,3 C 7,4 C 3,2 km/h (1 Bft) 100,00 %
09.08.2022 04:06 7,5 C 93 % 1025,8 hPa 0,0 l/m 3,2 km/h (1 Bft) NO 45 0,000 mm 6,4 C 7,5 C 3,2 km/h (1 Bft) 86,96 %
09.08.2022 04:05 7,6 C 93 % 1025,7 hPa 0,0 l/m 1,6 km/h (1 Bft) O-NO 67 0,000 mm 6,5 C 7,6 C 3,2 km/h (1 Bft) 100,00 %
09.08.2022 04:04 7,6 C 93 % 1025,7 hPa 0,0 l/m 1,6 km/h (1 Bft) O-NO 67 0,000 mm 6,5 C 7,6 C 3,2 km/h (1 Bft) 95,65 %
09.08.2022 04:03 7,5 C 93 % 1025,6 hPa 0,0 l/m 1,6 km/h (1 Bft) NO 45 0,000 mm 6,4 C 7,5 C 3,2 km/h (1 Bft) 100,00 %
09.08.2022 04:02 7,6 C 93 % 1025,7 hPa 0,0 l/m 1,6 km/h (1 Bft) NO 45 0,000 mm 6,5 C 7,6 C 1,6 km/h (1 Bft) 95,65 %
09.08.2022 04:01 7,4 C 93 % 1025,5 hPa 0,0 l/m 1,6 km/h (1 Bft) NO 45 0,000 mm 6,3 C 7,4 C 3,2 km/h (1 Bft) 100,00 %
09.08.2022 04:00 7,4 C 93 % 1025,6 hPa 0,0 l/m 0,0 km/h (0 Bft) NO 45 0,000 mm 6,3 C 7,4 C 1,6 km/h (1 Bft) 100,00 %
09.08.2022 03:59 7,4 C 93 % 1025,7 hPa 0,0 l/m 1,6 km/h (1 Bft) NO 45 0,000 mm 6,3 C 7,4 C 3,2 km/h (1 Bft) 95,65 %
09.08.2022 03:58 7,4 C 93 % 1025,7 hPa 0,0 l/m 1,6 km/h (1 Bft) NO 45 0,000 mm 6,3 C 7,4 C 3,2 km/h (1 Bft) 100,00 %
09.08.2022 03:57 7,4 C 93 % 1025,6 hPa 0,0 l/m 1,6 km/h (1 Bft) NO 45 0,000 mm 6,3 C 7,4 C 3,2 km/h (1 Bft) 100,00 %
09.08.2022 03:56 7,4 C 94 % 1025,6 hPa 0,0 l/m 1,6 km/h (1 Bft) NO 45 0,000 mm 6,5 C 7,4 C 3,2 km/h (1 Bft) 100,00 %
09.08.2022 03:55 7,4 C 93 % 1025,6 hPa 0,0 l/m 1,6 km/h (1 Bft) N-NO 22 0,000 mm 6,3 C 7,4 C 3,2 km/h (1 Bft) 100,00 %
09.08.2022 03:54 7,3 C 93 % 1025,6 hPa 0,0 l/m 1,6 km/h (1 Bft) NO 45 0,000 mm 6,2 C 7,3 C 4,8 km/h (1 Bft) 100,00 %
09.08.2022 03:53 7,3 C 93 % 1025,6 hPa 0,0 l/m 3,2 km/h (1 Bft) NO 45 0,000 mm 6,2 C 7,3 C 4,8 km/h (1 Bft) 100,00 %
09.08.2022 03:52 7,4 C 93 % 1025,7 hPa 0,0 l/m 3,2 km/h (1 Bft) N-NO 22 0,000 mm 6,3 C 7,4 C 3,2 km/h (1 Bft) 95,65 %
09.08.2022 03:51 7,4 C 93 % 1025,6 hPa 0,0 l/m 1,6 km/h (1 Bft) NO 45 0,000 mm 6,3 C 7,4 C 3,2 km/h (1 Bft) 100,00 %
09.08.2022 03:50 7,4 C 93 % 1025,6 hPa 0,0 l/m 1,6 km/h (1 Bft) NO 45 0,000 mm 6,3 C 7,4 C 3,2 km/h (1 Bft) 100,00 %
09.08.2022 03:49 7,4 C 93 % 1025,6 hPa 0,0 l/m 1,6 km/h (1 Bft) NO 45 0,000 mm 6,3 C 7,4 C 3,2 km/h (1 Bft) 100,00 %
09.08.2022 03:48 7,4 C 93 % 1025,6 hPa 0,0 l/m 1,6 km/h (1 Bft) NO 45 0,000 mm 6,3 C 7,4 C 3,2 km/h (1 Bft) 100,00 %
09.08.2022 03:47 7,4 C 93 % 1025,6 hPa 0,0 l/m 1,6 km/h (1 Bft) NO 45 0,000 mm 6,3 C 7,4 C 4,8 km/h (1 Bft) 95,65 %
09.08.2022 03:46 7,4 C 93 % 1025,6 hPa 0,0 l/m 1,6 km/h (1 Bft) NO 45 0,000 mm 6,3 C 7,4 C 3,2 km/h (1 Bft) 100,00 %
09.08.2022 03:45 7,4 C 94 % 1025,6 hPa 0,0 l/m 1,6 km/h (1 Bft) NO 45 0,000 mm 6,5 C 7,4 C 3,2 km/h (1 Bft) 95,65 %
09.08.2022 03:44 7,4 C 94 % 1025,5 hPa 0,0 l/m 1,6 km/h (1 Bft) NO 45 0,000 mm 6,5 C 7,4 C 3,2 km/h (1 Bft) 100,00 %
09.08.2022 03:43 7,3 C 94 % 1025,6 hPa 0,0 l/m 1,6 km/h (1 Bft) NO 45 0,000 mm 6,4 C 7,3 C 3,2 km/h (1 Bft) 100,00 %
09.08.2022 03:42 7,2 C 94 % 1025,5 hPa 0,0 l/m 1,6 km/h (1 Bft) N-NO 22 0,000 mm 6,3 C 7,2 C 3,2 km/h (1 Bft) 100,00 %
09.08.2022 03:41 7,2 C 93 % 1025,6 hPa 0,0 l/m 3,2 km/h (1 Bft) N-NO 22 0,000 mm 6,1 C 7,2 C 4,8 km/h (1 Bft) 100,00 %
09.08.2022 03:40 7,1 C 93 % 1025,6 hPa 0,0 l/m 3,2 km/h (1 Bft) NO 45 0,000 mm 6,0 C 7,1 C 3,2 km/h (1 Bft) 100,00 %
09.08.2022 03:39 7,1 C 93 % 1025,6 hPa 0,0 l/m 3,2 km/h (1 Bft) NO 45 0,000 mm 6,0 C 7,1 C 4,8 km/h (1 Bft) 95,65 %
09.08.2022 03:38 7,2 C 93 % 1025,5 hPa 0,0 l/m 3,2 km/h (1 Bft) NO 45 0,000 mm 6,1 C 7,2 C 3,2 km/h (1 Bft) 95,65 %
09.08.2022 03:37 7,1 C 93 % 1025,6 hPa 0,0 l/m 3,2 km/h (1 Bft) NO 45 0,000 mm 6,0 C 7,1 C 3,2 km/h (1 Bft) 95,65 %
09.08.2022 03:36 7,1 C 93 % 1025,6 hPa 0,0 l/m 1,6 km/h (1 Bft) NO 45 0,000 mm 6,0 C 7,1 C 3,2 km/h (1 Bft) 100,00 %
09.08.2022 03:35 7,1 C 93 % 1025,6 hPa 0,0 l/m 3,2 km/h (1 Bft) NO 45 0,000 mm 6,0 C 7,1 C 4,8 km/h (1 Bft) 95,65 %
09.08.2022 03:34 7,1 C 93 % 1025,6 hPa 0,0 l/m 3,2 km/h (1 Bft) NO 45 0,000 mm 6,0 C 7,1 C 4,8 km/h (1 Bft) 100,00 %
09.08.2022 03:33 7,2 C 93 % 1025,6 hPa 0,0 l/m 3,2 km/h (1 Bft) NO 45 0,000 mm 6,1 C 7,2 C 3,2 km/h (1 Bft) 100,00 %
09.08.2022 03:32 7,2 C 93 % 1025,6 hPa 0,0 l/m 1,6 km/h (1 Bft) NO 45 0,000 mm 6,1 C 7,2 C 3,2 km/h (1 Bft) 100,00 %
09.08.2022 03:31 7,2 C 93 % 1025,7 hPa 0,0 l/m 3,2 km/h (1 Bft) O-NO 67 0,000 mm 6,1 C 7,2 C 4,8 km/h (1 Bft) 100,00 %
09.08.2022 03:30 7,3 C 93 % 1025,6 hPa 0,0 l/m 3,2 km/h (1 Bft) NO 45 0,000 mm 6,2 C 7,3 C 4,8 km/h (1 Bft) 95,65 %
09.08.2022 03:29 7,3 C 93 % 1025,5 hPa 0,0 l/m 4,8 km/h (1 Bft) NO 45 0,000 mm 6,2 C 6,8 C 6,4 km/h (2 Bft) 100,00 %
09.08.2022 03:28 7,3 C 93 % 1025,6 hPa 0,0 l/m 4,8 km/h (1 Bft) N-NO 22 0,000 mm 6,2 C 6,8 C 6,4 km/h (2 Bft) 100,00 %
09.08.2022 03:27 7,3 C 93 % 1025,5 hPa 0,0 l/m 3,2 km/h (1 Bft) NO 45 0,000 mm 6,2 C 7,3 C 4,8 km/h (1 Bft) 95,65 %
09.08.2022 03:26 7,3 C 93 % 1025,6 hPa 0,0 l/m 3,2 km/h (1 Bft) NO 45 0,000 mm 6,2 C 7,3 C 4,8 km/h (1 Bft) 100,00 %
09.08.2022 03:25 7,3 C 92 % 1025,6 hPa 0,0 l/m 3,2 km/h (1 Bft) O-NO 67 0,000 mm 6,1 C 7,3 C 4,8 km/h (1 Bft) 100,00 %
09.08.2022 03:24 7,3 C 92 % 1025,5 hPa 0,0 l/m 4,8 km/h (1 Bft) NO 45 0,000 mm 6,1 C 6,8 C 6,4 km/h (2 Bft) 100,00 %
09.08.2022 03:23 7,4 C 93 % 1025,5 hPa 0,0 l/m 3,2 km/h (1 Bft) NO 45 0,000 mm 6,3 C 7,4 C 4,8 km/h (1 Bft) 95,65 %
09.08.2022 03:22 7,4 C 93 % 1025,5 hPa 0,0 l/m 3,2 km/h (1 Bft) NO 45 0,000 mm 6,3 C 7,4 C 4,8 km/h (1 Bft) 100,00 %
09.08.2022 03:21 7,4 C 93 % 1025,6 hPa 0,0 l/m 3,2 km/h (1 Bft) NO 45 0,000 mm 6,3 C 7,4 C 4,8 km/h (1 Bft) 95,65 %
09.08.2022 03:20 7,4 C 93 % 1025,6 hPa 0,0 l/m 3,2 km/h (1 Bft) NO 45 0,000 mm 6,3 C 7,4 C 3,2 km/h (1 Bft) 95,65 %
09.08.2022 03:19 7,4 C 93 % 1025,5 hPa 0,0 l/m 1,6 km/h (1 Bft) NO 45 0,000 mm 6,3 C 7,4 C 3,2 km/h (1 Bft) 100,00 %
09.08.2022 03:18 7,4 C 93 % 1025,6 hPa 0,0 l/m 3,2 km/h (1 Bft) NO 45 0,000 mm 6,3 C 7,4 C 3,2 km/h (1 Bft) 100,00 %
09.08.2022 03:17 7,3 C 93 % 1025,6 hPa 0,0 l/m 1,6 km/h (1 Bft) NO 45 0,000 mm 6,2 C 7,3 C 3,2 km/h (1 Bft) 100,00 %
09.08.2022 03:16 7,3 C 93 % 1025,6 hPa 0,0 l/m 3,2 km/h (1 Bft) NO 45 0,000 mm 6,2 C 7,3 C 3,2 km/h (1 Bft) 95,65 %
09.08.2022 03:15 7,3 C 92 % 1025,5 hPa 0,0 l/m 1,6 km/h (1 Bft) NO 45 0,000 mm 6,1 C 7,3 C 3,2 km/h (1 Bft) 100,00 %
09.08.2022 03:14 7,2 C 92 % 1025,5 hPa 0,0 l/m 1,6 km/h (1 Bft) NO 45 0,000 mm 6,0 C 7,2 C 3,2 km/h (1 Bft) 100,00 %
09.08.2022 03:13 7,3 C 92 % 1025,6 hPa 0,0 l/m 3,2 km/h (1 Bft) NO 45 0,000 mm 6,1 C 7,3 C 4,8 km/h (1 Bft) 95,65 %
09.08.2022 03:12 7,3 C 92 % 1025,5 hPa 0,0 l/m 3,2 km/h (1 Bft) N-NO 22 0,000 mm 6,1 C 7,3 C 4,8 km/h (1 Bft) 100,00 %
09.08.2022 03:11 7,3 C 92 % 1025,6 hPa 0,0 l/m 3,2 km/h (1 Bft) NO 45 0,000 mm 6,1 C 7,3 C 4,8 km/h (1 Bft) 100,00 %
09.08.2022 03:10 7,4 C 91 % 1025,5 hPa 0,0 l/m 3,2 km/h (1 Bft) N-NO 22 0,000 mm 6,0 C 7,4 C 4,8 km/h (1 Bft) 95,65 %
09.08.2022 03:09 7,4 C 91 % 1025,5 hPa 0,0 l/m 1,6 km/h (1 Bft) NO 45 0,000 mm 6,0 C 7,4 C 3,2 km/h (1 Bft) 95,65 %
09.08.2022 03:08 7,6 C 92 % 1025,5 hPa 0,0 l/m 3,2 km/h (1 Bft) N-NO 22 0,000 mm 6,4 C 7,6 C 4,8 km/h (1 Bft) 100,00 %
09.08.2022 03:07 7,6 C 91 % 1025,5 hPa 0,0 l/m 3,2 km/h (1 Bft) NO 45 0,000 mm 6,2 C 7,6 C 4,8 km/h (1 Bft) 100,00 %
09.08.2022 03:06 7,6 C 92 % 1025,5 hPa 0,0 l/m 3,2 km/h (1 Bft) NO 45 0,000 mm 6,4 C 7,6 C 3,2 km/h (1 Bft) 100,00 %
09.08.2022 03:05 7,6 C 92 % 1025,5 hPa 0,0 l/m 3,2 km/h (1 Bft) N-NO 22 0,000 mm 6,4 C 7,6 C 4,8 km/h (1 Bft) 100,00 %
09.08.2022 03:04 7,7 C 92 % 1025,6 hPa 0,0 l/m 3,2 km/h (1 Bft) N-NO 22 0,000 mm 6,5 C 7,7 C 4,8 km/h (1 Bft) 100,00 %
09.08.2022 03:03 7,7 C 92 % 1025,6 hPa 0,0 l/m 1,6 km/h (1 Bft) NO 45 0,000 mm 6,5 C 7,7 C 3,2 km/h (1 Bft) 100,00 %
09.08.2022 03:02 7,7 C 91 % 1025,5 hPa 0,0 l/m 1,6 km/h (1 Bft) NO 45 0,000 mm 6,3 C 7,7 C 3,2 km/h (1 Bft) 95,65 %
09.08.2022 03:01 7,7 C 92 % 1025,6 hPa 0,0 l/m 3,2 km/h (1 Bft) NO 45 0,000 mm 6,5 C 7,7 C 3,2 km/h (1 Bft) 100,00 %
09.08.2022 03:00 7,8 C 92 % 1025,6 hPa 0,0 l/m 3,2 km/h (1 Bft) NO 45 0,000 mm 6,6 C 7,8 C 4,8 km/h (1 Bft) 100,00 %
09.08.2022 02:59 7,7 C 92 % 1025,7 hPa 0,0 l/m 3,2 km/h (1 Bft) NO 45 0,000 mm 6,5 C 7,7 C 3,2 km/h (1 Bft) 100,00 %
09.08.2022 02:58 7,7 C 91 % 1025,7 hPa 0,0 l/m 1,6 km/h (1 Bft) NO 45 0,000 mm 6,3 C 7,7 C 4,8 km/h (1 Bft) 100,00 %
09.08.2022 02:57 7,6 C 91 % 1025,6 hPa 0,0 l/m 1,6 km/h (1 Bft) NO 45 0,000 mm 6,2 C 7,6 C 3,2 km/h (1 Bft) 100,00 %
09.08.2022 02:56 7,7 C 91 % 1025,6 hPa 0,0 l/m 3,2 km/h (1 Bft) NO 45 0,000 mm 6,3 C 7,7 C 4,8 km/h (1 Bft) 100,00 %
09.08.2022 02:55 7,7 C 91 % 1025,6 hPa 0,0 l/m 3,2 km/h (1 Bft) NO 45 0,000 mm 6,3 C 7,7 C 3,2 km/h (1 Bft) 95,65 %
09.08.2022 02:54 7,7 C 91 % 1025,6 hPa 0,0 l/m 3,2 km/h (1 Bft) NO 45 0,000 mm 6,3 C 7,7 C 3,2 km/h (1 Bft) 100,00 %
09.08.2022 02:53 7,8 C 91 % 1025,6 hPa 0,0 l/m 3,2 km/h (1 Bft) NO 45 0,000 mm 6,4 C 7,8 C 4,8 km/h (1 Bft) 100,00 %
09.08.2022 02:52 7,9 C 91 % 1025,5 hPa 0,0 l/m 3,2 km/h (1 Bft) N-NO 22 0,000 mm 6,5 C 7,9 C 4,8 km/h (1 Bft) 100,00 %
09.08.2022 02:51 7,9 C 90 % 1025,6 hPa 0,0 l/m 3,2 km/h (1 Bft) NO 45 0,000 mm 6,4 C 7,9 C 4,8 km/h (1 Bft) 100,00 %
09.08.2022 02:50 7,9 C 90 % 1025,6 hPa 0,0 l/m 3,2 km/h (1 Bft) NO 45 0,000 mm 6,4 C 7,9 C 4,8 km/h (1 Bft) 100,00 %
09.08.2022 02:49 8,1 C 90 % 1025,6 hPa 0,0 l/m 1,6 km/h (1 Bft) N-NO 22 0,000 mm 6,6 C 8,1 C 3,2 km/h (1 Bft) 100,00 %
09.08.2022 02:48 8,1 C 91 % 1025,6 hPa 0,0 l/m 3,2 km/h (1 Bft) NO 45 0,000 mm 6,7 C 8,1 C 3,2 km/h (1 Bft) 95,65 %
09.08.2022 02:47 8,2 C 90 % 1025,5 hPa 0,0 l/m 3,2 km/h (1 Bft) N-NO 22 0,000 mm 6,7 C 8,2 C 4,8 km/h (1 Bft) 100,00 %
09.08.2022 02:46 8,2 C 90 % 1025,6 hPa 0,0 l/m 3,2 km/h (1 Bft) NO 45 0,000 mm 6,7 C 8,2 C 4,8 km/h (1 Bft) 100,00 %
09.08.2022 02:45 8,2 C 90 % 1025,5 hPa 0,0 l/m 3,2 km/h (1 Bft) N-NO 22 0,000 mm 6,7 C 8,2 C 4,8 km/h (1 Bft) 100,00 %
09.08.2022 02:44 8,2 C 90 % 1025,6 hPa 0,0 l/m 3,2 km/h (1 Bft) N-NO 22 0,000 mm 6,7 C 8,2 C 4,8 km/h (1 Bft) 100,00 %
09.08.2022 02:43 8,2 C 90 % 1025,6 hPa 0,0 l/m 1,6 km/h (1 Bft) NO 45 0,000 mm 6,7 C 8,2 C 3,2 km/h (1 Bft) 100,00 %
09.08.2022 02:42 8,2 C 90 % 1025,6 hPa 0,0 l/m 1,6 km/h (1 Bft) N-NO 22 0,000 mm 6,7 C 8,2 C 3,2 km/h (1 Bft) 100,00 %
09.08.2022 02:41 8,2 C 90 % 1025,6 hPa 0,0 l/m 3,2 km/h (1 Bft) NO 45 0,000 mm 6,7 C 8,2 C 4,8 km/h (1 Bft) 95,65 %
09.08.2022 02:40 8,2 C 90 % 1025,6 hPa 0,0 l/m 1,6 km/h (1 Bft) NO 45 0,000 mm 6,7 C 8,2 C 3,2 km/h (1 Bft) 100,00 %
09.08.2022 02:39 8,2 C 90 % 1025,7 hPa 0,0 l/m 3,2 km/h (1 Bft) NO 45 0,000 mm 6,7 C 8,2 C 3,2 km/h (1 Bft) 100,00 %
09.08.2022 02:38 8,2 C 90 % 1025,7 hPa 0,0 l/m 3,2 km/h (1 Bft) NO 45 0,000 mm 6,7 C 8,2 C 4,8 km/h (1 Bft) 100,00 %
09.08.2022 02:37 8,2 C 90 % 1025,6 hPa 0,0 l/m 3,2 km/h (1 Bft) NO 45 0,000 mm 6,7 C 8,2 C 4,8 km/h (1 Bft) 95,65 %
09.08.2022 02:36 8,2 C 89 % 1025,6 hPa 0,0 l/m 3,2 km/h (1 Bft) NO 45 0,000 mm 6,5 C 8,2 C 3,2 km/h (1 Bft) 100,00 %
09.08.2022 02:35 8,3 C 89 % 1025,5 hPa 0,0 l/m 3,2 km/h (1 Bft) NO 45 0,000 mm 6,6 C 8,3 C 4,8 km/h (1 Bft) 100,00 %
09.08.2022 02:34 8,4 C 89 % 1025,6 hPa 0,0 l/m 3,2 km/h (1 Bft) NO 45 0,000 mm 6,7 C 8,4 C 6,4 km/h (2 Bft) 91,30 %
09.08.2022 02:33 8,5 C 90 % 1025,6 hPa 0,0 l/m 3,2 km/h (1 Bft) NO 45 0,000 mm 7,0 C 8,5 C 4,8 km/h (1 Bft) 100,00 %
09.08.2022 02:32 8,6 C 90 % 1025,7 hPa 0,0 l/m 3,2 km/h (1 Bft) NO 45 0,000 mm 7,1 C 8,6 C 4,8 km/h (1 Bft) 100,00 %
09.08.2022 02:31 8,6 C 90 % 1025,6 hPa 0,0 l/m 1,6 km/h (1 Bft) NO 45 0,000 mm 7,1 C 8,6 C 3,2 km/h (1 Bft) 95,65 %
09.08.2022 02:30 8,6 C 90 % 1025,5 hPa 0,0 l/m 3,2 km/h (1 Bft) N-NO 22 0,000 mm 7,1 C 8,6 C 4,8 km/h (1 Bft) 100,00 %
09.08.2022 02:29 8,6 C 90 % 1025,5 hPa 0,0 l/m 4,8 km/h (1 Bft) N-NO 22 0,000 mm 7,1 C 8,2 C 6,4 km/h (2 Bft) 95,65 %
09.08.2022 02:28 8,6 C 90 % 1025,6 hPa 0,0 l/m 1,6 km/h (1 Bft) NO 45 0,000 mm 7,1 C 8,6 C 4,8 km/h (1 Bft) 100,00 %
09.08.2022 02:27 8,6 C 90 % 1025,6 hPa 0,0 l/m 1,6 km/h (1 Bft) N-NO 22 0,000 mm 7,1 C 8,6 C 3,2 km/h (1 Bft) 95,65 %
09.08.2022 02:26 8,5 C 90 % 1025,6 hPa 0,0 l/m 1,6 km/h (1 Bft) NO 45 0,000 mm 7,0 C 8,5 C 3,2 km/h (1 Bft) 100,00 %
09.08.2022 02:25 8,5 C 89 % 1025,6 hPa 0,0 l/m 0,0 km/h (0 Bft) NO 45 0,000 mm 6,8 C 8,5 C 1,6 km/h (1 Bft) 100,00 %
09.08.2022 02:24 8,5 C 89 % 1025,6 hPa 0,0 l/m 1,6 km/h (1 Bft) NO 45 0,000 mm 6,8 C 8,5 C 4,8 km/h (1 Bft) 100,00 %
09.08.2022 02:23 8,6 C 89 % 1025,6 hPa 0,0 l/m 3,2 km/h (1 Bft) NO 45 0,000 mm 6,9 C 8,6 C 4,8 km/h (1 Bft) 100,00 %
09.08.2022 02:22 8,6 C 89 % 1025,6 hPa 0,0 l/m 3,2 km/h (1 Bft) NO 45 0,000 mm 6,9 C 8,6 C 4,8 km/h (1 Bft) 100,00 %
09.08.2022 02:21 8,6 C 89 % 1025,5 hPa 0,0 l/m 3,2 km/h (1 Bft) NO 45 0,000 mm 6,9 C 8,6 C 4,8 km/h (1 Bft) 100,00 %
09.08.2022 02:20 8,6 C 88 % 1025,5 hPa 0,0 l/m 3,2 km/h (1 Bft) NO 45 0,000 mm 6,7 C 8,6 C 6,4 km/h (2 Bft) 95,65 %
09.08.2022 02:19 8,7 C 87 % 1025,5 hPa 0,0 l/m 3,2 km/h (1 Bft) NO 45 0,000 mm 6,7 C 8,7 C 4,8 km/h (1 Bft) 100,00 %
09.08.2022 02:18 8,8 C 87 % 1025,6 hPa 0,0 l/m 4,8 km/h (1 Bft) NO 45 0,000 mm 6,8 C 8,5 C 6,4 km/h (2 Bft) 100,00 %
09.08.2022 02:17 9,1 C 88 % 1025,5 hPa 0,0 l/m 3,2 km/h (1 Bft) NO 45 0,000 mm 7,2 C 9,1 C 4,8 km/h (1 Bft) 100,00 %
09.08.2022 02:16 9,0 C 87 % 1025,5 hPa 0,0 l/m 4,8 km/h (1 Bft) NO 45 0,000 mm 7,0 C 8,7 C 6,4 km/h (2 Bft) 100,00 %
09.08.2022 02:15 9,1 C 87 % 1025,5 hPa 0,0 l/m 4,8 km/h (1 Bft) NO 45 0,000 mm 7,1 C 8,8 C 4,8 km/h (1 Bft) 100,00 %
09.08.2022 02:14 9,2 C 87 % 1025,5 hPa 0,0 l/m 4,8 km/h (1 Bft) NO 45 0,000 mm 7,2 C 8,9 C 6,4 km/h (2 Bft) 100,00 %
09.08.2022 02:13 9,3 C 87 % 1025,5 hPa 0,0 l/m 4,8 km/h (1 Bft) NO 45 0,000 mm 7,2 C 9,0 C 6,4 km/h (2 Bft) 91,30 %
09.08.2022 02:12 9,3 C 88 % 1025,6 hPa 0,0 l/m 4,8 km/h (1 Bft) NO 45 0,000 mm 7,4 C 9,0 C 6,4 km/h (2 Bft) 100,00 %
09.08.2022 02:11 9,2 C 88 % 1025,6 hPa 0,0 l/m 6,4 km/h (2 Bft) NO 45 0,000 mm 7,3 C 8,4 C 6,4 km/h (2 Bft) 95,65 %
09.08.2022 02:10 9,1 C 88 % 1025,6 hPa 0,0 l/m 4,8 km/h (1 Bft) NO 45 0,000 mm 7,2 C 8,8 C 6,4 km/h (2 Bft) 100,00 %
09.08.2022 02:09 9,1 C 88 % 1025,6 hPa 0,0 l/m 3,2 km/h (1 Bft) NO 45 0,000 mm 7,2 C 9,1 C 6,4 km/h (2 Bft) 100,00 %
09.08.2022 02:08 8,9 C 87 % 1025,6 hPa 0,0 l/m 4,8 km/h (1 Bft) NO 45 0,000 mm 6,9 C 8,6 C 6,4 km/h (2 Bft) 100,00 %
09.08.2022 02:07 9,0 C 87 % 1025,5 hPa 0,0 l/m 3,2 km/h (1 Bft) O-NO 67 0,000 mm 7,0 C 9,0 C 6,4 km/h (2 Bft) 100,00 %
09.08.2022 02:06 9,1 C 87 % 1025,6 hPa 0,0 l/m 4,8 km/h (1 Bft) O-NO 67 0,000 mm 7,1 C 8,8 C 6,4 km/h (2 Bft) 95,65 %
09.08.2022 02:05 9,2 C 87 % 1025,5 hPa 0,0 l/m 4,8 km/h (1 Bft) O-NO 67 0,000 mm 7,2 C 8,9 C 6,4 km/h (2 Bft) 95,65 %
09.08.2022 02:04 9,3 C 85 % 1025,5 hPa 0,0 l/m 3,2 km/h (1 Bft) NO 45 0,000 mm 6,9 C 9,3 C 6,4 km/h (2 Bft) 95,65 %
09.08.2022 02:03 9,5 C 84 % 1025,5 hPa 0,0 l/m 4,8 km/h (1 Bft) NO 45 0,000 mm 6,9 C 9,3 C 6,4 km/h (2 Bft) 100,00 %
09.08.2022 02:02 9,8 C 84 % 1025,5 hPa 0,0 l/m 4,8 km/h (1 Bft) NO 45 0,000 mm 7,2 C 9,6 C 6,4 km/h (2 Bft) 95,65 %
09.08.2022 02:01 10,1 C 85 % 1025,5 hPa 0,0 l/m 4,8 km/h (1 Bft) NO 45 0,000 mm 7,7 C 10,1 C 4,8 km/h (1 Bft) 100,00 %
09.08.2022 02:00 10,1 C 85 % 1025,6 hPa 0,0 l/m 4,8 km/h (1 Bft) NO 45 0,000 mm 7,7 C 10,1 C 6,4 km/h (2 Bft) 100,00 %
09.08.2022 01:59 10,2 C 85 % 1025,6 hPa 0,0 l/m 4,8 km/h (1 Bft) NO 45 0,000 mm 7,8 C 10,2 C 6,4 km/h (2 Bft) 95,65 %
09.08.2022 01:58 10,2 C 85 % 1025,6 hPa 0,0 l/m 3,2 km/h (1 Bft) NO 45 0,000 mm 7,8 C 10,2 C 4,8 km/h (1 Bft) 100,00 %
09.08.2022 01:57 10,2 C 84 % 1025,5 hPa 0,0 l/m 4,8 km/h (1 Bft) NO 45 0,000 mm 7,6 C 10,2 C 6,4 km/h (2 Bft) 100,00 %
09.08.2022 01:56 10,2 C 84 % 1025,6 hPa 0,0 l/m 4,8 km/h (1 Bft) NO 45 0,000 mm 7,6 C 10,2 C 4,8 km/h (1 Bft) 100,00 %
09.08.2022 01:55 10,3 C 84 % 1025,5 hPa 0,0 l/m 4,8 km/h (1 Bft) NO 45 0,000 mm 7,7 C 10,3 C 4,8 km/h (1 Bft) 100,00 %
09.08.2022 01:54 10,4 C 85 % 1025,6 hPa 0,0 l/m 4,8 km/h (1 Bft) NO 45 0,000 mm 8,0 C 10,4 C 6,4 km/h (2 Bft) 100,00 %
09.08.2022 01:53 10,3 C 86 % 1025,6 hPa 0,0 l/m 4,8 km/h (1 Bft) NO 45 0,000 mm 8,1 C 10,3 C 4,8 km/h (1 Bft) 95,65 %
09.08.2022 01:52 10,1 C 86 % 1025,5 hPa 0,0 l/m 4,8 km/h (1 Bft) NO 45 0,000 mm 7,9 C 10,1 C 4,8 km/h (1 Bft) 95,65 %
09.08.2022 01:51 9,9 C 86 % 1025,6 hPa 0,0 l/m 4,8 km/h (1 Bft) NO 45 0,000 mm 7,7 C 9,7 C 6,4 km/h (2 Bft) 100,00 %
09.08.2022 01:50 9,8 C 86 % 1025,5 hPa 0,0 l/m 4,8 km/h (1 Bft) NO 45 0,000 mm 7,6 C 9,6 C 6,4 km/h (2 Bft) 100,00 %
09.08.2022 01:49 9,7 C 86 % 1025,5 hPa 0,0 l/m 4,8 km/h (1 Bft) NO 45 0,000 mm 7,5 C 9,5 C 6,4 km/h (2 Bft) 95,65 %
09.08.2022 01:48 9,7 C 86 % 1025,4 hPa 0,0 l/m 4,8 km/h (1 Bft) NO 45 0,000 mm 7,5 C 9,5 C 6,4 km/h (2 Bft) 100,00 %
09.08.2022 01:47 9,7 C 85 % 1025,5 hPa 0,0 l/m 3,2 km/h (1 Bft) NO 45 0,000 mm 7,3 C 9,7 C 4,8 km/h (1 Bft) 100,00 %
09.08.2022 01:46 9,8 C 85 % 1025,5 hPa 0,0 l/m 3,2 km/h (1 Bft) NO 45 0,000 mm 7,4 C 9,8 C 4,8 km/h (1 Bft) 100,00 %
09.08.2022 01:45 9,8 C 86 % 1025,4 hPa 0,0 l/m 4,8 km/h (1 Bft) NO 45 0,000 mm 7,6 C 9,6 C 6,4 km/h (2 Bft) 95,65 %
09.08.2022 01:44 9,8 C 86 % 1025,4 hPa 0,0 l/m 4,8 km/h (1 Bft) NO 45 0,000 mm 7,6 C 9,6 C 6,4 km/h (2 Bft) 100,00 %
09.08.2022 01:43 9,8 C 85 % 1025,5 hPa 0,0 l/m 3,2 km/h (1 Bft) NO 45 0,000 mm 7,4 C 9,8 C 4,8 km/h (1 Bft) 100,00 %
09.08.2022 01:42 9,8 C 85 % 1025,5 hPa 0,0 l/m 4,8 km/h (1 Bft) NO 45 0,000 mm 7,4 C 9,6 C 6,4 km/h (2 Bft) 95,65 %
09.08.2022 01:41 9,9 C 86 % 1025,6 hPa 0,0 l/m 3,2 km/h (1 Bft) NO 45 0,000 mm 7,7 C 9,9 C 4,8 km/h (1 Bft) 100,00 %
09.08.2022 01:40 9,8 C 86 % 1025,4 hPa 0,0 l/m 4,8 km/h (1 Bft) NO 45 0,000 mm 7,6 C 9,6 C 6,4 km/h (2 Bft) 100,00 %
09.08.2022 01:39 9,8 C 86 % 1025,4 hPa 0,0 l/m 4,8 km/h (1 Bft) NO 45 0,000 mm 7,6 C 9,6 C 4,8 km/h (1 Bft) 95,65 %
09.08.2022 01:38 9,7 C 86 % 1025,5 hPa 0,0 l/m 3,2 km/h (1 Bft) NO 45 0,000 mm 7,5 C 9,7 C 6,4 km/h (2 Bft) 95,65 %
09.08.2022 01:37 9,7 C 85 % 1025,6 hPa 0,0 l/m 4,8 km/h (1 Bft) NO 45 0,000 mm 7,3 C 9,5 C 6,4 km/h (2 Bft) 100,00 %
09.08.2022 01:36 9,8 C 86 % 1025,4 hPa 0,0 l/m 4,8 km/h (1 Bft) NO 45 0,000 mm 7,6 C 9,6 C 4,8 km/h (1 Bft) 100,00 %
09.08.2022 01:35 9,8 C 86 % 1025,4 hPa 0,0 l/m 4,8 km/h (1 Bft) NO 45 0,000 mm 7,6 C 9,6 C 6,4 km/h (2 Bft) 100,00 %
09.08.2022 01:34 9,7 C 86 % 1025,5 hPa 0,0 l/m 4,8 km/h (1 Bft) N-NO 22 0,000 mm 7,5 C 9,5 C 6,4 km/h (2 Bft) 100,00 %
09.08.2022 01:33 9,6 C 86 % 1025,5 hPa 0,0 l/m 4,8 km/h (1 Bft) NO 45 0,000 mm 7,4 C 9,4 C 4,8 km/h (1 Bft) 100,00 %
09.08.2022 01:32 9,7 C 86 % 1025,4 hPa 0,0 l/m 4,8 km/h (1 Bft) NO 45 0,000 mm 7,5 C 9,5 C 6,4 km/h (2 Bft) 95,65 %
09.08.2022 01:31 9,7 C 87 % 1025,3 hPa 0,0 l/m 4,8 km/h (1 Bft) N-NO 22 0,000 mm 7,6 C 9,5 C 8,0 km/h (2 Bft) 95,65 %
09.08.2022 01:30 9,6 C 86 % 1025,3 hPa 0,0 l/m 4,8 km/h (1 Bft) NO 45 0,000 mm 7,4 C 9,4 C 8,0 km/h (2 Bft) 100,00 %
09.08.2022 01:29 9,6 C 87 % 1025,2 hPa 0,0 l/m 4,8 km/h (1 Bft) NO 45 0,000 mm 7,5 C 9,4 C 6,4 km/h (2 Bft) 95,65 %
09.08.2022 01:28 9,5 C 86 % 1025,3 hPa 0,0 l/m 3,2 km/h (1 Bft) NO 45 0,000 mm 7,3 C 9,5 C 4,8 km/h (1 Bft) 100,00 %
09.08.2022 01:27 9,6 C 86 % 1025,3 hPa 0,0 l/m 4,8 km/h (1 Bft) NO 45 0,000 mm 7,4 C 9,4 C 6,4 km/h (2 Bft) 100,00 %
09.08.2022 01:26 9,7 C 87 % 1025,2 hPa 0,0 l/m 3,2 km/h (1 Bft) NO 45 0,000 mm 7,6 C 9,7 C 4,8 km/h (1 Bft) 100,00 %
09.08.2022 01:25 9,6 C 87 % 1025,3 hPa 0,0 l/m 4,8 km/h (1 Bft) NO 45 0,000 mm 7,5 C 9,4 C 6,4 km/h (2 Bft) 100,00 %
09.08.2022 01:24 9,4 C 86 % 1025,2 hPa 0,0 l/m 4,8 km/h (1 Bft) NO 45 0,000 mm 7,2 C 9,1 C 6,4 km/h (2 Bft) 95,65 %
09.08.2022 01:23 9,4 C 87 % 1025,3 hPa 0,0 l/m 4,8 km/h (1 Bft) NO 45 0,000 mm 7,3 C 9,1 C 6,4 km/h (2 Bft) 100,00 %
09.08.2022 01:22 9,4 C 87 % 1025,3 hPa 0,0 l/m 4,8 km/h (1 Bft) NO 45 0,000 mm 7,3 C 9,1 C 6,4 km/h (2 Bft) 100,00 %
09.08.2022 01:21 9,3 C 87 % 1025,2 hPa 0,0 l/m 4,8 km/h (1 Bft) NO 45 0,000 mm 7,2 C 9,0 C 6,4 km/h (2 Bft) 100,00 %
09.08.2022 01:20 9,3 C 87 % 1025,2 hPa 0,0 l/m 3,2 km/h (1 Bft) O-NO 67 0,000 mm 7,2 C 9,3 C 4,8 km/h (1 Bft) 100,00 %
09.08.2022 01:19 9,3 C 87 % 1025,2 hPa 0,0 l/m 3,2 km/h (1 Bft) NO 45 0,000 mm 7,2 C 9,3 C 6,4 km/h (2 Bft) 91,30 %
09.08.2022 01:18 9,2 C 87 % 1025,3 hPa 0,0 l/m 4,8 km/h (1 Bft) NO 45 0,000 mm 7,2 C 8,9 C 6,4 km/h (2 Bft) 95,65 %
09.08.2022 01:17 9,3 C 87 % 1025,2 hPa 0,0 l/m 4,8 km/h (1 Bft) NO 45 0,000 mm 7,2 C 9,0 C 4,8 km/h (1 Bft) 100,00 %
09.08.2022 01:16 9,3 C 88 % 1025,2 hPa 0,0 l/m 4,8 km/h (1 Bft) NO 45 0,000 mm 7,4 C 9,0 C 6,4 km/h (2 Bft) 95,65 %
09.08.2022 01:15 9,2 C 88 % 1025,2 hPa 0,0 l/m 4,8 km/h (1 Bft) NO 45 0,000 mm 7,3 C 8,9 C 6,4 km/h (2 Bft) 100,00 %
09.08.2022 01:14 9,1 C 88 % 1025,2 hPa 0,0 l/m 4,8 km/h (1 Bft) NO 45 0,000 mm 7,2 C 8,8 C 8,0 km/h (2 Bft) 91,30 %
09.08.2022 01:13 9,0 C 88 % 1025,2 hPa 0,0 l/m 4,8 km/h (1 Bft) NO 45 0,000 mm 7,1 C 8,7 C 8,0 km/h (2 Bft) 100,00 %
09.08.2022 01:12 8,9 C 88 % 1025,2 hPa 0,0 l/m 4,8 km/h (1 Bft) N-NO 22 0,000 mm 7,0 C 8,6 C 8,0 km/h (2 Bft) 100,00 %
09.08.2022 01:11 8,9 C 88 % 1025,2 hPa 0,0 l/m 4,8 km/h (1 Bft) N-NO 22 0,000 mm 7,0 C 8,6 C 6,4 km/h (2 Bft) 100,00 %
09.08.2022 01:10 9,0 C 87 % 1025,2 hPa 0,0 l/m 4,8 km/h (1 Bft) N-NO 22 0,000 mm 7,0 C 8,7 C 6,4 km/h (2 Bft) 100,00 %
09.08.2022 01:09 9,1 C 87 % 1025,2 hPa 0,0 l/m 4,8 km/h (1 Bft) NO 45 0,000 mm 7,1 C 8,8 C 6,4 km/h (2 Bft) 95,65 %
09.08.2022 01:08 9,2 C 88 % 1025,4 hPa 0,0 l/m 4,8 km/h (1 Bft) NO 45 0,000 mm 7,3 C 8,9 C 6,4 km/h (2 Bft) 95,65 %
09.08.2022 01:07 9,2 C 88 % 1025,2 hPa 0,0 l/m 4,8 km/h (1 Bft) NO 45 0,000 mm 7,3 C 8,9 C 6,4 km/h (2 Bft) 100,00 %
09.08.2022 01:06 9,1 C 88 % 1025,3 hPa 0,0 l/m 3,2 km/h (1 Bft) NO 45 0,000 mm 7,2 C 9,1 C 4,8 km/h (1 Bft) 100,00 %
09.08.2022 01:05 8,9 C 88 % 1025,2 hPa 0,0 l/m 4,8 km/h (1 Bft) NO 45 0,000 mm 7,0 C 8,6 C 6,4 km/h (2 Bft) 100,00 %
09.08.2022 01:04 9,0 C 88 % 1025,2 hPa 0,0 l/m 4,8 km/h (1 Bft) NO 45 0,000 mm 7,1 C 8,7 C 6,4 km/h (2 Bft) 100,00 %
09.08.2022 01:03 8,9 C 88 % 1025,2 hPa 0,0 l/m 4,8 km/h (1 Bft) N-NO 22 0,000 mm 7,0 C 8,6 C 6,4 km/h (2 Bft) 95,65 %
09.08.2022 01:02 8,9 C 88 % 1025,2 hPa 0,0 l/m 3,2 km/h (1 Bft) NO 45 0,000 mm 7,0 C 8,9 C 4,8 km/h (1 Bft) 95,65 %
09.08.2022 01:01 8,9 C 87 % 1025,2 hPa 0,0 l/m 4,8 km/h (1 Bft) NO 45 0,000 mm 6,9 C 8,6 C 4,8 km/h (1 Bft) 100,00 %
09.08.2022 01:00 9,0 C 87 % 1025,2 hPa 0,0 l/m 3,2 km/h (1 Bft) NO 45 0,000 mm 7,0 C 9,0 C 4,8 km/h (1 Bft) 100,00 %
09.08.2022 00:59 9,1 C 87 % 1025,1 hPa 0,0 l/m 4,8 km/h (1 Bft) NO 45 0,000 mm 7,1 C 8,8 C 6,4 km/h (2 Bft) 100,00 %
09.08.2022 00:58 9,2 C 87 % 1025,1 hPa 0,0 l/m 4,8 km/h (1 Bft) NO 45 0,000 mm 7,2 C 8,9 C 4,8 km/h (1 Bft) 95,65 %
09.08.2022 00:57 9,2 C 87 % 1025,1 hPa 0,0 l/m 3,2 km/h (1 Bft) NO 45 0,000 mm 7,2 C 9,2 C 4,8 km/h (1 Bft) 100,00 %
09.08.2022 00:56 9,2 C 87 % 1025,1 hPa 0,0 l/m 4,8 km/h (1 Bft) NO 45 0,000 mm 7,2 C 8,9 C 6,4 km/h (2 Bft) 100,00 %
09.08.2022 00:55 9,2 C 86 % 1025,2 hPa 0,0 l/m 3,2 km/h (1 Bft) NO 45 0,000 mm 7,0 C 9,2 C 4,8 km/h (1 Bft) 95,65 %
09.08.2022 00:54 9,3 C 87 % 1025,1 hPa 0,0 l/m 4,8 km/h (1 Bft) N-NO 22 0,000 mm 7,2 C 9,0 C 6,4 km/h (2 Bft) 100,00 %
09.08.2022 00:53 9,3 C 86 % 1025,2 hPa 0,0 l/m 4,8 km/h (1 Bft) N-NO 22 0,000 mm 7,1 C 9,0 C 6,4 km/h (2 Bft) 95,65 %
09.08.2022 00:52 9,3 C 86 % 1025,2 hPa 0,0 l/m 4,8 km/h (1 Bft) N-NO 22 0,000 mm 7,1 C 9,0 C 4,8 km/h (1 Bft) 100,00 %
09.08.2022 00:51 9,3 C 86 % 1025,2 hPa 0,0 l/m 4,8 km/h (1 Bft) NO 45 0,000 mm 7,1 C 9,0 C 6,4 km/h (2 Bft) 95,65 %
09.08.2022 00:50 9,4 C 86 % 1025,2 hPa 0,0 l/m 3,2 km/h (1 Bft) N-NO 22 0,000 mm 7,2 C 9,4 C 6,4 km/h (2 Bft) 100,00 %
09.08.2022 00:49 9,5 C 86 % 1025,2 hPa 0,0 l/m 4,8 km/h (1 Bft) NO 45 0,000 mm 7,3 C 9,3 C 6,4 km/h (2 Bft) 100,00 %
09.08.2022 00:48 9,5 C 86 % 1025,2 hPa 0,0 l/m 4,8 km/h (1 Bft) N-NO 22 0,000 mm 7,3 C 9,3 C 6,4 km/h (2 Bft) 95,65 %
09.08.2022 00:47 9,5 C 86 % 1025,2 hPa 0,0 l/m 4,8 km/h (1 Bft) NO 45 0,000 mm 7,3 C 9,3 C 4,8 km/h (1 Bft) 100,00 %
09.08.2022 00:46 9,5 C 86 % 1025,2 hPa 0,0 l/m 4,8 km/h (1 Bft) NO 45 0,000 mm 7,3 C 9,3 C 6,4 km/h (2 Bft) 100,00 %
09.08.2022 00:45 9,5 C 85 % 1025,2 hPa 0,0 l/m 4,8 km/h (1 Bft) NO 45 0,000 mm 7,1 C 9,3 C 6,4 km/h (2 Bft) 95,65 %
09.08.2022 00:44 9,6 C 85 % 1025,2 hPa 0,0 l/m 3,2 km/h (1 Bft) NO 45 0,000 mm 7,2 C 9,6 C 4,8 km/h (1 Bft) 95,65 %
09.08.2022 00:43 9,6 C 85 % 1025,2 hPa 0,0 l/m 4,8 km/h (1 Bft) NO 45 0,000 mm 7,2 C 9,4 C 6,4 km/h (2 Bft) 95,65 %
09.08.2022 00:42 9,7 C 84 % 1025,1 hPa 0,0 l/m 4,8 km/h (1 Bft) NO 45 0,000 mm 7,1 C 9,5 C 4,8 km/h (1 Bft) 95,65 %
09.08.2022 00:41 9,8 C 84 % 1025,1 hPa 0,0 l/m 4,8 km/h (1 Bft) NO 45 0,000 mm 7,2 C 9,6 C 6,4 km/h (2 Bft) 95,65 %
09.08.2022 00:40 9,9 C 84 % 1025,2 hPa 0,0 l/m 4,8 km/h (1 Bft) NO 45 0,000 mm 7,3 C 9,7 C 6,4 km/h (2 Bft) 100,00 %
09.08.2022 00:39 10,1 C 83 % 1025,2 hPa 0,0 l/m 3,2 km/h (1 Bft) NO 45 0,000 mm 7,3 C 10,1 C 4,8 km/h (1 Bft) 100,00 %
09.08.2022 00:38 10,2 C 83 % 1025,1 hPa 0,0 l/m 3,2 km/h (1 Bft) NO 45 0,000 mm 7,4 C 10,2 C 4,8 km/h (1 Bft) 100,00 %
09.08.2022 00:37 10,3 C 84 % 1025,2 hPa 0,0 l/m 3,2 km/h (1 Bft) NO 45 0,000 mm 7,7 C 10,3 C 4,8 km/h (1 Bft) 100,00 %
09.08.2022 00:36 10,3 C 83 % 1025,2 hPa 0,0 l/m 3,2 km/h (1 Bft) NO 45 0,000 mm 7,5 C 10,3 C 4,8 km/h (1 Bft) 100,00 %
09.08.2022 00:35 10,4 C 82 % 1025,2 hPa 0,0 l/m 4,8 km/h (1 Bft) NO 45 0,000 mm 7,5 C 10,4 C 4,8 km/h (1 Bft) 91,30 %
09.08.2022 00:34 10,6 C 81 % 1025,1 hPa 0,0 l/m 1,6 km/h (1 Bft) NO 45 0,000 mm 7,5 C 10,6 C 3,2 km/h (1 Bft) 95,65 %
09.08.2022 00:33 10,9 C 81 % 1025,1 hPa 0,0 l/m 3,2 km/h (1 Bft) NO 45 0,000 mm 7,8 C 10,9 C 4,8 km/h (1 Bft) 100,00 %
09.08.2022 00:32 11,1 C 81 % 1025,1 hPa 0,0 l/m 1,6 km/h (1 Bft) NO 45 0,000 mm 8,0 C 11,1 C 3,2 km/h (1 Bft) 95,65 %
09.08.2022 00:31 11,2 C 82 % 1025,2 hPa 0,0 l/m 1,6 km/h (1 Bft) NO 45 0,000 mm 8,2 C 11,2 C 3,2 km/h (1 Bft) 100,00 %
09.08.2022 00:30 11,1 C 83 % 1025,1 hPa 0,0 l/m 3,2 km/h (1 Bft) NO 45 0,000 mm 8,3 C 11,1 C 4,8 km/h (1 Bft) 100,00 %
09.08.2022 00:29 10,8 C 84 % 1025,2 hPa 0,0 l/m 3,2 km/h (1 Bft) NO 45 0,000 mm 8,2 C 10,8 C 4,8 km/h (1 Bft) 100,00 %
09.08.2022 00:28 10,7 C 85 % 1025,2 hPa 0,0 l/m 3,2 km/h (1 Bft) NO 45 0,000 mm 8,3 C 10,7 C 4,8 km/h (1 Bft) 95,65 %
09.08.2022 00:27 10,4 C 85 % 1025,1 hPa 0,0 l/m 3,2 km/h (1 Bft) N-NO 22 0,000 mm 8,0 C 10,4 C 6,4 km/h (2 Bft) 95,65 %
09.08.2022 00:26 10,3 C 86 % 1025,1 hPa 0,0 l/m 3,2 km/h (1 Bft) NO 45 0,000 mm 8,1 C 10,3 C 4,8 km/h (1 Bft) 100,00 %
09.08.2022 00:25 10,1 C 87 % 1025,2 hPa 0,0 l/m 3,2 km/h (1 Bft) NO 45 0,000 mm 8,0 C 10,1 C 4,8 km/h (1 Bft) 100,00 %
09.08.2022 00:24 10,0 C 87 % 1025,1 hPa 0,0 l/m 3,2 km/h (1 Bft) NO 45 0,000 mm 7,9 C 10,0 C 3,2 km/h (1 Bft) 100,00 %
09.08.2022 00:23 9,8 C 87 % 1025,3 hPa 0,0 l/m 3,2 km/h (1 Bft) NO 45 0,000 mm 7,7 C 9,8 C 3,2 km/h (1 Bft) 100,00 %
09.08.2022 00:22 9,8 C 87 % 1025,1 hPa 0,0 l/m 1,6 km/h (1 Bft) NO 45 0,000 mm 7,7 C 9,8 C 3,2 km/h (1 Bft) 100,00 %
09.08.2022 00:21 9,8 C 87 % 1025,1 hPa 0,0 l/m 3,2 km/h (1 Bft) NO 45 0,000 mm 7,7 C 9,8 C 4,8 km/h (1 Bft) 100,00 %
09.08.2022 00:20 9,8 C 87 % 1025,2 hPa 0,0 l/m 3,2 km/h (1 Bft) NO 45 0,000 mm 7,7 C 9,8 C 4,8 km/h (1 Bft) 95,65 %
09.08.2022 00:19 9,9 C 88 % 1025,1 hPa 0,0 l/m 3,2 km/h (1 Bft) N-NO 22 0,000 mm 8,0 C 9,9 C 4,8 km/h (1 Bft) 100,00 %
09.08.2022 00:18 9,7 C 89 % 1025,2 hPa 0,0 l/m 1,6 km/h (1 Bft) NO 45 0,000 mm 8,0 C 9,7 C 3,2 km/h (1 Bft) 100,00 %
09.08.2022 00:17 9,7 C 89 % 1025,2 hPa 0,0 l/m 3,2 km/h (1 Bft) NO 45 0,000 mm 8,0 C 9,7 C 6,4 km/h (2 Bft) 100,00 %
09.08.2022 00:16 9,5 C 89 % 1025,2 hPa 0,0 l/m 3,2 km/h (1 Bft) NO 45 0,000 mm 7,8 C 9,5 C 6,4 km/h (2 Bft) 95,65 %
09.08.2022 00:15 9,4 C 90 % 1025,2 hPa 0,0 l/m 1,6 km/h (1 Bft) NO 45 0,000 mm 7,8 C 9,4 C 3,2 km/h (1 Bft) 100,00 %
09.08.2022 00:14 9,3 C 91 % 1025,2 hPa 0,0 l/m 1,6 km/h (1 Bft) NO 45 0,000 mm 7,9 C 9,3 C 3,2 km/h (1 Bft) 100,00 %
09.08.2022 00:13 9,2 C 91 % 1025,2 hPa 0,0 l/m 3,2 km/h (1 Bft) NO 45 0,000 mm 7,8 C 9,2 C 4,8 km/h (1 Bft) 95,65 %
09.08.2022 00:12 8,9 C 92 % 1025,2 hPa 0,0 l/m 3,2 km/h (1 Bft) NO 45 0,000 mm 7,7 C 8,9 C 4,8 km/h (1 Bft) 100,00 %
09.08.2022 00:11 8,8 C 92 % 1025,2 hPa 0,0 l/m 0,0 km/h (0 Bft) NO 45 0,000 mm 7,6 C 8,8 C 1,6 km/h (1 Bft) 100,00 %
09.08.2022 00:10 8,6 C 91 % 1025,2 hPa 0,0 l/m 1,6 km/h (1 Bft) NO 45 0,000 mm 7,2 C 8,6 C 1,6 km/h (1 Bft) 100,00 %
09.08.2022 00:09 8,5 C 90 % 1025,1 hPa 0,0 l/m 1,6 km/h (1 Bft) NO 45 0,000 mm 7,0 C 8,5 C 3,2 km/h (1 Bft) 100,00 %
09.08.2022 00:08 8,6 C 90 % 1025,2 hPa 0,0 l/m 1,6 km/h (1 Bft) NO 45 0,000 mm 7,1 C 8,6 C 3,2 km/h (1 Bft) 95,65 %
09.08.2022 00:07 8,7 C 90 % 1025,2 hPa 0,0 l/m 3,2 km/h (1 Bft) NO 45 0,000 mm 7,2 C 8,7 C 4,8 km/h (1 Bft) 100,00 %
09.08.2022 00:06 8,7 C 90 % 1025,2 hPa 0,0 l/m 3,2 km/h (1 Bft) NO 45 0,000 mm 7,2 C 8,7 C 4,8 km/h (1 Bft) 95,65 %
09.08.2022 00:05 8,7 C 90 % 1025,2 hPa 0,0 l/m 4,8 km/h (1 Bft) NO 45 0,000 mm 7,2 C 8,3 C 4,8 km/h (1 Bft) 100,00 %
09.08.2022 00:04 8,8 C 91 % 1025,1 hPa 0,0 l/m 4,8 km/h (1 Bft) NO 45 0,000 mm 7,4 C 8,5 C 4,8 km/h (1 Bft) 95,65 %
09.08.2022 00:03 8,8 C 91 % 1025,3 hPa 0,0 l/m 3,2 km/h (1 Bft) N-NO 22 0,000 mm 7,4 C 8,8 C 4,8 km/h (1 Bft) 100,00 %
09.08.2022 00:02 8,8 C 91 % 1025,3 hPa 0,0 l/m 3,2 km/h (1 Bft) N-NO 22 0,000 mm 7,4 C 8,8 C 4,8 km/h (1 Bft) 100,00 %
09.08.2022 00:01 8,7 C 91 % 1025,2 hPa 0,0 l/m 3,2 km/h (1 Bft) N-NO 22 0,000 mm 7,3 C 8,7 C 4,8 km/h (1 Bft) 91,30 %
09.08.2022 00:00 8,7 C 90 % 1025,2 hPa 0,0 l/m 3,2 km/h (1 Bft) NO 45 0,000 mm 7,2 C 8,7 C 4,8 km/h (1 Bft) 95,65 %
08.08.2022 23:59 8,6 C 90 % 1025,3 hPa 0,0 l/m 3,2 km/h (1 Bft) NO 45 0,000 mm 7,1 C 8,6 C 3,2 km/h (1 Bft) 100,00 %
08.08.2022 23:58 8,7 C 90 % 1025,2 hPa 0,0 l/m 3,2 km/h (1 Bft) NO 45 0,000 mm 7,2 C 8,7 C 3,2 km/h (1 Bft) 100,00 %
08.08.2022 23:57 8,7 C 90 % 1025,3 hPa 0,0 l/m 3,2 km/h (1 Bft) NO 45 0,000 mm 7,2 C 8,7 C 4,8 km/h (1 Bft) 100,00 %
08.08.2022 23:56 8,8 C 90 % 1025,3 hPa 0,0 l/m 3,2 km/h (1 Bft) NO 45 0,000 mm 7,3 C 8,8 C 4,8 km/h (1 Bft) 100,00 %
08.08.2022 23:55 8,9 C 90 % 1025,3 hPa 0,0 l/m 3,2 km/h (1 Bft) NO 45 0,000 mm 7,4 C 8,9 C 4,8 km/h (1 Bft) 95,65 %
08.08.2022 23:54 8,9 C 91 % 1025,3 hPa 0,0 l/m 3,2 km/h (1 Bft) NO 45 0,000 mm 7,5 C 8,9 C 4,8 km/h (1 Bft) 100,00 %
08.08.2022 23:53 8,9 C 91 % 1025,3 hPa 0,0 l/m 1,6 km/h (1 Bft) NO 45 0,000 mm 7,5 C 8,9 C 3,2 km/h (1 Bft) 100,00 %
08.08.2022 23:52 8,8 C 92 % 1025,3 hPa 0,0 l/m 3,2 km/h (1 Bft) NO 45 0,000 mm 7,6 C 8,8 C 4,8 km/h (1 Bft) 100,00 %
08.08.2022 23:51 8,7 C 92 % 1025,3 hPa 0,0 l/m 3,2 km/h (1 Bft) NO 45 0,000 mm 7,5 C 8,7 C 4,8 km/h (1 Bft) 100,00 %
08.08.2022 23:50 8,5 C 91 % 1025,3 hPa 0,0 l/m 3,2 km/h (1 Bft) NO 45 0,000 mm 7,1 C 8,5 C 4,8 km/h (1 Bft) 100,00 %
08.08.2022 23:49 8,4 C 91 % 1025,3 hPa 0,0 l/m 3,2 km/h (1 Bft) NO 45 0,000 mm 7,0 C 8,4 C 4,8 km/h (1 Bft) 100,00 %
08.08.2022 23:48 8,3 C 91 % 1025,3 hPa 0,0 l/m 3,2 km/h (1 Bft) NO 45 0,000 mm 6,9 C 8,3 C 4,8 km/h (1 Bft) 95,65 %
08.08.2022 23:47 8,4 C 91 % 1025,3 hPa 0,0 l/m 3,2 km/h (1 Bft) O-NO 67 0,000 mm 7,0 C 8,4 C 4,8 km/h (1 Bft) 100,00 %
08.08.2022 23:46 8,4 C 91 % 1025,3 hPa 0,0 l/m 3,2 km/h (1 Bft) O-NO 67 0,000 mm 7,0 C 8,4 C 4,8 km/h (1 Bft) 100,00 %
08.08.2022 23:45 8,4 C 90 % 1025,3 hPa 0,0 l/m 3,2 km/h (1 Bft) O-NO 67 0,000 mm 6,9 C 8,4 C 4,8 km/h (1 Bft) 100,00 %
08.08.2022 23:44 8,6 C 90 % 1025,2 hPa 0,0 l/m 3,2 km/h (1 Bft) O-NO 67 0,000 mm 7,1 C 8,6 C 4,8 km/h (1 Bft) 100,00 %
08.08.2022 23:43 8,6 C 90 % 1025,2 hPa 0,0 l/m 3,2 km/h (1 Bft) NO 45 0,000 mm 7,1 C 8,6 C 4,8 km/h (1 Bft) 100,00 %
08.08.2022 23:42 8,7 C 90 % 1025,2 hPa 0,0 l/m 3,2 km/h (1 Bft) NO 45 0,000 mm 7,2 C 8,7 C 3,2 km/h (1 Bft) 95,65 %
08.08.2022 23:41 8,8 C 91 % 1025,2 hPa 0,0 l/m 3,2 km/h (1 Bft) NO 45 0,000 mm 7,4 C 8,8 C 4,8 km/h (1 Bft) 95,65 %
08.08.2022 23:40 8,8 C 90 % 1025,2 hPa 0,0 l/m 3,2 km/h (1 Bft) NO 45 0,000 mm 7,3 C 8,8 C 4,8 km/h (1 Bft) 95,65 %
08.08.2022 23:39 8,8 C 91 % 1025,2 hPa 0,0 l/m 3,2 km/h (1 Bft) NO 45 0,000 mm 7,4 C 8,8 C 4,8 km/h (1 Bft) 95,65 %
08.08.2022 23:38 8,8 C 90 % 1025,3 hPa 0,0 l/m 3,2 km/h (1 Bft) NO 45 0,000 mm 7,3 C 8,8 C 4,8 km/h (1 Bft) 100,00 %
08.08.2022 23:37 8,9 C 90 % 1025,3 hPa 0,0 l/m 3,2 km/h (1 Bft) NO 45 0,000 mm 7,4 C 8,9 C 4,8 km/h (1 Bft) 100,00 %
08.08.2022 23:36 8,9 C 91 % 1025,2 hPa 0,0 l/m 3,2 km/h (1 Bft) NO 45 0,000 mm 7,5 C 8,9 C 4,8 km/h (1 Bft) 100,00 %
08.08.2022 23:35 8,9 C 91 % 1025,2 hPa 0,0 l/m 3,2 km/h (1 Bft) NO 45 0,000 mm 7,5 C 8,9 C 4,8 km/h (1 Bft) 100,00 %
08.08.2022 23:34 8,9 C 91 % 1025,2 hPa 0,0 l/m 3,2 km/h (1 Bft) NO 45 0,000 mm 7,5 C 8,9 C 3,2 km/h (1 Bft) 95,65 %
08.08.2022 23:33 8,9 C 91 % 1025,1 hPa 0,0 l/m 3,2 km/h (1 Bft) NO 45 0,000 mm 7,5 C 8,9 C 4,8 km/h (1 Bft) 100,00 %
08.08.2022 23:32 8,8 C 91 % 1025,1 hPa 0,0 l/m 3,2 km/h (1 Bft) NO 45 0,000 mm 7,4 C 8,8 C 4,8 km/h (1 Bft) 100,00 %
08.08.2022 23:31 8,8 C 90 % 1025,1 hPa 0,0 l/m 4,8 km/h (1 Bft) NO 45 0,000 mm 7,3 C 8,5 C 4,8 km/h (1 Bft) 100,00 %
08.08.2022 23:30 8,8 C 90 % 1025,0 hPa 0,0 l/m 3,2 km/h (1 Bft) NO 45 0,000 mm 7,3 C 8,8 C 4,8 km/h (1 Bft) 100,00 %
08.08.2022 23:29 8,9 C 90 % 1025,1 hPa 0,0 l/m 3,2 km/h (1 Bft) NO 45 0,000 mm 7,4 C 8,9 C 4,8 km/h (1 Bft) 100,00 %
08.08.2022 23:28 9,0 C 90 % 1025,2 hPa 0,0 l/m 3,2 km/h (1 Bft) NO 45 0,000 mm 7,4 C 9,0 C 4,8 km/h (1 Bft) 100,00 %
08.08.2022 23:27 9,1 C 91 % 1025,1 hPa 0,0 l/m 3,2 km/h (1 Bft) NO 45 0,000 mm 7,7 C 9,1 C 4,8 km/h (1 Bft) 95,65 %
08.08.2022 23:26 9,0 C 91 % 1025,1 hPa 0,0 l/m 3,2 km/h (1 Bft) NO 45 0,000 mm 7,6 C 9,0 C 4,8 km/h (1 Bft) 100,00 %
08.08.2022 23:25 8,9 C 90 % 1025,1 hPa 0,0 l/m 3,2 km/h (1 Bft) NO 45 0,000 mm 7,4 C 8,9 C 4,8 km/h (1 Bft) 100,00 %
08.08.2022 23:24 8,9 C 90 % 1025,1 hPa 0,0 l/m 3,2 km/h (1 Bft) NO 45 0,000 mm 7,4 C 8,9 C 4,8 km/h (1 Bft) 95,65 %
08.08.2022 23:23 8,9 C 90 % 1025,2 hPa 0,0 l/m 3,2 km/h (1 Bft) NO 45 0,000 mm 7,4 C 8,9 C 4,8 km/h (1 Bft) 100,00 %
08.08.2022 23:22 9,1 C 90 % 1025,2 hPa 0,0 l/m 3,2 km/h (1 Bft) NO 45 0,000 mm 7,5 C 9,1 C 4,8 km/h (1 Bft) 100,00 %
08.08.2022 23:21 9,1 C 90 % 1025,1 hPa 0,0 l/m 3,2 km/h (1 Bft) NO 45 0,000 mm 7,5 C 9,1 C 4,8 km/h (1 Bft) 100,00 %
08.08.2022 23:20 9,2 C 90 % 1025,1 hPa 0,0 l/m 3,2 km/h (1 Bft) NO 45 0,000 mm 7,6 C 9,2 C 4,8 km/h (1 Bft) 95,65 %
08.08.2022 23:19 9,2 C 90 % 1025,2 hPa 0,0 l/m 3,2 km/h (1 Bft) NO 45 0,000 mm 7,6 C 9,2 C 4,8 km/h (1 Bft) 95,65 %
08.08.2022 23:18 9,3 C 90 % 1025,2 hPa 0,0 l/m 3,2 km/h (1 Bft) NO 45 0,000 mm 7,7 C 9,3 C 4,8 km/h (1 Bft) 100,00 %
08.08.2022 23:17 9,3 C 91 % 1025,2 hPa 0,0 l/m 3,2 km/h (1 Bft) NO 45 0,000 mm 7,9 C 9,3 C 4,8 km/h (1 Bft) 95,65 %
08.08.2022 23:16 9,3 C 91 % 1025,2 hPa 0,0 l/m 3,2 km/h (1 Bft) NO 45 0,000 mm 7,9 C 9,3 C 4,8 km/h (1 Bft) 100,00 %
08.08.2022 23:15 9,2 C 90 % 1025,2 hPa 0,0 l/m 3,2 km/h (1 Bft) NO 45 0,000 mm 7,6 C 9,2 C 4,8 km/h (1 Bft) 100,00 %
08.08.2022 23:14 9,2 C 91 % 1025,2 hPa 0,0 l/m 3,2 km/h (1 Bft) NO 45 0,000 mm 7,8 C 9,2 C 3,2 km/h (1 Bft) 91,30 %
08.08.2022 23:13 9,2 C 91 % 1025,2 hPa 0,0 l/m 3,2 km/h (1 Bft) NO 45 0,000 mm 7,8 C 9,2 C 3,2 km/h (1 Bft) 100,00 %
08.08.2022 23:12 9,2 C 91 % 1025,2 hPa 0,0 l/m 3,2 km/h (1 Bft) NO 45 0,000 mm 7,8 C 9,2 C 3,2 km/h (1 Bft) 95,65 %
08.08.2022 23:11 9,2 C 91 % 1025,2 hPa 0,0 l/m 3,2 km/h (1 Bft) NO 45 0,000 mm 7,8 C 9,2 C 4,8 km/h (1 Bft) 100,00 %
08.08.2022 23:10 9,2 C 91 % 1025,2 hPa 0,0 l/m 3,2 km/h (1 Bft) NO 45 0,000 mm 7,8 C 9,2 C 4,8 km/h (1 Bft) 91,30 %
08.08.2022 23:09 9,1 C 91 % 1025,2 hPa 0,0 l/m 3,2 km/h (1 Bft) NO 45 0,000 mm 7,7 C 9,1 C 4,8 km/h (1 Bft) 100,00 %
08.08.2022 23:08 9,0 C 90 % 1025,2 hPa 0,0 l/m 3,2 km/h (1 Bft) NO 45 0,000 mm 7,4 C 9,0 C 3,2 km/h (1 Bft) 100,00 %
08.08.2022 23:07 8,9 C 90 % 1025,2 hPa 0,0 l/m 3,2 km/h (1 Bft) NO 45 0,000 mm 7,4 C 8,9 C 3,2 km/h (1 Bft) 100,00 %
08.08.2022 23:06 8,9 C 89 % 1025,2 hPa 0,0 l/m 3,2 km/h (1 Bft) NO 45 0,000 mm 7,2 C 8,9 C 4,8 km/h (1 Bft) 100,00 %
08.08.2022 23:05 9,0 C 89 % 1025,2 hPa 0,0 l/m 1,6 km/h (1 Bft) NO 45 0,000 mm 7,3 C 9,0 C 3,2 km/h (1 Bft) 95,65 %
08.08.2022 23:04 9,1 C 88 % 1025,2 hPa 0,0 l/m 3,2 km/h (1 Bft) NO 45 0,000 mm 7,2 C 9,1 C 4,8 km/h (1 Bft) 100,00 %
08.08.2022 23:03 9,3 C 88 % 1025,2 hPa 0,0 l/m 3,2 km/h (1 Bft) O-NO 67 0,000 mm 7,4 C 9,3 C 4,8 km/h (1 Bft) 100,00 %
08.08.2022 23:02 9,4 C 88 % 1025,2 hPa 0,0 l/m 3,2 km/h (1 Bft) O-NO 67 0,000 mm 7,5 C 9,4 C 3,2 km/h (1 Bft) 100,00 %
08.08.2022 23:01 9,6 C 88 % 1025,2 hPa 0,0 l/m 3,2 km/h (1 Bft) O-NO 67 0,000 mm 7,7 C 9,6 C 3,2 km/h (1 Bft) 100,00 %
08.08.2022 23:00 9,7 C 88 % 1025,1 hPa 0,0 l/m 3,2 km/h (1 Bft) NO 45 0,000 mm 7,8 C 9,7 C 3,2 km/h (1 Bft) 100,00 %
_ Min-Zeit 06:02 17:08 23:30 - 00:11 - - - 05:59 06:33 04:57 15:08
Minimum _ 6,0 C 55 % 1025,0 hPa - 0,0 km/h (0 Bft) - - - 5,2 C 6,0 C 0,0 km/h (0 Bft) 78,26 %
_ Max-Zeit 15:41 06:08 21:55 23:00 09:52 - - 23:00 14:35 15:41 09:04 23:00
Maximum _ 20,1 C 96 % 1027,6 hPa 0,0 l/m 14,5 km/h
N (3 Bft)
- - 0,000 mm 13,1 C 20,1 C 24,1 km/h
O (4 Bft)
100,00 %
Durchschnitt _ 13,5 C 77 % 1026,1 hPa #0,0 l/m 4,3 km/h (1 Bft) NO - #0,000 mm 9,2 C 13,4 C 6,9 km/h (2 Bft) 98,11 %